<?xml version="1.0" encoding="UTF-8" standalone="no" ?>
<gpx xmlns="http://www.topografix.com/GPX/1/1" xmlns:xsi="http://www.w3.org/2001/XMLSchema-instance" xsi:schemaLocation="http://www.topografix.com/GPX/1/1 http://www.topografix.com/GPX/1/1/gpx.xsd" version="1.1" creator="VisuGPX - https://www.visugpx.com">
  <metadata>
    <name>CORSE - Lac Nino (Ninu) - PEDESTRE - Calacuccia (2B) - Boucle depuis la maison forestière Poppaghia au lac et la fontaine Caroline</name>
    <desc><![CDATA[Randonnée sportive mais accessible.]]></desc>
  </metadata>
  <wpt lat="42.26538" lon="8.9299">
    <ele>1404.3</ele>
    <name><![CDATA[Bergeries de C]]></name>
  </wpt>
  <wpt lat="42.25919" lon="8.93515">
    <ele>1760.046143</ele>
    <name><![CDATA[Bocca a Stazzo]]></name>
  </wpt>
  <wpt lat="42.25787" lon="8.92285">
    <ele>2007.103027</ele>
    <name><![CDATA[Capu a u Tozzu]]></name>
  </wpt>
  <wpt lat="42.26756" lon="8.93021">
    <ele>1369.994141</ele>
    <name><![CDATA[Intersection]]></name>
  </wpt>
  <wpt lat="42.26527" lon="8.89583">
    <ele>1374</ele>
    <name><![CDATA[intersection GR 20 et jaune]]></name>
    <desc><![CDATA[27-JUN-14 13:33:40]]></desc>
    <cmt><![CDATA[27-JUN-14 13:33:40]]></cmt>
  </wpt>
  <wpt lat="42.28448" lon="8.92107">
    <ele>1076.073486</ele>
    <name><![CDATA[Parking]]></name>
    <desc><![CDATA[Forêt]]></desc>
    <cmt><![CDATA[Forêt]]></cmt>
  </wpt>
  <wpt lat="42.25443" lon="8.938">
    <ele>1760.046143</ele>
    <name><![CDATA[Source]]></name>
    <desc><![CDATA[Broussailles]]></desc>
    <cmt><![CDATA[Broussailles]]></cmt>
  </wpt>
  <trk>
    <name><![CDATA[ACTIVE LOG 009]]></name>
    <trkseg>
      <trkpt lat="42.28406" lon="8.92101">
        <ele>1075.852539</ele>
        <time>2014-06-27T07:00:06Z</time>
      </trkpt>
      <trkpt lat="42.28405" lon="8.92103">
        <ele>1075.852539</ele>
        <time>2014-06-27T07:00:07Z</time>
      </trkpt>
      <trkpt lat="42.28403" lon="8.92106">
        <ele>1079.697754</ele>
        <time>2014-06-27T07:00:11Z</time>
      </trkpt>
      <trkpt lat="42.28404" lon="8.92108">
        <ele>1083.542969</ele>
        <time>2014-06-27T07:00:14Z</time>
      </trkpt>
      <trkpt lat="42.28405" lon="8.92106">
        <ele>1087.388428</ele>
        <time>2014-06-27T07:00:18Z</time>
      </trkpt>
      <trkpt lat="42.28406" lon="8.92104">
        <ele>1090.75293</ele>
        <time>2014-06-27T07:00:22Z</time>
      </trkpt>
      <trkpt lat="42.28407" lon="8.921">
        <ele>1094.117676</ele>
        <time>2014-06-27T07:00:28Z</time>
      </trkpt>
      <trkpt lat="42.2841" lon="8.921">
        <ele>1097.482178</ele>
        <time>2014-06-27T07:00:35Z</time>
      </trkpt>
      <trkpt lat="42.28406" lon="8.9211">
        <ele>1100.366455</ele>
        <time>2014-06-27T07:00:58Z</time>
      </trkpt>
      <trkpt lat="42.28402" lon="8.92116">
        <ele>1103.730957</ele>
        <time>2014-06-27T07:01:11Z</time>
      </trkpt>
      <trkpt lat="42.28401" lon="8.92116">
        <ele>1104.692139</ele>
        <time>2014-06-27T07:01:13Z</time>
      </trkpt>
      <trkpt lat="42.28402" lon="8.92111">
        <ele>1107.576172</ele>
        <time>2014-06-27T07:01:24Z</time>
      </trkpt>
      <trkpt lat="42.28409" lon="8.92096">
        <ele>1107.576172</ele>
        <time>2014-06-27T07:02:07Z</time>
      </trkpt>
      <trkpt lat="42.28419" lon="8.92103">
        <ele>1107.576172</ele>
        <time>2014-06-27T07:02:21Z</time>
      </trkpt>
      <trkpt lat="42.28421" lon="8.92104">
        <ele>1107.576172</ele>
        <time>2014-06-27T07:02:23Z</time>
      </trkpt>
      <trkpt lat="42.28425" lon="8.92105">
        <ele>1107.576172</ele>
        <time>2014-06-27T07:02:27Z</time>
      </trkpt>
      <trkpt lat="42.28435" lon="8.92101">
        <ele>1107.095459</ele>
        <time>2014-06-27T07:02:39Z</time>
      </trkpt>
      <trkpt lat="42.28437" lon="8.92103">
        <ele>1106.614746</ele>
        <time>2014-06-27T07:02:42Z</time>
      </trkpt>
      <trkpt lat="42.28454" lon="8.92101">
        <ele>1105.653564</ele>
        <time>2014-06-27T07:02:53Z</time>
      </trkpt>
      <trkpt lat="42.28455" lon="8.92105">
        <ele>1105.653564</ele>
        <time>2014-06-27T07:02:59Z</time>
      </trkpt>
      <trkpt lat="42.28435" lon="8.92121">
        <ele>1107.576172</ele>
        <time>2014-06-27T07:03:19Z</time>
      </trkpt>
      <trkpt lat="42.28422" lon="8.92136">
        <ele>1107.576172</ele>
        <time>2014-06-27T07:03:37Z</time>
      </trkpt>
      <trkpt lat="42.28417" lon="8.92144">
        <ele>1107.576172</ele>
        <time>2014-06-27T07:03:44Z</time>
      </trkpt>
      <trkpt lat="42.28403" lon="8.9216">
        <ele>1108.537354</ele>
        <time>2014-06-27T07:03:59Z</time>
      </trkpt>
      <trkpt lat="42.28396" lon="8.92167">
        <ele>1109.498779</ele>
        <time>2014-06-27T07:04:03Z</time>
      </trkpt>
      <trkpt lat="42.28395" lon="8.92168">
        <ele>1109.979248</ele>
        <time>2014-06-27T07:04:05Z</time>
      </trkpt>
      <trkpt lat="42.28391" lon="8.92174">
        <ele>1111.9021</ele>
        <time>2014-06-27T07:04:18Z</time>
      </trkpt>
      <trkpt lat="42.28391" lon="8.92181">
        <ele>1113.824463</ele>
        <time>2014-06-27T07:04:26Z</time>
      </trkpt>
      <trkpt lat="42.28386" lon="8.92194">
        <ele>1114.305176</ele>
        <time>2014-06-27T07:04:39Z</time>
      </trkpt>
      <trkpt lat="42.28383" lon="8.92203">
        <ele>1114.785889</ele>
        <time>2014-06-27T07:04:48Z</time>
      </trkpt>
      <trkpt lat="42.28382" lon="8.92214">
        <ele>1116.228027</ele>
        <time>2014-06-27T07:04:57Z</time>
      </trkpt>
      <trkpt lat="42.28383" lon="8.92233">
        <ele>1118.150635</ele>
        <time>2014-06-27T07:05:13Z</time>
      </trkpt>
      <trkpt lat="42.28382" lon="8.92247">
        <ele>1119.592773</ele>
        <time>2014-06-27T07:05:25Z</time>
      </trkpt>
      <trkpt lat="42.28382" lon="8.92265">
        <ele>1120.553955</ele>
        <time>2014-06-27T07:05:39Z</time>
      </trkpt>
      <trkpt lat="42.28385" lon="8.9227">
        <ele>1121.034668</ele>
        <time>2014-06-27T07:05:43Z</time>
      </trkpt>
      <trkpt lat="42.28382" lon="8.92283">
        <ele>1121.515137</ele>
        <time>2014-06-27T07:05:52Z</time>
      </trkpt>
      <trkpt lat="42.28382" lon="8.92291">
        <ele>1122.476563</ele>
        <time>2014-06-27T07:05:59Z</time>
      </trkpt>
      <trkpt lat="42.28381" lon="8.92296">
        <ele>1121.99585</ele>
        <time>2014-06-27T07:06:03Z</time>
      </trkpt>
      <trkpt lat="42.2838" lon="8.92303">
        <ele>1123.437988</ele>
        <time>2014-06-27T07:06:09Z</time>
      </trkpt>
      <trkpt lat="42.28379" lon="8.92321">
        <ele>1124.39917</ele>
        <time>2014-06-27T07:06:22Z</time>
      </trkpt>
      <trkpt lat="42.28381" lon="8.92337">
        <ele>1125.841064</ele>
        <time>2014-06-27T07:06:34Z</time>
      </trkpt>
      <trkpt lat="42.28376" lon="8.92359">
        <ele>1126.80249</ele>
        <time>2014-06-27T07:06:49Z</time>
      </trkpt>
      <trkpt lat="42.28377" lon="8.92361">
        <ele>1127.283203</ele>
        <time>2014-06-27T07:06:50Z</time>
      </trkpt>
      <trkpt lat="42.28383" lon="8.92378">
        <ele>1127.283203</ele>
        <time>2014-06-27T07:07:06Z</time>
      </trkpt>
      <trkpt lat="42.28387" lon="8.92384">
        <ele>1128.725098</ele>
        <time>2014-06-27T07:07:11Z</time>
      </trkpt>
      <trkpt lat="42.28396" lon="8.92402">
        <ele>1130.166992</ele>
        <time>2014-06-27T07:07:26Z</time>
      </trkpt>
      <trkpt lat="42.28402" lon="8.92417">
        <ele>1130.647705</ele>
        <time>2014-06-27T07:07:39Z</time>
      </trkpt>
      <trkpt lat="42.28404" lon="8.92419">
        <ele>1130.166992</ele>
        <time>2014-06-27T07:07:41Z</time>
      </trkpt>
      <trkpt lat="42.28405" lon="8.92423">
        <ele>1131.128418</ele>
        <time>2014-06-27T07:07:44Z</time>
      </trkpt>
      <trkpt lat="42.28408" lon="8.92433">
        <ele>1131.128418</ele>
        <time>2014-06-27T07:07:51Z</time>
      </trkpt>
      <trkpt lat="42.2842" lon="8.92446">
        <ele>1133.531738</ele>
        <time>2014-06-27T07:08:08Z</time>
      </trkpt>
      <trkpt lat="42.28422" lon="8.92448">
        <ele>1133.051025</ele>
        <time>2014-06-27T07:08:11Z</time>
      </trkpt>
      <trkpt lat="42.28431" lon="8.92455">
        <ele>1133.531738</ele>
        <time>2014-06-27T07:08:31Z</time>
      </trkpt>
      <trkpt lat="42.28444" lon="8.92465">
        <ele>1135.454346</ele>
        <time>2014-06-27T07:08:45Z</time>
      </trkpt>
      <trkpt lat="42.28463" lon="8.9248">
        <ele>1136.89624</ele>
        <time>2014-06-27T07:09:03Z</time>
      </trkpt>
      <trkpt lat="42.28465" lon="8.92482">
        <ele>1136.89624</ele>
        <time>2014-06-27T07:09:05Z</time>
      </trkpt>
      <trkpt lat="42.28481" lon="8.92498">
        <ele>1138.338379</ele>
        <time>2014-06-27T07:09:19Z</time>
      </trkpt>
      <trkpt lat="42.28493" lon="8.92515">
        <ele>1139.780273</ele>
        <time>2014-06-27T07:09:33Z</time>
      </trkpt>
      <trkpt lat="42.28494" lon="8.92518">
        <ele>1136.89624</ele>
        <time>2014-06-27T07:09:38Z</time>
      </trkpt>
      <trkpt lat="42.28493" lon="8.92518">
        <ele>1138.819092</ele>
        <time>2014-06-27T07:09:41Z</time>
      </trkpt>
      <trkpt lat="42.28497" lon="8.9252">
        <ele>1138.819092</ele>
        <time>2014-06-27T07:10:06Z</time>
      </trkpt>
      <trkpt lat="42.28498" lon="8.92529">
        <ele>1139.299561</ele>
        <time>2014-06-27T07:10:20Z</time>
      </trkpt>
      <trkpt lat="42.28496" lon="8.92531">
        <ele>1137.857666</ele>
        <time>2014-06-27T07:10:47Z</time>
      </trkpt>
      <trkpt lat="42.28488" lon="8.92539">
        <ele>1137.376953</ele>
        <time>2014-06-27T07:11:00Z</time>
      </trkpt>
      <trkpt lat="42.28479" lon="8.92552">
        <ele>1138.819092</ele>
        <time>2014-06-27T07:11:14Z</time>
      </trkpt>
      <trkpt lat="42.28466" lon="8.92567">
        <ele>1138.819092</ele>
        <time>2014-06-27T07:11:28Z</time>
      </trkpt>
      <trkpt lat="42.28451" lon="8.92579">
        <ele>1137.857666</ele>
        <time>2014-06-27T07:11:42Z</time>
      </trkpt>
      <trkpt lat="42.28442" lon="8.9259">
        <ele>1136.89624</ele>
        <time>2014-06-27T07:11:53Z</time>
      </trkpt>
      <trkpt lat="42.28433" lon="8.92616">
        <ele>1136.89624</ele>
        <time>2014-06-27T07:12:11Z</time>
      </trkpt>
      <trkpt lat="42.28416" lon="8.92625">
        <ele>1137.857666</ele>
        <time>2014-06-27T07:12:25Z</time>
      </trkpt>
      <trkpt lat="42.28406" lon="8.92632">
        <ele>1137.376953</ele>
        <time>2014-06-27T07:12:37Z</time>
      </trkpt>
      <trkpt lat="42.28395" lon="8.92651">
        <ele>1136.89624</ele>
        <time>2014-06-27T07:12:53Z</time>
      </trkpt>
      <trkpt lat="42.28388" lon="8.92676">
        <ele>1137.857666</ele>
        <time>2014-06-27T07:13:11Z</time>
      </trkpt>
      <trkpt lat="42.28365" lon="8.92686">
        <ele>1138.338379</ele>
        <time>2014-06-27T07:13:27Z</time>
      </trkpt>
      <trkpt lat="42.28342" lon="8.92698">
        <ele>1139.299561</ele>
        <time>2014-06-27T07:13:45Z</time>
      </trkpt>
      <trkpt lat="42.28323" lon="8.92696">
        <ele>1140.741455</ele>
        <time>2014-06-27T07:14:01Z</time>
      </trkpt>
      <trkpt lat="42.28308" lon="8.92699">
        <ele>1142.183594</ele>
        <time>2014-06-27T07:14:16Z</time>
      </trkpt>
      <trkpt lat="42.28296" lon="8.92698">
        <ele>1145.548096</ele>
        <time>2014-06-27T07:14:32Z</time>
      </trkpt>
      <trkpt lat="42.2828" lon="8.92702">
        <ele>1145.548096</ele>
        <time>2014-06-27T07:14:48Z</time>
      </trkpt>
      <trkpt lat="42.28268" lon="8.92707">
        <ele>1148.432129</ele>
        <time>2014-06-27T07:14:59Z</time>
      </trkpt>
      <trkpt lat="42.28262" lon="8.92709">
        <ele>1148.912842</ele>
        <time>2014-06-27T07:15:06Z</time>
      </trkpt>
      <trkpt lat="42.28249" lon="8.9271">
        <ele>1150.35498</ele>
        <time>2014-06-27T07:15:19Z</time>
      </trkpt>
      <trkpt lat="42.28238" lon="8.9271">
        <ele>1150.835449</ele>
        <time>2014-06-27T07:15:31Z</time>
      </trkpt>
      <trkpt lat="42.28226" lon="8.92707">
        <ele>1152.277344</ele>
        <time>2014-06-27T07:15:45Z</time>
      </trkpt>
      <trkpt lat="42.28216" lon="8.92704">
        <ele>1154.680664</ele>
        <time>2014-06-27T07:15:59Z</time>
      </trkpt>
      <trkpt lat="42.28204" lon="8.92705">
        <ele>1158.04541</ele>
        <time>2014-06-27T07:16:11Z</time>
      </trkpt>
      <trkpt lat="42.28191" lon="8.92707">
        <ele>1160.448486</ele>
        <time>2014-06-27T07:16:26Z</time>
      </trkpt>
      <trkpt lat="42.2818" lon="8.92709">
        <ele>1162.851807</ele>
        <time>2014-06-27T07:16:42Z</time>
      </trkpt>
      <trkpt lat="42.28166" lon="8.92709">
        <ele>1164.293945</ele>
        <time>2014-06-27T07:16:58Z</time>
      </trkpt>
      <trkpt lat="42.28155" lon="8.92711">
        <ele>1167.177979</ele>
        <time>2014-06-27T07:17:14Z</time>
      </trkpt>
      <trkpt lat="42.2815" lon="8.92711">
        <ele>1168.619873</ele>
        <time>2014-06-27T07:17:27Z</time>
      </trkpt>
      <trkpt lat="42.28142" lon="8.92711">
        <ele>1171.023193</ele>
        <time>2014-06-27T07:17:40Z</time>
      </trkpt>
      <trkpt lat="42.28136" lon="8.92712">
        <ele>1173.906982</ele>
        <time>2014-06-27T07:17:49Z</time>
      </trkpt>
      <trkpt lat="42.28129" lon="8.92717">
        <ele>1175.82959</ele>
        <time>2014-06-27T07:18:03Z</time>
      </trkpt>
      <trkpt lat="42.28126" lon="8.92724">
        <ele>1176.791016</ele>
        <time>2014-06-27T07:18:14Z</time>
      </trkpt>
      <trkpt lat="42.2812" lon="8.92727">
        <ele>1176.791016</ele>
        <time>2014-06-27T07:18:29Z</time>
      </trkpt>
      <trkpt lat="42.28101" lon="8.92728">
        <ele>1177.752197</ele>
        <time>2014-06-27T07:18:47Z</time>
      </trkpt>
      <trkpt lat="42.28083" lon="8.92732">
        <ele>1180.155762</ele>
        <time>2014-06-27T07:19:05Z</time>
      </trkpt>
      <trkpt lat="42.28072" lon="8.92733">
        <ele>1182.078369</ele>
        <time>2014-06-27T07:19:21Z</time>
      </trkpt>
      <trkpt lat="42.28069" lon="8.92731">
        <ele>1184.000977</ele>
        <time>2014-06-27T07:19:36Z</time>
      </trkpt>
      <trkpt lat="42.28062" lon="8.92733">
        <ele>1184.962402</ele>
        <time>2014-06-27T07:19:48Z</time>
      </trkpt>
      <trkpt lat="42.28058" lon="8.92734">
        <ele>1186.404297</ele>
        <time>2014-06-27T07:19:52Z</time>
      </trkpt>
      <trkpt lat="42.2804" lon="8.92732">
        <ele>1186.404297</ele>
        <time>2014-06-27T07:20:08Z</time>
      </trkpt>
      <trkpt lat="42.28021" lon="8.92735">
        <ele>1189.288086</ele>
        <time>2014-06-27T07:20:27Z</time>
      </trkpt>
      <trkpt lat="42.28003" lon="8.92731">
        <ele>1191.210693</ele>
        <time>2014-06-27T07:20:47Z</time>
      </trkpt>
      <trkpt lat="42.27985" lon="8.92726">
        <ele>1192.652832</ele>
        <time>2014-06-27T07:21:06Z</time>
      </trkpt>
      <trkpt lat="42.27965" lon="8.9272">
        <ele>1195.055908</ele>
        <time>2014-06-27T07:21:27Z</time>
      </trkpt>
      <trkpt lat="42.2795" lon="8.92715">
        <ele>1196.97876</ele>
        <time>2014-06-27T07:21:44Z</time>
      </trkpt>
      <trkpt lat="42.27933" lon="8.92712">
        <ele>1199.38208</ele>
        <time>2014-06-27T07:22:03Z</time>
      </trkpt>
      <trkpt lat="42.27919" lon="8.92711">
        <ele>1200.343506</ele>
        <time>2014-06-27T07:22:18Z</time>
      </trkpt>
      <trkpt lat="42.27914" lon="8.92703">
        <ele>1200.823975</ele>
        <time>2014-06-27T07:22:30Z</time>
      </trkpt>
      <trkpt lat="42.27903" lon="8.92702">
        <ele>1200.823975</ele>
        <time>2014-06-27T07:22:41Z</time>
      </trkpt>
      <trkpt lat="42.27893" lon="8.92697">
        <ele>1203.708008</ele>
        <time>2014-06-27T07:22:55Z</time>
      </trkpt>
      <trkpt lat="42.27873" lon="8.92695">
        <ele>1203.227295</ele>
        <time>2014-06-27T07:23:11Z</time>
      </trkpt>
      <trkpt lat="42.27853" lon="8.92692">
        <ele>1204.669189</ele>
        <time>2014-06-27T07:23:28Z</time>
      </trkpt>
      <trkpt lat="42.27842" lon="8.92691">
        <ele>1205.630615</ele>
        <time>2014-06-27T07:23:42Z</time>
      </trkpt>
      <trkpt lat="42.27826" lon="8.92689">
        <ele>1206.591797</ele>
        <time>2014-06-27T07:23:54Z</time>
      </trkpt>
      <trkpt lat="42.27821" lon="8.92689">
        <ele>1206.591797</ele>
        <time>2014-06-27T07:23:58Z</time>
      </trkpt>
      <trkpt lat="42.27819" lon="8.92688">
        <ele>1206.591797</ele>
        <time>2014-06-27T07:24:01Z</time>
      </trkpt>
      <trkpt lat="42.27804" lon="8.92686">
        <ele>1208.033936</ele>
        <time>2014-06-27T07:24:15Z</time>
      </trkpt>
      <trkpt lat="42.27792" lon="8.92688">
        <ele>1209.47583</ele>
        <time>2014-06-27T07:24:26Z</time>
      </trkpt>
      <trkpt lat="42.27783" lon="8.92687">
        <ele>1210.917725</ele>
        <time>2014-06-27T07:24:38Z</time>
      </trkpt>
      <trkpt lat="42.27775" lon="8.92686">
        <ele>1210.917725</ele>
        <time>2014-06-27T07:24:48Z</time>
      </trkpt>
      <trkpt lat="42.27758" lon="8.92688">
        <ele>1211.398438</ele>
        <time>2014-06-27T07:25:04Z</time>
      </trkpt>
      <trkpt lat="42.27749" lon="8.92688">
        <ele>1212.359863</ele>
        <time>2014-06-27T07:25:12Z</time>
      </trkpt>
      <trkpt lat="42.27729" lon="8.92697">
        <ele>1212.840576</ele>
        <time>2014-06-27T07:25:29Z</time>
      </trkpt>
      <trkpt lat="42.27712" lon="8.92705">
        <ele>1212.359863</ele>
        <time>2014-06-27T07:25:47Z</time>
      </trkpt>
      <trkpt lat="42.27709" lon="8.92711">
        <ele>1214.282471</ele>
        <time>2014-06-27T07:25:57Z</time>
      </trkpt>
      <trkpt lat="42.27705" lon="8.9272">
        <ele>1214.282471</ele>
        <time>2014-06-27T07:26:06Z</time>
      </trkpt>
      <trkpt lat="42.27692" lon="8.92724">
        <ele>1214.763184</ele>
        <time>2014-06-27T07:26:21Z</time>
      </trkpt>
      <trkpt lat="42.27683" lon="8.92725">
        <ele>1216.205078</ele>
        <time>2014-06-27T07:26:32Z</time>
      </trkpt>
      <trkpt lat="42.27672" lon="8.92728">
        <ele>1218.608398</ele>
        <time>2014-06-27T07:26:46Z</time>
      </trkpt>
      <trkpt lat="42.27664" lon="8.92729">
        <ele>1220.531006</ele>
        <time>2014-06-27T07:26:59Z</time>
      </trkpt>
      <trkpt lat="42.27658" lon="8.92732">
        <ele>1221.9729</ele>
        <time>2014-06-27T07:27:06Z</time>
      </trkpt>
      <trkpt lat="42.27649" lon="8.92739">
        <ele>1222.453613</ele>
        <time>2014-06-27T07:27:22Z</time>
      </trkpt>
      <trkpt lat="42.27636" lon="8.92739">
        <ele>1224.856934</ele>
        <time>2014-06-27T07:27:37Z</time>
      </trkpt>
      <trkpt lat="42.27634" lon="8.92739">
        <ele>1224.856934</ele>
        <time>2014-06-27T07:27:39Z</time>
      </trkpt>
      <trkpt lat="42.27624" lon="8.92734">
        <ele>1226.298828</ele>
        <time>2014-06-27T07:27:52Z</time>
      </trkpt>
      <trkpt lat="42.27619" lon="8.92737">
        <ele>1227.260254</ele>
        <time>2014-06-27T07:28:06Z</time>
      </trkpt>
      <trkpt lat="42.27611" lon="8.92742">
        <ele>1228.22168</ele>
        <time>2014-06-27T07:28:19Z</time>
      </trkpt>
      <trkpt lat="42.27604" lon="8.92754">
        <ele>1227.740723</ele>
        <time>2014-06-27T07:28:33Z</time>
      </trkpt>
      <trkpt lat="42.27601" lon="8.92757">
        <ele>1227.740723</ele>
        <time>2014-06-27T07:28:42Z</time>
      </trkpt>
      <trkpt lat="42.276" lon="8.92762">
        <ele>1227.740723</ele>
        <time>2014-06-27T07:28:46Z</time>
      </trkpt>
      <trkpt lat="42.2759" lon="8.92769">
        <ele>1228.702393</ele>
        <time>2014-06-27T07:29:00Z</time>
      </trkpt>
      <trkpt lat="42.2758" lon="8.92773">
        <ele>1229.182861</ele>
        <time>2014-06-27T07:29:14Z</time>
      </trkpt>
      <trkpt lat="42.2757" lon="8.92777">
        <ele>1229.663574</ele>
        <time>2014-06-27T07:29:27Z</time>
      </trkpt>
      <trkpt lat="42.27565" lon="8.92776">
        <ele>1232.066895</ele>
        <time>2014-06-27T07:29:32Z</time>
      </trkpt>
      <trkpt lat="42.27558" lon="8.92779">
        <ele>1233.028076</ele>
        <time>2014-06-27T07:29:42Z</time>
      </trkpt>
      <trkpt lat="42.27552" lon="8.92783">
        <ele>1233.989502</ele>
        <time>2014-06-27T07:29:55Z</time>
      </trkpt>
      <trkpt lat="42.27542" lon="8.92784">
        <ele>1235.431396</ele>
        <time>2014-06-27T07:30:09Z</time>
      </trkpt>
      <trkpt lat="42.27536" lon="8.92781">
        <ele>1235.912109</ele>
        <time>2014-06-27T07:30:19Z</time>
      </trkpt>
      <trkpt lat="42.27526" lon="8.92777">
        <ele>1237.834717</ele>
        <time>2014-06-27T07:30:31Z</time>
      </trkpt>
      <trkpt lat="42.27528" lon="8.9277">
        <ele>1239.276611</ele>
        <time>2014-06-27T07:30:44Z</time>
      </trkpt>
      <trkpt lat="42.27529" lon="8.92761">
        <ele>1241.199219</ele>
        <time>2014-06-27T07:30:56Z</time>
      </trkpt>
      <trkpt lat="42.27525" lon="8.9275">
        <ele>1243.602539</ele>
        <time>2014-06-27T07:31:10Z</time>
      </trkpt>
      <trkpt lat="42.27523" lon="8.92746">
        <ele>1245.044678</ele>
        <time>2014-06-27T07:31:21Z</time>
      </trkpt>
      <trkpt lat="42.2751" lon="8.92747">
        <ele>1245.525391</ele>
        <time>2014-06-27T07:31:37Z</time>
      </trkpt>
      <trkpt lat="42.27495" lon="8.92745">
        <ele>1246.967285</ele>
        <time>2014-06-27T07:31:52Z</time>
      </trkpt>
      <trkpt lat="42.27481" lon="8.92747">
        <ele>1249.370605</ele>
        <time>2014-06-27T07:32:07Z</time>
      </trkpt>
      <trkpt lat="42.27473" lon="8.9275">
        <ele>1250.332031</ele>
        <time>2014-06-27T07:32:19Z</time>
      </trkpt>
      <trkpt lat="42.27461" lon="8.92749">
        <ele>1251.773926</ele>
        <time>2014-06-27T07:32:33Z</time>
      </trkpt>
      <trkpt lat="42.27457" lon="8.9275">
        <ele>1252.735107</ele>
        <time>2014-06-27T07:32:43Z</time>
      </trkpt>
      <trkpt lat="42.27446" lon="8.92752">
        <ele>1253.696533</ele>
        <time>2014-06-27T07:32:56Z</time>
      </trkpt>
      <trkpt lat="42.27442" lon="8.92753">
        <ele>1254.177246</ele>
        <time>2014-06-27T07:33:02Z</time>
      </trkpt>
      <trkpt lat="42.27438" lon="8.92756">
        <ele>1254.177246</ele>
        <time>2014-06-27T07:33:06Z</time>
      </trkpt>
      <trkpt lat="42.2742" lon="8.92764">
        <ele>1255.619141</ele>
        <time>2014-06-27T07:33:20Z</time>
      </trkpt>
      <trkpt lat="42.27411" lon="8.9276">
        <ele>1257.061035</ele>
        <time>2014-06-27T07:33:34Z</time>
      </trkpt>
      <trkpt lat="42.27404" lon="8.92762">
        <ele>1257.061035</ele>
        <time>2014-06-27T07:33:48Z</time>
      </trkpt>
      <trkpt lat="42.27398" lon="8.92764">
        <ele>1256.099609</ele>
        <time>2014-06-27T07:33:58Z</time>
      </trkpt>
      <trkpt lat="42.27399" lon="8.92772">
        <ele>1254.177246</ele>
        <time>2014-06-27T07:34:11Z</time>
      </trkpt>
      <trkpt lat="42.27398" lon="8.92774">
        <ele>1250.8125</ele>
        <time>2014-06-27T07:34:23Z</time>
      </trkpt>
      <trkpt lat="42.27396" lon="8.9277">
        <ele>1252.735107</ele>
        <time>2014-06-27T07:34:40Z</time>
      </trkpt>
      <trkpt lat="42.2738" lon="8.92777">
        <ele>1250.8125</ele>
        <time>2014-06-27T07:34:51Z</time>
      </trkpt>
      <trkpt lat="42.27376" lon="8.92784">
        <ele>1249.851318</ele>
        <time>2014-06-27T07:35:02Z</time>
      </trkpt>
      <trkpt lat="42.27375" lon="8.92795">
        <ele>1251.773926</ele>
        <time>2014-06-27T07:35:14Z</time>
      </trkpt>
      <trkpt lat="42.27374" lon="8.92804">
        <ele>1253.696533</ele>
        <time>2014-06-27T07:35:25Z</time>
      </trkpt>
      <trkpt lat="42.2737" lon="8.92809">
        <ele>1255.619141</ele>
        <time>2014-06-27T07:35:36Z</time>
      </trkpt>
      <trkpt lat="42.27369" lon="8.92817">
        <ele>1255.619141</ele>
        <time>2014-06-27T07:35:53Z</time>
      </trkpt>
      <trkpt lat="42.27371" lon="8.9283">
        <ele>1255.619141</ele>
        <time>2014-06-27T07:36:06Z</time>
      </trkpt>
      <trkpt lat="42.2737" lon="8.92845">
        <ele>1257.541748</ele>
        <time>2014-06-27T07:36:22Z</time>
      </trkpt>
      <trkpt lat="42.27369" lon="8.92853">
        <ele>1258.022461</ele>
        <time>2014-06-27T07:36:33Z</time>
      </trkpt>
      <trkpt lat="42.27366" lon="8.92855">
        <ele>1260.425781</ele>
        <time>2014-06-27T07:36:47Z</time>
      </trkpt>
      <trkpt lat="42.2736" lon="8.9286">
        <ele>1261.86792</ele>
        <time>2014-06-27T07:36:59Z</time>
      </trkpt>
      <trkpt lat="42.27357" lon="8.92866">
        <ele>1263.309814</ele>
        <time>2014-06-27T07:37:10Z</time>
      </trkpt>
      <trkpt lat="42.2735" lon="8.92871">
        <ele>1266.674316</ele>
        <time>2014-06-27T07:37:24Z</time>
      </trkpt>
      <trkpt lat="42.27346" lon="8.92877">
        <ele>1267.635498</ele>
        <time>2014-06-27T07:37:36Z</time>
      </trkpt>
      <trkpt lat="42.2734" lon="8.92877">
        <ele>1270.038818</ele>
        <time>2014-06-27T07:37:49Z</time>
      </trkpt>
      <trkpt lat="42.27337" lon="8.92882">
        <ele>1271.961426</ele>
        <time>2014-06-27T07:38:03Z</time>
      </trkpt>
      <trkpt lat="42.27329" lon="8.92879">
        <ele>1271.961426</ele>
        <time>2014-06-27T07:38:18Z</time>
      </trkpt>
      <trkpt lat="42.27325" lon="8.92881">
        <ele>1275.325928</ele>
        <time>2014-06-27T07:38:30Z</time>
      </trkpt>
      <trkpt lat="42.2732" lon="8.92878">
        <ele>1275.325928</ele>
        <time>2014-06-27T07:38:39Z</time>
      </trkpt>
      <trkpt lat="42.27313" lon="8.92881">
        <ele>1277.249023</ele>
        <time>2014-06-27T07:38:50Z</time>
      </trkpt>
      <trkpt lat="42.2731" lon="8.92872">
        <ele>1279.6521</ele>
        <time>2014-06-27T07:39:04Z</time>
      </trkpt>
      <trkpt lat="42.27302" lon="8.92866">
        <ele>1281.094238</ele>
        <time>2014-06-27T07:39:21Z</time>
      </trkpt>
      <trkpt lat="42.2729" lon="8.9287">
        <ele>1281.574707</ele>
        <time>2014-06-27T07:39:38Z</time>
      </trkpt>
      <trkpt lat="42.27279" lon="8.92866">
        <ele>1282.05542</ele>
        <time>2014-06-27T07:39:52Z</time>
      </trkpt>
      <trkpt lat="42.27273" lon="8.92868">
        <ele>1283.978027</ele>
        <time>2014-06-27T07:40:05Z</time>
      </trkpt>
      <trkpt lat="42.27267" lon="8.92865">
        <ele>1285.900635</ele>
        <time>2014-06-27T07:40:16Z</time>
      </trkpt>
      <trkpt lat="42.2726" lon="8.92868">
        <ele>1287.342529</ele>
        <time>2014-06-27T07:40:28Z</time>
      </trkpt>
      <trkpt lat="42.27255" lon="8.9287">
        <ele>1287.823242</ele>
        <time>2014-06-27T07:40:40Z</time>
      </trkpt>
      <trkpt lat="42.27244" lon="8.92867">
        <ele>1289.265137</ele>
        <time>2014-06-27T07:40:55Z</time>
      </trkpt>
      <trkpt lat="42.27234" lon="8.92871">
        <ele>1291.187744</ele>
        <time>2014-06-27T07:41:08Z</time>
      </trkpt>
      <trkpt lat="42.27234" lon="8.92872">
        <ele>1292.149414</ele>
        <time>2014-06-27T07:41:10Z</time>
      </trkpt>
      <trkpt lat="42.27224" lon="8.92878">
        <ele>1292.149414</ele>
        <time>2014-06-27T07:41:22Z</time>
      </trkpt>
      <trkpt lat="42.27216" lon="8.92882">
        <ele>1293.591309</ele>
        <time>2014-06-27T07:41:34Z</time>
      </trkpt>
      <trkpt lat="42.2721" lon="8.9289">
        <ele>1295.033203</ele>
        <time>2014-06-27T07:41:50Z</time>
      </trkpt>
      <trkpt lat="42.27198" lon="8.92894">
        <ele>1296.955811</ele>
        <time>2014-06-27T07:42:06Z</time>
      </trkpt>
      <trkpt lat="42.27183" lon="8.92897">
        <ele>1298.878418</ele>
        <time>2014-06-27T07:42:21Z</time>
      </trkpt>
      <trkpt lat="42.27175" lon="8.92901">
        <ele>1298.878418</ele>
        <time>2014-06-27T07:42:35Z</time>
      </trkpt>
      <trkpt lat="42.27163" lon="8.92903">
        <ele>1299.839844</ele>
        <time>2014-06-27T07:42:51Z</time>
      </trkpt>
      <trkpt lat="42.27152" lon="8.92899">
        <ele>1301.281738</ele>
        <time>2014-06-27T07:43:05Z</time>
      </trkpt>
      <trkpt lat="42.27141" lon="8.92896">
        <ele>1301.762451</ele>
        <time>2014-06-27T07:43:20Z</time>
      </trkpt>
      <trkpt lat="42.27133" lon="8.92895">
        <ele>1301.762451</ele>
        <time>2014-06-27T07:43:30Z</time>
      </trkpt>
      <trkpt lat="42.27122" lon="8.92895">
        <ele>1302.723633</ele>
        <time>2014-06-27T07:43:44Z</time>
      </trkpt>
      <trkpt lat="42.27115" lon="8.92899">
        <ele>1302.723633</ele>
        <time>2014-06-27T07:43:55Z</time>
      </trkpt>
      <trkpt lat="42.27107" lon="8.92903">
        <ele>1304.64624</ele>
        <time>2014-06-27T07:44:08Z</time>
      </trkpt>
      <trkpt lat="42.27098" lon="8.92911">
        <ele>1306.088135</ele>
        <time>2014-06-27T07:44:22Z</time>
      </trkpt>
      <trkpt lat="42.27091" lon="8.92916">
        <ele>1308.01123</ele>
        <time>2014-06-27T07:44:36Z</time>
      </trkpt>
      <trkpt lat="42.27083" lon="8.9292">
        <ele>1309.933594</ele>
        <time>2014-06-27T07:44:48Z</time>
      </trkpt>
      <trkpt lat="42.27076" lon="8.92929">
        <ele>1310.89502</ele>
        <time>2014-06-27T07:45:01Z</time>
      </trkpt>
      <trkpt lat="42.27071" lon="8.9293">
        <ele>1311.375732</ele>
        <time>2014-06-27T07:45:13Z</time>
      </trkpt>
      <trkpt lat="42.27064" lon="8.92926">
        <ele>1312.336914</ele>
        <time>2014-06-27T07:45:27Z</time>
      </trkpt>
      <trkpt lat="42.2706" lon="8.92924">
        <ele>1315.70166</ele>
        <time>2014-06-27T07:45:37Z</time>
      </trkpt>
      <trkpt lat="42.27063" lon="8.9293">
        <ele>1316.182129</ele>
        <time>2014-06-27T07:45:51Z</time>
      </trkpt>
      <trkpt lat="42.27052" lon="8.92937">
        <ele>1317.143555</ele>
        <time>2014-06-27T07:46:04Z</time>
      </trkpt>
      <trkpt lat="42.27043" lon="8.92941">
        <ele>1319.066162</ele>
        <time>2014-06-27T07:46:17Z</time>
      </trkpt>
      <trkpt lat="42.27041" lon="8.92945">
        <ele>1321.949951</ele>
        <time>2014-06-27T07:46:26Z</time>
      </trkpt>
      <trkpt lat="42.27039" lon="8.92947">
        <ele>1322.430664</ele>
        <time>2014-06-27T07:46:38Z</time>
      </trkpt>
      <trkpt lat="42.27033" lon="8.92948">
        <ele>1323.39209</ele>
        <time>2014-06-27T07:46:49Z</time>
      </trkpt>
      <trkpt lat="42.27018" lon="8.92945">
        <ele>1326.276123</ele>
        <time>2014-06-27T07:47:04Z</time>
      </trkpt>
      <trkpt lat="42.27018" lon="8.92945">
        <ele>1326.276123</ele>
        <time>2014-06-27T07:47:05Z</time>
      </trkpt>
      <trkpt lat="42.27013" lon="8.92949">
        <ele>1327.237549</ele>
        <time>2014-06-27T07:47:21Z</time>
      </trkpt>
      <trkpt lat="42.27008" lon="8.92948">
        <ele>1329.640625</ele>
        <time>2014-06-27T07:47:35Z</time>
      </trkpt>
      <trkpt lat="42.27006" lon="8.92948">
        <ele>1331.082764</ele>
        <time>2014-06-27T07:47:47Z</time>
      </trkpt>
      <trkpt lat="42.27002" lon="8.92949">
        <ele>1333.005127</ele>
        <time>2014-06-27T07:48:03Z</time>
      </trkpt>
      <trkpt lat="42.26995" lon="8.92953">
        <ele>1332.524658</ele>
        <time>2014-06-27T07:48:16Z</time>
      </trkpt>
      <trkpt lat="42.26992" lon="8.92952">
        <ele>1333.48584</ele>
        <time>2014-06-27T07:48:31Z</time>
      </trkpt>
      <trkpt lat="42.26981" lon="8.92951">
        <ele>1334.447266</ele>
        <time>2014-06-27T07:48:47Z</time>
      </trkpt>
      <trkpt lat="42.26972" lon="8.92948">
        <ele>1335.408447</ele>
        <time>2014-06-27T07:49:02Z</time>
      </trkpt>
      <trkpt lat="42.26963" lon="8.9295">
        <ele>1338.29248</ele>
        <time>2014-06-27T07:49:15Z</time>
      </trkpt>
      <trkpt lat="42.2696" lon="8.92951">
        <ele>1340.695801</ele>
        <time>2014-06-27T07:49:29Z</time>
      </trkpt>
      <trkpt lat="42.26949" lon="8.92953">
        <ele>1343.099121</ele>
        <time>2014-06-27T07:49:43Z</time>
      </trkpt>
      <trkpt lat="42.26946" lon="8.92952">
        <ele>1344.541016</ele>
        <time>2014-06-27T07:49:59Z</time>
      </trkpt>
      <trkpt lat="42.26939" lon="8.92951">
        <ele>1344.541016</ele>
        <time>2014-06-27T07:50:18Z</time>
      </trkpt>
      <trkpt lat="42.26941" lon="8.92951">
        <ele>1344.060547</ele>
        <time>2014-06-27T07:50:42Z</time>
      </trkpt>
      <trkpt lat="42.26933" lon="8.9295">
        <ele>1344.060547</ele>
        <time>2014-06-27T07:50:56Z</time>
      </trkpt>
      <trkpt lat="42.26932" lon="8.9295">
        <ele>1343.579834</ele>
        <time>2014-06-27T07:50:57Z</time>
      </trkpt>
      <trkpt lat="42.26923" lon="8.92953">
        <ele>1345.021729</ele>
        <time>2014-06-27T07:51:24Z</time>
      </trkpt>
      <trkpt lat="42.26916" lon="8.92952">
        <ele>1345.983154</ele>
        <time>2014-06-27T07:51:38Z</time>
      </trkpt>
      <trkpt lat="42.26914" lon="8.92951">
        <ele>1346.463867</ele>
        <time>2014-06-27T07:51:40Z</time>
      </trkpt>
      <trkpt lat="42.26906" lon="8.92952">
        <ele>1348.38623</ele>
        <time>2014-06-27T07:51:48Z</time>
      </trkpt>
      <trkpt lat="42.26903" lon="8.92951">
        <ele>1347.425049</ele>
        <time>2014-06-27T07:51:51Z</time>
      </trkpt>
      <trkpt lat="42.26891" lon="8.92953">
        <ele>1349.828369</ele>
        <time>2014-06-27T07:52:06Z</time>
      </trkpt>
      <trkpt lat="42.26886" lon="8.9295">
        <ele>1352.231445</ele>
        <time>2014-06-27T07:52:19Z</time>
      </trkpt>
      <trkpt lat="42.26882" lon="8.92951">
        <ele>1353.673584</ele>
        <time>2014-06-27T07:52:31Z</time>
      </trkpt>
      <trkpt lat="42.26877" lon="8.92954">
        <ele>1353.673584</ele>
        <time>2014-06-27T07:52:44Z</time>
      </trkpt>
      <trkpt lat="42.26876" lon="8.92955">
        <ele>1355.115479</ele>
        <time>2014-06-27T07:52:46Z</time>
      </trkpt>
      <trkpt lat="42.26869" lon="8.92956">
        <ele>1357.519043</ele>
        <time>2014-06-27T07:52:58Z</time>
      </trkpt>
      <trkpt lat="42.26859" lon="8.92958">
        <ele>1359.44165</ele>
        <time>2014-06-27T07:53:12Z</time>
      </trkpt>
      <trkpt lat="42.26846" lon="8.92965">
        <ele>1360.883545</ele>
        <time>2014-06-27T07:53:28Z</time>
      </trkpt>
      <trkpt lat="42.26833" lon="8.92964">
        <ele>1362.806152</ele>
        <time>2014-06-27T07:53:43Z</time>
      </trkpt>
      <trkpt lat="42.26828" lon="8.92962">
        <ele>1363.286865</ele>
        <time>2014-06-27T07:53:55Z</time>
      </trkpt>
      <trkpt lat="42.26821" lon="8.92956">
        <ele>1366.651367</ele>
        <time>2014-06-27T07:54:10Z</time>
      </trkpt>
      <trkpt lat="42.26809" lon="8.92951">
        <ele>1369.5354</ele>
        <time>2014-06-27T07:54:26Z</time>
      </trkpt>
      <trkpt lat="42.26808" lon="8.92951">
        <ele>1369.5354</ele>
        <time>2014-06-27T07:54:27Z</time>
      </trkpt>
      <trkpt lat="42.26801" lon="8.92955">
        <ele>1369.5354</ele>
        <time>2014-06-27T07:54:41Z</time>
      </trkpt>
      <trkpt lat="42.26791" lon="8.92956">
        <ele>1370.977295</ele>
        <time>2014-06-27T07:54:55Z</time>
      </trkpt>
      <trkpt lat="42.26786" lon="8.9296">
        <ele>1371.457764</ele>
        <time>2014-06-27T07:55:09Z</time>
      </trkpt>
      <trkpt lat="42.26781" lon="8.92971">
        <ele>1370.496582</ele>
        <time>2014-06-27T07:55:22Z</time>
      </trkpt>
      <trkpt lat="42.26774" lon="8.92982">
        <ele>1370.496582</ele>
        <time>2014-06-27T07:55:36Z</time>
      </trkpt>
      <trkpt lat="42.26767" lon="8.9299">
        <ele>1370.496582</ele>
        <time>2014-06-27T07:55:50Z</time>
      </trkpt>
      <trkpt lat="42.26761" lon="8.92997">
        <ele>1370.977295</ele>
        <time>2014-06-27T07:56:03Z</time>
      </trkpt>
      <trkpt lat="42.26753" lon="8.93003">
        <ele>1371.938477</ele>
        <time>2014-06-27T07:56:19Z</time>
      </trkpt>
      <trkpt lat="42.26744" lon="8.93003">
        <ele>1373.380859</ele>
        <time>2014-06-27T07:56:33Z</time>
      </trkpt>
      <trkpt lat="42.26739" lon="8.93007">
        <ele>1375.303223</ele>
        <time>2014-06-27T07:56:48Z</time>
      </trkpt>
      <trkpt lat="42.26732" lon="8.93009">
        <ele>1377.226074</ele>
        <time>2014-06-27T07:57:03Z</time>
      </trkpt>
      <trkpt lat="42.26726" lon="8.9301">
        <ele>1380.109863</ele>
        <time>2014-06-27T07:57:17Z</time>
      </trkpt>
      <trkpt lat="42.26723" lon="8.93018">
        <ele>1381.551758</ele>
        <time>2014-06-27T07:57:31Z</time>
      </trkpt>
      <trkpt lat="42.2672" lon="8.9302">
        <ele>1382.993652</ele>
        <time>2014-06-27T07:57:44Z</time>
      </trkpt>
      <trkpt lat="42.26715" lon="8.93018">
        <ele>1386.358398</ele>
        <time>2014-06-27T07:57:55Z</time>
      </trkpt>
      <trkpt lat="42.26715" lon="8.93019">
        <ele>1386.358398</ele>
        <time>2014-06-27T07:57:56Z</time>
      </trkpt>
      <trkpt lat="42.2671" lon="8.93013">
        <ele>1387.800293</ele>
        <time>2014-06-27T07:58:09Z</time>
      </trkpt>
      <trkpt lat="42.26701" lon="8.93017">
        <ele>1388.761963</ele>
        <time>2014-06-27T07:58:22Z</time>
      </trkpt>
      <trkpt lat="42.26697" lon="8.93022">
        <ele>1391.165039</ele>
        <time>2014-06-27T07:58:32Z</time>
      </trkpt>
      <trkpt lat="42.2669" lon="8.93033">
        <ele>1393.087646</ele>
        <time>2014-06-27T07:58:48Z</time>
      </trkpt>
      <trkpt lat="42.26685" lon="8.93042">
        <ele>1395.010254</ele>
        <time>2014-06-27T07:59:02Z</time>
      </trkpt>
      <trkpt lat="42.26681" lon="8.93046">
        <ele>1396.932861</ele>
        <time>2014-06-27T07:59:11Z</time>
      </trkpt>
      <trkpt lat="42.26677" lon="8.93052">
        <ele>1398.374756</ele>
        <time>2014-06-27T07:59:23Z</time>
      </trkpt>
      <trkpt lat="42.26677" lon="8.93054">
        <ele>1397.413574</ele>
        <time>2014-06-27T07:59:25Z</time>
      </trkpt>
      <trkpt lat="42.26676" lon="8.93058">
        <ele>1397.413574</ele>
        <time>2014-06-27T07:59:29Z</time>
      </trkpt>
      <trkpt lat="42.26668" lon="8.93067">
        <ele>1400.297607</ele>
        <time>2014-06-27T07:59:45Z</time>
      </trkpt>
      <trkpt lat="42.26664" lon="8.9307">
        <ele>1400.297607</ele>
        <time>2014-06-27T07:59:56Z</time>
      </trkpt>
      <trkpt lat="42.2666" lon="8.93069">
        <ele>1402.219971</ele>
        <time>2014-06-27T08:00:09Z</time>
      </trkpt>
      <trkpt lat="42.26654" lon="8.9307">
        <ele>1405.104248</ele>
        <time>2014-06-27T08:00:20Z</time>
      </trkpt>
      <trkpt lat="42.26648" lon="8.9308">
        <ele>1407.988281</ele>
        <time>2014-06-27T08:00:36Z</time>
      </trkpt>
      <trkpt lat="42.26642" lon="8.93078">
        <ele>1407.507568</ele>
        <time>2014-06-27T08:00:48Z</time>
      </trkpt>
      <trkpt lat="42.26637" lon="8.93074">
        <ele>1407.988281</ele>
        <time>2014-06-27T08:01:00Z</time>
      </trkpt>
      <trkpt lat="42.26633" lon="8.93069">
        <ele>1407.507568</ele>
        <time>2014-06-27T08:01:16Z</time>
      </trkpt>
      <trkpt lat="42.2663" lon="8.93069">
        <ele>1407.988281</ele>
        <time>2014-06-27T08:01:19Z</time>
      </trkpt>
      <trkpt lat="42.26627" lon="8.9307">
        <ele>1409.430176</ele>
        <time>2014-06-27T08:01:31Z</time>
      </trkpt>
      <trkpt lat="42.26621" lon="8.93059">
        <ele>1409.910645</ele>
        <time>2014-06-27T08:01:44Z</time>
      </trkpt>
      <trkpt lat="42.26615" lon="8.93052">
        <ele>1410.391357</ele>
        <time>2014-06-27T08:01:59Z</time>
      </trkpt>
      <trkpt lat="42.26609" lon="8.93049">
        <ele>1411.352783</ele>
        <time>2014-06-27T08:02:11Z</time>
      </trkpt>
      <trkpt lat="42.26602" lon="8.93044">
        <ele>1411.833496</ele>
        <time>2014-06-27T08:02:27Z</time>
      </trkpt>
      <trkpt lat="42.26595" lon="8.93045">
        <ele>1411.833496</ele>
        <time>2014-06-27T08:03:18Z</time>
      </trkpt>
      <trkpt lat="42.26587" lon="8.93048">
        <ele>1413.275391</ele>
        <time>2014-06-27T08:03:37Z</time>
      </trkpt>
      <trkpt lat="42.2658" lon="8.93046">
        <ele>1413.275391</ele>
        <time>2014-06-27T08:03:47Z</time>
      </trkpt>
      <trkpt lat="42.26574" lon="8.93042">
        <ele>1414.717285</ele>
        <time>2014-06-27T08:03:57Z</time>
      </trkpt>
      <trkpt lat="42.26567" lon="8.93037">
        <ele>1415.678711</ele>
        <time>2014-06-27T08:04:08Z</time>
      </trkpt>
      <trkpt lat="42.26565" lon="8.93036">
        <ele>1416.15918</ele>
        <time>2014-06-27T08:04:10Z</time>
      </trkpt>
      <trkpt lat="42.26555" lon="8.93035">
        <ele>1418.081787</ele>
        <time>2014-06-27T08:04:27Z</time>
      </trkpt>
      <trkpt lat="42.26552" lon="8.93044">
        <ele>1418.5625</ele>
        <time>2014-06-27T08:04:45Z</time>
      </trkpt>
      <trkpt lat="42.26549" lon="8.93046">
        <ele>1422.888672</ele>
        <time>2014-06-27T08:04:50Z</time>
      </trkpt>
      <trkpt lat="42.26541" lon="8.93042">
        <ele>1423.849854</ele>
        <time>2014-06-27T08:05:04Z</time>
      </trkpt>
      <trkpt lat="42.26538" lon="8.93042">
        <ele>1423.849854</ele>
        <time>2014-06-27T08:05:15Z</time>
      </trkpt>
      <trkpt lat="42.26529" lon="8.93039">
        <ele>1423.369385</ele>
        <time>2014-06-27T08:05:28Z</time>
      </trkpt>
      <trkpt lat="42.26521" lon="8.93036">
        <ele>1422.888672</ele>
        <time>2014-06-27T08:05:40Z</time>
      </trkpt>
      <trkpt lat="42.26517" lon="8.93026">
        <ele>1422.888672</ele>
        <time>2014-06-27T08:05:56Z</time>
      </trkpt>
      <trkpt lat="42.26517" lon="8.93029">
        <ele>1423.369385</ele>
        <time>2014-06-27T08:05:59Z</time>
      </trkpt>
      <trkpt lat="42.26513" lon="8.93035">
        <ele>1423.849854</ele>
        <time>2014-06-27T08:06:15Z</time>
      </trkpt>
      <trkpt lat="42.26505" lon="8.93036">
        <ele>1423.849854</ele>
        <time>2014-06-27T08:06:31Z</time>
      </trkpt>
      <trkpt lat="42.26499" lon="8.93034">
        <ele>1424.330566</ele>
        <time>2014-06-27T08:06:46Z</time>
      </trkpt>
      <trkpt lat="42.26496" lon="8.93034">
        <ele>1425.291748</ele>
        <time>2014-06-27T08:06:58Z</time>
      </trkpt>
      <trkpt lat="42.26491" lon="8.93036">
        <ele>1427.2146</ele>
        <time>2014-06-27T08:07:12Z</time>
      </trkpt>
      <trkpt lat="42.26488" lon="8.93035">
        <ele>1428.656494</ele>
        <time>2014-06-27T08:07:35Z</time>
      </trkpt>
      <trkpt lat="42.26486" lon="8.93035">
        <ele>1430.579102</ele>
        <time>2014-06-27T08:07:51Z</time>
      </trkpt>
      <trkpt lat="42.26481" lon="8.93036">
        <ele>1432.982178</ele>
        <time>2014-06-27T08:08:01Z</time>
      </trkpt>
      <trkpt lat="42.2648" lon="8.93036">
        <ele>1432.982178</ele>
        <time>2014-06-27T08:08:02Z</time>
      </trkpt>
      <trkpt lat="42.26477" lon="8.93032">
        <ele>1434.424316</ele>
        <time>2014-06-27T08:08:09Z</time>
      </trkpt>
      <trkpt lat="42.26473" lon="8.93029">
        <ele>1437.789063</ele>
        <time>2014-06-27T08:08:17Z</time>
      </trkpt>
      <trkpt lat="42.2647" lon="8.93029">
        <ele>1439.230957</ele>
        <time>2014-06-27T08:08:34Z</time>
      </trkpt>
      <trkpt lat="42.26468" lon="8.93031">
        <ele>1441.153564</ele>
        <time>2014-06-27T08:08:41Z</time>
      </trkpt>
      <trkpt lat="42.26467" lon="8.93036">
        <ele>1441.634277</ele>
        <time>2014-06-27T08:08:52Z</time>
      </trkpt>
      <trkpt lat="42.26465" lon="8.9304">
        <ele>1443.556885</ele>
        <time>2014-06-27T08:09:04Z</time>
      </trkpt>
      <trkpt lat="42.26461" lon="8.93039">
        <ele>1446.440918</ele>
        <time>2014-06-27T08:09:14Z</time>
      </trkpt>
      <trkpt lat="42.26461" lon="8.9304">
        <ele>1446.440918</ele>
        <time>2014-06-27T08:09:15Z</time>
      </trkpt>
      <trkpt lat="42.26458" lon="8.93037">
        <ele>1447.882813</ele>
        <time>2014-06-27T08:09:25Z</time>
      </trkpt>
      <trkpt lat="42.26455" lon="8.93036">
        <ele>1449.324707</ele>
        <time>2014-06-27T08:09:38Z</time>
      </trkpt>
      <trkpt lat="42.26456" lon="8.93042">
        <ele>1451.728027</ele>
        <time>2014-06-27T08:09:51Z</time>
      </trkpt>
      <trkpt lat="42.26452" lon="8.93044">
        <ele>1453.170166</ele>
        <time>2014-06-27T08:10:08Z</time>
      </trkpt>
      <trkpt lat="42.26448" lon="8.93046">
        <ele>1455.092773</ele>
        <time>2014-06-27T08:10:23Z</time>
      </trkpt>
      <trkpt lat="42.26444" lon="8.93047">
        <ele>1457.496094</ele>
        <time>2014-06-27T08:10:38Z</time>
      </trkpt>
      <trkpt lat="42.26443" lon="8.9305">
        <ele>1459.418701</ele>
        <time>2014-06-27T08:10:52Z</time>
      </trkpt>
      <trkpt lat="42.26443" lon="8.93054">
        <ele>1462.30249</ele>
        <time>2014-06-27T08:11:05Z</time>
      </trkpt>
      <trkpt lat="42.26439" lon="8.93058">
        <ele>1464.705811</ele>
        <time>2014-06-27T08:11:19Z</time>
      </trkpt>
      <trkpt lat="42.26433" lon="8.9306">
        <ele>1467.5896</ele>
        <time>2014-06-27T08:11:35Z</time>
      </trkpt>
      <trkpt lat="42.26429" lon="8.93062">
        <ele>1469.031982</ele>
        <time>2014-06-27T08:11:53Z</time>
      </trkpt>
      <trkpt lat="42.26426" lon="8.93063">
        <ele>1470.95459</ele>
        <time>2014-06-27T08:12:04Z</time>
      </trkpt>
      <trkpt lat="42.26422" lon="8.93063">
        <ele>1472.396484</ele>
        <time>2014-06-27T08:12:11Z</time>
      </trkpt>
      <trkpt lat="42.26419" lon="8.93066">
        <ele>1473.838379</ele>
        <time>2014-06-27T08:12:16Z</time>
      </trkpt>
      <trkpt lat="42.26415" lon="8.93062">
        <ele>1474.799805</ele>
        <time>2014-06-27T08:12:37Z</time>
      </trkpt>
      <trkpt lat="42.26408" lon="8.9306">
        <ele>1475.760986</ele>
        <time>2014-06-27T08:12:50Z</time>
      </trkpt>
      <trkpt lat="42.26402" lon="8.93061">
        <ele>1477.683594</ele>
        <time>2014-06-27T08:13:03Z</time>
      </trkpt>
      <trkpt lat="42.26397" lon="8.93055">
        <ele>1479.125488</ele>
        <time>2014-06-27T08:13:15Z</time>
      </trkpt>
      <trkpt lat="42.2639" lon="8.93054">
        <ele>1482.009521</ele>
        <time>2014-06-27T08:13:29Z</time>
      </trkpt>
      <trkpt lat="42.26381" lon="8.93048">
        <ele>1482.490234</ele>
        <time>2014-06-27T08:13:45Z</time>
      </trkpt>
      <trkpt lat="42.26375" lon="8.93046">
        <ele>1486.335693</ele>
        <time>2014-06-27T08:13:55Z</time>
      </trkpt>
      <trkpt lat="42.26374" lon="8.93047">
        <ele>1486.816162</ele>
        <time>2014-06-27T08:13:57Z</time>
      </trkpt>
      <trkpt lat="42.26366" lon="8.93043">
        <ele>1487.777588</ele>
        <time>2014-06-27T08:14:09Z</time>
      </trkpt>
      <trkpt lat="42.2636" lon="8.9304">
        <ele>1490.180908</ele>
        <time>2014-06-27T08:14:25Z</time>
      </trkpt>
      <trkpt lat="42.26353" lon="8.93042">
        <ele>1494.026123</ele>
        <time>2014-06-27T08:14:37Z</time>
      </trkpt>
      <trkpt lat="42.26352" lon="8.93042">
        <ele>1494.506592</ele>
        <time>2014-06-27T08:14:39Z</time>
      </trkpt>
      <trkpt lat="42.26343" lon="8.93044">
        <ele>1497.871338</ele>
        <time>2014-06-27T08:14:54Z</time>
      </trkpt>
      <trkpt lat="42.26341" lon="8.93045">
        <ele>1501.236084</ele>
        <time>2014-06-27T08:15:02Z</time>
      </trkpt>
      <trkpt lat="42.2634" lon="8.93045">
        <ele>1501.236084</ele>
        <time>2014-06-27T08:15:03Z</time>
      </trkpt>
      <trkpt lat="42.26339" lon="8.93044">
        <ele>1496.909912</ele>
        <time>2014-06-27T08:15:08Z</time>
      </trkpt>
      <trkpt lat="42.26334" lon="8.9304">
        <ele>1497.871338</ele>
        <time>2014-06-27T08:15:15Z</time>
      </trkpt>
      <trkpt lat="42.26331" lon="8.9304">
        <ele>1500.755371</ele>
        <time>2014-06-27T08:15:20Z</time>
      </trkpt>
      <trkpt lat="42.26331" lon="8.9304">
        <ele>1500.274902</ele>
        <time>2014-06-27T08:15:21Z</time>
      </trkpt>
      <trkpt lat="42.26329" lon="8.93041">
        <ele>1498.351807</ele>
        <time>2014-06-27T08:15:24Z</time>
      </trkpt>
      <trkpt lat="42.26327" lon="8.93042">
        <ele>1502.677979</ele>
        <time>2014-06-27T08:15:28Z</time>
      </trkpt>
      <trkpt lat="42.26324" lon="8.93045">
        <ele>1501.236084</ele>
        <time>2014-06-27T08:15:34Z</time>
      </trkpt>
      <trkpt lat="42.26318" lon="8.93045">
        <ele>1504.120117</ele>
        <time>2014-06-27T08:15:43Z</time>
      </trkpt>
      <trkpt lat="42.26314" lon="8.93044">
        <ele>1504.600586</ele>
        <time>2014-06-27T08:15:57Z</time>
      </trkpt>
      <trkpt lat="42.26313" lon="8.93046">
        <ele>1506.523193</ele>
        <time>2014-06-27T08:16:01Z</time>
      </trkpt>
      <trkpt lat="42.26308" lon="8.93049">
        <ele>1508.445801</ele>
        <time>2014-06-27T08:16:13Z</time>
      </trkpt>
      <trkpt lat="42.26306" lon="8.93054">
        <ele>1510.368408</ele>
        <time>2014-06-27T08:16:24Z</time>
      </trkpt>
      <trkpt lat="42.26297" lon="8.93057">
        <ele>1512.291016</ele>
        <time>2014-06-27T08:16:40Z</time>
      </trkpt>
      <trkpt lat="42.26288" lon="8.93054">
        <ele>1512.771729</ele>
        <time>2014-06-27T08:16:56Z</time>
      </trkpt>
      <trkpt lat="42.26282" lon="8.93058">
        <ele>1515.175049</ele>
        <time>2014-06-27T08:17:09Z</time>
      </trkpt>
      <trkpt lat="42.2628" lon="8.93063">
        <ele>1518.539795</ele>
        <time>2014-06-27T08:17:17Z</time>
      </trkpt>
      <trkpt lat="42.26274" lon="8.93065">
        <ele>1519.981689</ele>
        <time>2014-06-27T08:17:25Z</time>
      </trkpt>
      <trkpt lat="42.26267" lon="8.9307">
        <ele>1523.346436</ele>
        <time>2014-06-27T08:17:40Z</time>
      </trkpt>
      <trkpt lat="42.26264" lon="8.93073">
        <ele>1524.78833</ele>
        <time>2014-06-27T08:17:48Z</time>
      </trkpt>
      <trkpt lat="42.26261" lon="8.9308">
        <ele>1528.152832</ele>
        <time>2014-06-27T08:18:00Z</time>
      </trkpt>
      <trkpt lat="42.26261" lon="8.9308">
        <ele>1528.152832</ele>
        <time>2014-06-27T08:18:01Z</time>
      </trkpt>
      <trkpt lat="42.26257" lon="8.93087">
        <ele>1524.78833</ele>
        <time>2014-06-27T08:18:13Z</time>
      </trkpt>
      <trkpt lat="42.26256" lon="8.93089">
        <ele>1529.594727</ele>
        <time>2014-06-27T08:18:15Z</time>
      </trkpt>
      <trkpt lat="42.26256" lon="8.93089">
        <ele>1529.594727</ele>
        <time>2014-06-27T08:18:16Z</time>
      </trkpt>
      <trkpt lat="42.26255" lon="8.93099">
        <ele>1530.556152</ele>
        <time>2014-06-27T08:18:31Z</time>
      </trkpt>
      <trkpt lat="42.2625" lon="8.93105">
        <ele>1529.594727</ele>
        <time>2014-06-27T08:18:44Z</time>
      </trkpt>
      <trkpt lat="42.26249" lon="8.93107">
        <ele>1531.517334</ele>
        <time>2014-06-27T08:18:47Z</time>
      </trkpt>
      <trkpt lat="42.26249" lon="8.93109">
        <ele>1534.882324</ele>
        <time>2014-06-27T08:18:50Z</time>
      </trkpt>
      <trkpt lat="42.26249" lon="8.93109">
        <ele>1535.362793</ele>
        <time>2014-06-27T08:18:51Z</time>
      </trkpt>
      <trkpt lat="42.26252" lon="8.9311">
        <ele>1539.208008</ele>
        <time>2014-06-27T08:18:55Z</time>
      </trkpt>
      <trkpt lat="42.26253" lon="8.93111">
        <ele>1535.843506</ele>
        <time>2014-06-27T08:18:57Z</time>
      </trkpt>
      <trkpt lat="42.26252" lon="8.93114">
        <ele>1538.246826</ele>
        <time>2014-06-27T08:19:04Z</time>
      </trkpt>
      <trkpt lat="42.26251" lon="8.93122">
        <ele>1541.130615</ele>
        <time>2014-06-27T08:19:18Z</time>
      </trkpt>
      <trkpt lat="42.2625" lon="8.93128">
        <ele>1544.495117</ele>
        <time>2014-06-27T08:19:28Z</time>
      </trkpt>
      <trkpt lat="42.2625" lon="8.93131">
        <ele>1544.97583</ele>
        <time>2014-06-27T08:19:35Z</time>
      </trkpt>
      <trkpt lat="42.26249" lon="8.93132">
        <ele>1543.533936</ele>
        <time>2014-06-27T08:19:37Z</time>
      </trkpt>
      <trkpt lat="42.26247" lon="8.93135">
        <ele>1546.417969</ele>
        <time>2014-06-27T08:19:43Z</time>
      </trkpt>
      <trkpt lat="42.26245" lon="8.93145">
        <ele>1549.302002</ele>
        <time>2014-06-27T08:19:59Z</time>
      </trkpt>
      <trkpt lat="42.26244" lon="8.93149">
        <ele>1551.224609</ele>
        <time>2014-06-27T08:20:12Z</time>
      </trkpt>
      <trkpt lat="42.26244" lon="8.93156">
        <ele>1553.147217</ele>
        <time>2014-06-27T08:20:24Z</time>
      </trkpt>
      <trkpt lat="42.26242" lon="8.93157">
        <ele>1553.62793</ele>
        <time>2014-06-27T08:20:38Z</time>
      </trkpt>
      <trkpt lat="42.26239" lon="8.93162">
        <ele>1554.108643</ele>
        <time>2014-06-27T08:21:12Z</time>
      </trkpt>
      <trkpt lat="42.26238" lon="8.93168">
        <ele>1556.031006</ele>
        <time>2014-06-27T08:21:27Z</time>
      </trkpt>
      <trkpt lat="42.26245" lon="8.9317">
        <ele>1557.953857</ele>
        <time>2014-06-27T08:21:42Z</time>
      </trkpt>
      <trkpt lat="42.26245" lon="8.93177">
        <ele>1559.876221</ele>
        <time>2014-06-27T08:21:55Z</time>
      </trkpt>
      <trkpt lat="42.26242" lon="8.93184">
        <ele>1563.240967</ele>
        <time>2014-06-27T08:22:09Z</time>
      </trkpt>
      <trkpt lat="42.26233" lon="8.93193">
        <ele>1565.163818</ele>
        <time>2014-06-27T08:22:26Z</time>
      </trkpt>
      <trkpt lat="42.2623" lon="8.93201">
        <ele>1566.605713</ele>
        <time>2014-06-27T08:22:41Z</time>
      </trkpt>
      <trkpt lat="42.26232" lon="8.93205">
        <ele>1569.489746</ele>
        <time>2014-06-27T08:22:54Z</time>
      </trkpt>
      <trkpt lat="42.26231" lon="8.93212">
        <ele>1572.854248</ele>
        <time>2014-06-27T08:23:05Z</time>
      </trkpt>
      <trkpt lat="42.26229" lon="8.9322">
        <ele>1573.81543</ele>
        <time>2014-06-27T08:23:19Z</time>
      </trkpt>
      <trkpt lat="42.26226" lon="8.93229">
        <ele>1575.257324</ele>
        <time>2014-06-27T08:23:35Z</time>
      </trkpt>
      <trkpt lat="42.26225" lon="8.9323">
        <ele>1576.699463</ele>
        <time>2014-06-27T08:23:38Z</time>
      </trkpt>
      <trkpt lat="42.26225" lon="8.93236">
        <ele>1578.141357</ele>
        <time>2014-06-27T08:23:51Z</time>
      </trkpt>
      <trkpt lat="42.26227" lon="8.9324">
        <ele>1580.544922</ele>
        <time>2014-06-27T08:24:05Z</time>
      </trkpt>
      <trkpt lat="42.26227" lon="8.93247">
        <ele>1582.467529</ele>
        <time>2014-06-27T08:24:20Z</time>
      </trkpt>
      <trkpt lat="42.2623" lon="8.93247">
        <ele>1583.909424</ele>
        <time>2014-06-27T08:24:28Z</time>
      </trkpt>
      <trkpt lat="42.26231" lon="8.93251">
        <ele>1585.351318</ele>
        <time>2014-06-27T08:24:43Z</time>
      </trkpt>
      <trkpt lat="42.26232" lon="8.93255">
        <ele>1586.793213</ele>
        <time>2014-06-27T08:24:52Z</time>
      </trkpt>
      <trkpt lat="42.26233" lon="8.9326">
        <ele>1587.754639</ele>
        <time>2014-06-27T08:25:06Z</time>
      </trkpt>
      <trkpt lat="42.26236" lon="8.93266">
        <ele>1591.599854</ele>
        <time>2014-06-27T08:25:19Z</time>
      </trkpt>
      <trkpt lat="42.26232" lon="8.93272">
        <ele>1591.599854</ele>
        <time>2014-06-27T08:25:32Z</time>
      </trkpt>
      <trkpt lat="42.26235" lon="8.93275">
        <ele>1594.964355</ele>
        <time>2014-06-27T08:25:43Z</time>
      </trkpt>
      <trkpt lat="42.26231" lon="8.93277">
        <ele>1594.964355</ele>
        <time>2014-06-27T08:25:55Z</time>
      </trkpt>
      <trkpt lat="42.26226" lon="8.93289">
        <ele>1596.406738</ele>
        <time>2014-06-27T08:26:13Z</time>
      </trkpt>
      <trkpt lat="42.26223" lon="8.933">
        <ele>1598.329102</ele>
        <time>2014-06-27T08:26:30Z</time>
      </trkpt>
      <trkpt lat="42.26221" lon="8.93304">
        <ele>1600.251953</ele>
        <time>2014-06-27T08:26:37Z</time>
      </trkpt>
      <trkpt lat="42.26219" lon="8.9331">
        <ele>1602.655029</ele>
        <time>2014-06-27T08:26:52Z</time>
      </trkpt>
      <trkpt lat="42.26221" lon="8.93315">
        <ele>1604.577637</ele>
        <time>2014-06-27T08:27:10Z</time>
      </trkpt>
      <trkpt lat="42.2622" lon="8.9332">
        <ele>1606.019531</ele>
        <time>2014-06-27T08:27:25Z</time>
      </trkpt>
      <trkpt lat="42.26216" lon="8.93321">
        <ele>1606.980957</ele>
        <time>2014-06-27T08:27:44Z</time>
      </trkpt>
      <trkpt lat="42.26217" lon="8.93326">
        <ele>1610.826172</ele>
        <time>2014-06-27T08:27:54Z</time>
      </trkpt>
      <trkpt lat="42.26222" lon="8.93331">
        <ele>1611.787598</ele>
        <time>2014-06-27T08:28:10Z</time>
      </trkpt>
      <trkpt lat="42.26227" lon="8.93334">
        <ele>1613.710205</ele>
        <time>2014-06-27T08:28:22Z</time>
      </trkpt>
      <trkpt lat="42.26233" lon="8.93336">
        <ele>1615.152344</ele>
        <time>2014-06-27T08:28:35Z</time>
      </trkpt>
      <trkpt lat="42.26238" lon="8.9334">
        <ele>1617.074951</ele>
        <time>2014-06-27T08:28:47Z</time>
      </trkpt>
      <trkpt lat="42.26238" lon="8.93346">
        <ele>1618.036133</ele>
        <time>2014-06-27T08:29:01Z</time>
      </trkpt>
      <trkpt lat="42.26239" lon="8.93349">
        <ele>1619.478271</ele>
        <time>2014-06-27T08:29:12Z</time>
      </trkpt>
      <trkpt lat="42.26238" lon="8.93353">
        <ele>1621.400635</ele>
        <time>2014-06-27T08:29:25Z</time>
      </trkpt>
      <trkpt lat="42.26237" lon="8.93359">
        <ele>1624.765381</ele>
        <time>2014-06-27T08:29:39Z</time>
      </trkpt>
      <trkpt lat="42.2624" lon="8.93365">
        <ele>1627.64917</ele>
        <time>2014-06-27T08:29:49Z</time>
      </trkpt>
      <trkpt lat="42.26245" lon="8.93369">
        <ele>1630.533447</ele>
        <time>2014-06-27T08:30:01Z</time>
      </trkpt>
      <trkpt lat="42.26247" lon="8.93373">
        <ele>1631.494629</ele>
        <time>2014-06-27T08:30:17Z</time>
      </trkpt>
      <trkpt lat="42.26251" lon="8.93383">
        <ele>1634.378662</ele>
        <time>2014-06-27T08:30:34Z</time>
      </trkpt>
      <trkpt lat="42.26258" lon="8.93387">
        <ele>1635.820557</ele>
        <time>2014-06-27T08:30:47Z</time>
      </trkpt>
      <trkpt lat="42.26257" lon="8.93398">
        <ele>1637.743164</ele>
        <time>2014-06-27T08:31:01Z</time>
      </trkpt>
      <trkpt lat="42.26263" lon="8.93407">
        <ele>1638.70459</ele>
        <time>2014-06-27T08:31:14Z</time>
      </trkpt>
      <trkpt lat="42.26258" lon="8.93413">
        <ele>1641.588379</ele>
        <time>2014-06-27T08:31:27Z</time>
      </trkpt>
      <trkpt lat="42.26258" lon="8.9342">
        <ele>1642.549805</ele>
        <time>2014-06-27T08:31:41Z</time>
      </trkpt>
      <trkpt lat="42.26255" lon="8.93424">
        <ele>1643.510986</ele>
        <time>2014-06-27T08:31:58Z</time>
      </trkpt>
      <trkpt lat="42.26256" lon="8.93431">
        <ele>1646.875732</ele>
        <time>2014-06-27T08:32:08Z</time>
      </trkpt>
      <trkpt lat="42.26254" lon="8.93434">
        <ele>1648.317627</ele>
        <time>2014-06-27T08:32:15Z</time>
      </trkpt>
      <trkpt lat="42.2625" lon="8.93442">
        <ele>1649.759766</ele>
        <time>2014-06-27T08:32:30Z</time>
      </trkpt>
      <trkpt lat="42.26249" lon="8.93444">
        <ele>1650.720947</ele>
        <time>2014-06-27T08:32:45Z</time>
      </trkpt>
      <trkpt lat="42.26246" lon="8.93446">
        <ele>1651.20166</ele>
        <time>2014-06-27T08:33:16Z</time>
      </trkpt>
      <trkpt lat="42.26244" lon="8.93455">
        <ele>1651.20166</ele>
        <time>2014-06-27T08:33:30Z</time>
      </trkpt>
      <trkpt lat="42.26243" lon="8.9346">
        <ele>1648.79834</ele>
        <time>2014-06-27T08:33:45Z</time>
      </trkpt>
      <trkpt lat="42.26245" lon="8.93464">
        <ele>1648.79834</ele>
        <time>2014-06-27T08:34:00Z</time>
      </trkpt>
      <trkpt lat="42.26247" lon="8.93468">
        <ele>1652.162842</ele>
        <time>2014-06-27T08:34:13Z</time>
      </trkpt>
      <trkpt lat="42.26241" lon="8.9347">
        <ele>1653.60498</ele>
        <time>2014-06-27T08:34:27Z</time>
      </trkpt>
      <trkpt lat="42.26234" lon="8.9347">
        <ele>1656.48877</ele>
        <time>2014-06-27T08:34:42Z</time>
      </trkpt>
      <trkpt lat="42.26232" lon="8.93473">
        <ele>1657.930908</ele>
        <time>2014-06-27T08:34:56Z</time>
      </trkpt>
      <trkpt lat="42.26236" lon="8.93477">
        <ele>1658.411377</ele>
        <time>2014-06-27T08:35:09Z</time>
      </trkpt>
      <trkpt lat="42.26238" lon="8.9348">
        <ele>1660.334229</ele>
        <time>2014-06-27T08:35:20Z</time>
      </trkpt>
      <trkpt lat="42.26232" lon="8.93481">
        <ele>1661.295654</ele>
        <time>2014-06-27T08:35:34Z</time>
      </trkpt>
      <trkpt lat="42.26228" lon="8.93479">
        <ele>1661.295654</ele>
        <time>2014-06-27T08:35:55Z</time>
      </trkpt>
      <trkpt lat="42.26225" lon="8.93482">
        <ele>1663.69873</ele>
        <time>2014-06-27T08:36:07Z</time>
      </trkpt>
      <trkpt lat="42.2622" lon="8.93483">
        <ele>1667.063477</ele>
        <time>2014-06-27T08:36:23Z</time>
      </trkpt>
      <trkpt lat="42.26212" lon="8.93483">
        <ele>1668.986084</ele>
        <time>2014-06-27T08:36:38Z</time>
      </trkpt>
      <trkpt lat="42.26204" lon="8.93479">
        <ele>1670.908691</ele>
        <time>2014-06-27T08:36:53Z</time>
      </trkpt>
      <trkpt lat="42.26199" lon="8.9347">
        <ele>1672.831299</ele>
        <time>2014-06-27T08:37:08Z</time>
      </trkpt>
      <trkpt lat="42.26196" lon="8.93465">
        <ele>1673.79248</ele>
        <time>2014-06-27T08:37:21Z</time>
      </trkpt>
      <trkpt lat="42.26195" lon="8.93464">
        <ele>1675.715088</ele>
        <time>2014-06-27T08:37:26Z</time>
      </trkpt>
      <trkpt lat="42.2619" lon="8.93462">
        <ele>1676.196045</ele>
        <time>2014-06-27T08:37:46Z</time>
      </trkpt>
      <trkpt lat="42.26181" lon="8.93464">
        <ele>1678.118652</ele>
        <time>2014-06-27T08:38:02Z</time>
      </trkpt>
      <trkpt lat="42.26174" lon="8.93462">
        <ele>1679.079834</ele>
        <time>2014-06-27T08:38:12Z</time>
      </trkpt>
      <trkpt lat="42.26165" lon="8.93462">
        <ele>1679.079834</ele>
        <time>2014-06-27T08:38:29Z</time>
      </trkpt>
      <trkpt lat="42.26164" lon="8.93467">
        <ele>1682.44458</ele>
        <time>2014-06-27T08:38:44Z</time>
      </trkpt>
      <trkpt lat="42.26164" lon="8.93471">
        <ele>1683.405762</ele>
        <time>2014-06-27T08:38:57Z</time>
      </trkpt>
      <trkpt lat="42.26161" lon="8.93472">
        <ele>1686.770264</ele>
        <time>2014-06-27T08:39:05Z</time>
      </trkpt>
      <trkpt lat="42.26156" lon="8.93474">
        <ele>1688.693115</ele>
        <time>2014-06-27T08:39:16Z</time>
      </trkpt>
      <trkpt lat="42.2615" lon="8.9348">
        <ele>1690.615479</ele>
        <time>2014-06-27T08:39:31Z</time>
      </trkpt>
      <trkpt lat="42.26147" lon="8.93485">
        <ele>1692.538574</ele>
        <time>2014-06-27T08:39:45Z</time>
      </trkpt>
      <trkpt lat="42.26139" lon="8.93485">
        <ele>1695.422363</ele>
        <time>2014-06-27T08:39:56Z</time>
      </trkpt>
      <trkpt lat="42.26135" lon="8.93486">
        <ele>1695.422363</ele>
        <time>2014-06-27T08:40:05Z</time>
      </trkpt>
      <trkpt lat="42.26133" lon="8.93486">
        <ele>1694.94165</ele>
        <time>2014-06-27T08:40:18Z</time>
      </trkpt>
      <trkpt lat="42.26138" lon="8.93488">
        <ele>1694.460938</ele>
        <time>2014-06-27T08:40:31Z</time>
      </trkpt>
      <trkpt lat="42.26139" lon="8.93489">
        <ele>1694.460938</ele>
        <time>2014-06-27T08:40:33Z</time>
      </trkpt>
      <trkpt lat="42.26143" lon="8.93499">
        <ele>1696.383789</ele>
        <time>2014-06-27T08:40:47Z</time>
      </trkpt>
      <trkpt lat="42.26139" lon="8.93506">
        <ele>1698.306152</ele>
        <time>2014-06-27T08:40:59Z</time>
      </trkpt>
      <trkpt lat="42.26139" lon="8.93508">
        <ele>1699.748291</ele>
        <time>2014-06-27T08:41:02Z</time>
      </trkpt>
      <trkpt lat="42.26136" lon="8.93514">
        <ele>1703.112793</ele>
        <time>2014-06-27T08:41:13Z</time>
      </trkpt>
      <trkpt lat="42.26139" lon="8.93522">
        <ele>1704.074219</ele>
        <time>2014-06-27T08:41:25Z</time>
      </trkpt>
      <trkpt lat="42.26134" lon="8.93527">
        <ele>1705.516113</ele>
        <time>2014-06-27T08:41:40Z</time>
      </trkpt>
      <trkpt lat="42.26134" lon="8.93534">
        <ele>1705.996582</ele>
        <time>2014-06-27T08:41:52Z</time>
      </trkpt>
      <trkpt lat="42.2613" lon="8.93537">
        <ele>1709.361572</ele>
        <time>2014-06-27T08:42:05Z</time>
      </trkpt>
      <trkpt lat="42.2613" lon="8.93538">
        <ele>1709.361572</ele>
        <time>2014-06-27T08:42:06Z</time>
      </trkpt>
      <trkpt lat="42.26126" lon="8.93542">
        <ele>1711.764893</ele>
        <time>2014-06-27T08:42:21Z</time>
      </trkpt>
      <trkpt lat="42.26119" lon="8.93535">
        <ele>1714.648682</ele>
        <time>2014-06-27T08:42:37Z</time>
      </trkpt>
      <trkpt lat="42.26117" lon="8.93531">
        <ele>1717.532471</ele>
        <time>2014-06-27T08:42:46Z</time>
      </trkpt>
      <trkpt lat="42.26116" lon="8.9353">
        <ele>1717.532471</ele>
        <time>2014-06-27T08:43:04Z</time>
      </trkpt>
      <trkpt lat="42.2611" lon="8.93524">
        <ele>1716.571289</ele>
        <time>2014-06-27T08:43:25Z</time>
      </trkpt>
      <trkpt lat="42.26108" lon="8.9353">
        <ele>1719.455322</ele>
        <time>2014-06-27T08:43:36Z</time>
      </trkpt>
      <trkpt lat="42.26104" lon="8.93535">
        <ele>1722.819824</ele>
        <time>2014-06-27T08:43:47Z</time>
      </trkpt>
      <trkpt lat="42.26098" lon="8.93539">
        <ele>1725.223145</ele>
        <time>2014-06-27T08:44:00Z</time>
      </trkpt>
      <trkpt lat="42.26094" lon="8.93546">
        <ele>1727.626465</ele>
        <time>2014-06-27T08:44:13Z</time>
      </trkpt>
      <trkpt lat="42.26093" lon="8.93553">
        <ele>1730.510498</ele>
        <time>2014-06-27T08:44:27Z</time>
      </trkpt>
      <trkpt lat="42.26094" lon="8.93557">
        <ele>1731.952393</ele>
        <time>2014-06-27T08:44:32Z</time>
      </trkpt>
      <trkpt lat="42.26093" lon="8.93559">
        <ele>1731.47168</ele>
        <time>2014-06-27T08:44:52Z</time>
      </trkpt>
      <trkpt lat="42.26088" lon="8.93558">
        <ele>1731.47168</ele>
        <time>2014-06-27T08:45:14Z</time>
      </trkpt>
      <trkpt lat="42.26084" lon="8.93556">
        <ele>1732.913574</ele>
        <time>2014-06-27T08:45:29Z</time>
      </trkpt>
      <trkpt lat="42.26082" lon="8.93554">
        <ele>1731.47168</ele>
        <time>2014-06-27T08:46:03Z</time>
      </trkpt>
      <trkpt lat="42.26077" lon="8.93554">
        <ele>1734.355713</ele>
        <time>2014-06-27T08:46:20Z</time>
      </trkpt>
      <trkpt lat="42.26073" lon="8.93556">
        <ele>1738.200928</ele>
        <time>2014-06-27T08:46:33Z</time>
      </trkpt>
      <trkpt lat="42.26069" lon="8.93551">
        <ele>1740.123779</ele>
        <time>2014-06-27T08:46:45Z</time>
      </trkpt>
      <trkpt lat="42.26068" lon="8.93553">
        <ele>1742.046387</ele>
        <time>2014-06-27T08:46:57Z</time>
      </trkpt>
      <trkpt lat="42.26066" lon="8.93553">
        <ele>1744.449463</ele>
        <time>2014-06-27T08:47:13Z</time>
      </trkpt>
      <trkpt lat="42.26061" lon="8.93553">
        <ele>1747.814209</ele>
        <time>2014-06-27T08:47:27Z</time>
      </trkpt>
      <trkpt lat="42.26053" lon="8.93551">
        <ele>1748.294678</ele>
        <time>2014-06-27T08:47:41Z</time>
      </trkpt>
      <trkpt lat="42.26043" lon="8.93541">
        <ele>1746.852783</ele>
        <time>2014-06-27T08:47:55Z</time>
      </trkpt>
      <trkpt lat="42.26034" lon="8.93533">
        <ele>1748.294678</ele>
        <time>2014-06-27T08:48:08Z</time>
      </trkpt>
      <trkpt lat="42.26028" lon="8.9352">
        <ele>1749.256104</ele>
        <time>2014-06-27T08:48:23Z</time>
      </trkpt>
      <trkpt lat="42.26026" lon="8.93512">
        <ele>1752.620605</ele>
        <time>2014-06-27T08:48:32Z</time>
      </trkpt>
      <trkpt lat="42.26025" lon="8.93511">
        <ele>1753.101318</ele>
        <time>2014-06-27T08:48:33Z</time>
      </trkpt>
      <trkpt lat="42.26023" lon="8.9351">
        <ele>1754.543213</ele>
        <time>2014-06-27T08:48:37Z</time>
      </trkpt>
      <trkpt lat="42.26017" lon="8.93508">
        <ele>1755.023926</ele>
        <time>2014-06-27T08:48:54Z</time>
      </trkpt>
      <trkpt lat="42.26014" lon="8.93504">
        <ele>1755.985107</ele>
        <time>2014-06-27T08:49:12Z</time>
      </trkpt>
      <trkpt lat="42.26004" lon="8.9351">
        <ele>1758.388672</ele>
        <time>2014-06-27T08:49:31Z</time>
      </trkpt>
      <trkpt lat="42.25991" lon="8.93507">
        <ele>1760.791992</ele>
        <time>2014-06-27T08:49:48Z</time>
      </trkpt>
      <trkpt lat="42.25975" lon="8.93505">
        <ele>1760.791992</ele>
        <time>2014-06-27T08:50:05Z</time>
      </trkpt>
      <trkpt lat="42.25967" lon="8.93502">
        <ele>1763.675781</ele>
        <time>2014-06-27T08:50:17Z</time>
      </trkpt>
      <trkpt lat="42.2596" lon="8.93499">
        <ele>1767.040527</ele>
        <time>2014-06-27T08:50:27Z</time>
      </trkpt>
      <trkpt lat="42.25955" lon="8.93495">
        <ele>1768.001709</ele>
        <time>2014-06-27T08:50:41Z</time>
      </trkpt>
      <trkpt lat="42.25952" lon="8.93494">
        <ele>1769.443848</ele>
        <time>2014-06-27T08:50:45Z</time>
      </trkpt>
      <trkpt lat="42.25947" lon="8.93489">
        <ele>1772.327881</ele>
        <time>2014-06-27T08:50:57Z</time>
      </trkpt>
      <trkpt lat="42.25939" lon="8.93489">
        <ele>1772.327881</ele>
        <time>2014-06-27T08:51:11Z</time>
      </trkpt>
      <trkpt lat="42.25935" lon="8.93489">
        <ele>1773.769775</ele>
        <time>2014-06-27T08:51:23Z</time>
      </trkpt>
      <trkpt lat="42.25927" lon="8.93489">
        <ele>1777.134521</ele>
        <time>2014-06-27T08:51:35Z</time>
      </trkpt>
      <trkpt lat="42.25915" lon="8.93491">
        <ele>1778.095703</ele>
        <time>2014-06-27T08:51:50Z</time>
      </trkpt>
      <trkpt lat="42.25906" lon="8.93489">
        <ele>1777.61499</ele>
        <time>2014-06-27T08:52:07Z</time>
      </trkpt>
      <trkpt lat="42.25906" lon="8.9349">
        <ele>1777.61499</ele>
        <time>2014-06-27T08:52:35Z</time>
      </trkpt>
      <trkpt lat="42.25906" lon="8.93487">
        <ele>1778.095703</ele>
        <time>2014-06-27T08:53:10Z</time>
      </trkpt>
      <trkpt lat="42.25905" lon="8.93487">
        <ele>1778.576416</ele>
        <time>2014-06-27T08:53:31Z</time>
      </trkpt>
      <trkpt lat="42.25905" lon="8.93487">
        <ele>1776.173096</ele>
        <time>2014-06-27T08:54:15Z</time>
      </trkpt>
      <trkpt lat="42.25905" lon="8.93486">
        <ele>1775.21167</ele>
        <time>2014-06-27T08:54:39Z</time>
      </trkpt>
      <trkpt lat="42.25906" lon="8.93487">
        <ele>1777.134521</ele>
        <time>2014-06-27T08:55:22Z</time>
      </trkpt>
      <trkpt lat="42.25902" lon="8.93489">
        <ele>1774.731201</ele>
        <time>2014-06-27T08:55:35Z</time>
      </trkpt>
      <trkpt lat="42.25896" lon="8.93489">
        <ele>1774.250488</ele>
        <time>2014-06-27T08:55:48Z</time>
      </trkpt>
      <trkpt lat="42.25892" lon="8.93494">
        <ele>1771.366211</ele>
        <time>2014-06-27T08:55:56Z</time>
      </trkpt>
      <trkpt lat="42.25883" lon="8.93489">
        <ele>1769.924316</ele>
        <time>2014-06-27T08:56:10Z</time>
      </trkpt>
      <trkpt lat="42.25877" lon="8.93487">
        <ele>1767.520996</ele>
        <time>2014-06-27T08:56:28Z</time>
      </trkpt>
      <trkpt lat="42.2587" lon="8.93492">
        <ele>1766.079102</ele>
        <time>2014-06-27T08:56:46Z</time>
      </trkpt>
      <trkpt lat="42.25863" lon="8.93499">
        <ele>1763.675781</ele>
        <time>2014-06-27T08:57:01Z</time>
      </trkpt>
      <trkpt lat="42.25862" lon="8.93501">
        <ele>1763.195313</ele>
        <time>2014-06-27T08:57:03Z</time>
      </trkpt>
      <trkpt lat="42.2586" lon="8.93504">
        <ele>1762.7146</ele>
        <time>2014-06-27T08:57:08Z</time>
      </trkpt>
      <trkpt lat="42.25858" lon="8.93521">
        <ele>1761.272705</ele>
        <time>2014-06-27T08:57:26Z</time>
      </trkpt>
      <trkpt lat="42.25854" lon="8.9353">
        <ele>1759.830566</ele>
        <time>2014-06-27T08:57:42Z</time>
      </trkpt>
      <trkpt lat="42.25855" lon="8.93544">
        <ele>1758.388672</ele>
        <time>2014-06-27T08:57:59Z</time>
      </trkpt>
      <trkpt lat="42.25856" lon="8.93553">
        <ele>1757.42749</ele>
        <time>2014-06-27T08:58:15Z</time>
      </trkpt>
      <trkpt lat="42.25853" lon="8.93556">
        <ele>1754.543213</ele>
        <time>2014-06-27T08:58:25Z</time>
      </trkpt>
      <trkpt lat="42.25851" lon="8.93563">
        <ele>1753.582031</ele>
        <time>2014-06-27T08:58:38Z</time>
      </trkpt>
      <trkpt lat="42.25847" lon="8.93569">
        <ele>1752.139893</ele>
        <time>2014-06-27T08:58:52Z</time>
      </trkpt>
      <trkpt lat="42.25843" lon="8.9359">
        <ele>1752.139893</ele>
        <time>2014-06-27T08:59:10Z</time>
      </trkpt>
      <trkpt lat="42.25842" lon="8.93594">
        <ele>1751.659424</ele>
        <time>2014-06-27T08:59:13Z</time>
      </trkpt>
      <trkpt lat="42.25843" lon="8.93609">
        <ele>1751.178711</ele>
        <time>2014-06-27T08:59:27Z</time>
      </trkpt>
      <trkpt lat="42.25839" lon="8.9363">
        <ele>1750.697998</ele>
        <time>2014-06-27T08:59:42Z</time>
      </trkpt>
      <trkpt lat="42.25833" lon="8.93647">
        <ele>1750.697998</ele>
        <time>2014-06-27T08:59:57Z</time>
      </trkpt>
      <trkpt lat="42.25832" lon="8.93652">
        <ele>1751.659424</ele>
        <time>2014-06-27T09:00:13Z</time>
      </trkpt>
      <trkpt lat="42.2583" lon="8.93666">
        <ele>1751.178711</ele>
        <time>2014-06-27T09:00:30Z</time>
      </trkpt>
      <trkpt lat="42.25828" lon="8.93675">
        <ele>1750.697998</ele>
        <time>2014-06-27T09:00:35Z</time>
      </trkpt>
      <trkpt lat="42.25821" lon="8.9371">
        <ele>1751.659424</ele>
        <time>2014-06-27T09:00:57Z</time>
      </trkpt>
      <trkpt lat="42.25815" lon="8.93744">
        <ele>1751.178711</ele>
        <time>2014-06-27T09:01:17Z</time>
      </trkpt>
      <trkpt lat="42.25803" lon="8.93776">
        <ele>1751.178711</ele>
        <time>2014-06-27T09:01:36Z</time>
      </trkpt>
      <trkpt lat="42.25792" lon="8.938">
        <ele>1750.697998</ele>
        <time>2014-06-27T09:01:50Z</time>
      </trkpt>
      <trkpt lat="42.2578" lon="8.93817">
        <ele>1750.217529</ele>
        <time>2014-06-27T09:02:06Z</time>
      </trkpt>
      <trkpt lat="42.25764" lon="8.93837">
        <ele>1750.217529</ele>
        <time>2014-06-27T09:02:23Z</time>
      </trkpt>
      <trkpt lat="42.2575" lon="8.93851">
        <ele>1750.697998</ele>
        <time>2014-06-27T09:02:37Z</time>
      </trkpt>
      <trkpt lat="42.25732" lon="8.9388">
        <ele>1749.736816</ele>
        <time>2014-06-27T09:02:59Z</time>
      </trkpt>
      <trkpt lat="42.25718" lon="8.93902">
        <ele>1750.217529</ele>
        <time>2014-06-27T09:03:20Z</time>
      </trkpt>
      <trkpt lat="42.25716" lon="8.93906">
        <ele>1750.217529</ele>
        <time>2014-06-27T09:03:38Z</time>
      </trkpt>
      <trkpt lat="42.2571" lon="8.93914">
        <ele>1750.217529</ele>
        <time>2014-06-27T09:04:02Z</time>
      </trkpt>
      <trkpt lat="42.25691" lon="8.93929">
        <ele>1749.736816</ele>
        <time>2014-06-27T09:04:23Z</time>
      </trkpt>
      <trkpt lat="42.25683" lon="8.9392">
        <ele>1747.814209</ele>
        <time>2014-06-27T09:04:39Z</time>
      </trkpt>
      <trkpt lat="42.25684" lon="8.93911">
        <ele>1748.775391</ele>
        <time>2014-06-27T09:04:48Z</time>
      </trkpt>
      <trkpt lat="42.25682" lon="8.93907">
        <ele>1747.814209</ele>
        <time>2014-06-27T09:04:52Z</time>
      </trkpt>
      <trkpt lat="42.25674" lon="8.93884">
        <ele>1747.814209</ele>
        <time>2014-06-27T09:05:13Z</time>
      </trkpt>
      <trkpt lat="42.25673" lon="8.93876">
        <ele>1747.814209</ele>
        <time>2014-06-27T09:05:41Z</time>
      </trkpt>
      <trkpt lat="42.25673" lon="8.9387">
        <ele>1748.294678</ele>
        <time>2014-06-27T09:06:02Z</time>
      </trkpt>
      <trkpt lat="42.25674" lon="8.93858">
        <ele>1748.294678</ele>
        <time>2014-06-27T09:06:12Z</time>
      </trkpt>
      <trkpt lat="42.25668" lon="8.93846">
        <ele>1748.294678</ele>
        <time>2014-06-27T09:06:25Z</time>
      </trkpt>
      <trkpt lat="42.25662" lon="8.9384">
        <ele>1748.294678</ele>
        <time>2014-06-27T09:06:33Z</time>
      </trkpt>
      <trkpt lat="42.25653" lon="8.9382">
        <ele>1749.256104</ele>
        <time>2014-06-27T09:06:52Z</time>
      </trkpt>
      <trkpt lat="42.25656" lon="8.93825">
        <ele>1748.775391</ele>
        <time>2014-06-27T09:07:04Z</time>
      </trkpt>
      <trkpt lat="42.25653" lon="8.9383">
        <ele>1749.256104</ele>
        <time>2014-06-27T09:07:25Z</time>
      </trkpt>
      <trkpt lat="42.25654" lon="8.93827">
        <ele>1749.736816</ele>
        <time>2014-06-27T09:07:33Z</time>
      </trkpt>
      <trkpt lat="42.25659" lon="8.93826">
        <ele>1749.256104</ele>
        <time>2014-06-27T09:07:52Z</time>
      </trkpt>
      <trkpt lat="42.2565" lon="8.93808">
        <ele>1751.178711</ele>
        <time>2014-06-27T09:08:10Z</time>
      </trkpt>
      <trkpt lat="42.25641" lon="8.93799">
        <ele>1751.178711</ele>
        <time>2014-06-27T09:08:26Z</time>
      </trkpt>
      <trkpt lat="42.25642" lon="8.93795">
        <ele>1751.178711</ele>
        <time>2014-06-27T09:08:44Z</time>
      </trkpt>
      <trkpt lat="42.25643" lon="8.93795">
        <ele>1751.178711</ele>
        <time>2014-06-27T09:08:52Z</time>
      </trkpt>
      <trkpt lat="42.25656" lon="8.93787">
        <ele>1751.178711</ele>
        <time>2014-06-27T09:09:09Z</time>
      </trkpt>
      <trkpt lat="42.25659" lon="8.93785">
        <ele>1751.178711</ele>
        <time>2014-06-27T09:09:13Z</time>
      </trkpt>
      <trkpt lat="42.25667" lon="8.93776">
        <ele>1751.659424</ele>
        <time>2014-06-27T09:09:24Z</time>
      </trkpt>
      <trkpt lat="42.25675" lon="8.93768">
        <ele>1752.139893</ele>
        <time>2014-06-27T09:09:41Z</time>
      </trkpt>
      <trkpt lat="42.25674" lon="8.93762">
        <ele>1752.620605</ele>
        <time>2014-06-27T09:10:01Z</time>
      </trkpt>
      <trkpt lat="42.25666" lon="8.93753">
        <ele>1755.023926</ele>
        <time>2014-06-27T09:10:15Z</time>
      </trkpt>
      <trkpt lat="42.25657" lon="8.93747">
        <ele>1757.908203</ele>
        <time>2014-06-27T09:10:29Z</time>
      </trkpt>
      <trkpt lat="42.25647" lon="8.93741">
        <ele>1759.350098</ele>
        <time>2014-06-27T09:10:45Z</time>
      </trkpt>
      <trkpt lat="42.25638" lon="8.93739">
        <ele>1762.7146</ele>
        <time>2014-06-27T09:10:57Z</time>
      </trkpt>
      <trkpt lat="42.25637" lon="8.93739">
        <ele>1762.233887</ele>
        <time>2014-06-27T09:10:58Z</time>
      </trkpt>
      <trkpt lat="42.25634" lon="8.93738">
        <ele>1763.675781</ele>
        <time>2014-06-27T09:11:03Z</time>
      </trkpt>
      <trkpt lat="42.2562" lon="8.93735">
        <ele>1765.11792</ele>
        <time>2014-06-27T09:11:20Z</time>
      </trkpt>
      <trkpt lat="42.25619" lon="8.93735">
        <ele>1765.598633</ele>
        <time>2014-06-27T09:11:22Z</time>
      </trkpt>
      <trkpt lat="42.25604" lon="8.93733">
        <ele>1767.040527</ele>
        <time>2014-06-27T09:11:40Z</time>
      </trkpt>
      <trkpt lat="42.25591" lon="8.93732">
        <ele>1770.405029</ele>
        <time>2014-06-27T09:11:56Z</time>
      </trkpt>
      <trkpt lat="42.25577" lon="8.93729">
        <ele>1772.327881</ele>
        <time>2014-06-27T09:12:14Z</time>
      </trkpt>
      <trkpt lat="42.25576" lon="8.93727">
        <ele>1772.327881</ele>
        <time>2014-06-27T09:12:36Z</time>
      </trkpt>
      <trkpt lat="42.25575" lon="8.9372">
        <ele>1774.250488</ele>
        <time>2014-06-27T09:12:51Z</time>
      </trkpt>
      <trkpt lat="42.25574" lon="8.93701">
        <ele>1776.653809</ele>
        <time>2014-06-27T09:13:08Z</time>
      </trkpt>
      <trkpt lat="42.25573" lon="8.93699">
        <ele>1776.653809</ele>
        <time>2014-06-27T09:13:10Z</time>
      </trkpt>
      <trkpt lat="42.25568" lon="8.93675">
        <ele>1778.095703</ele>
        <time>2014-06-27T09:13:30Z</time>
      </trkpt>
      <trkpt lat="42.25566" lon="8.93655">
        <ele>1781.460205</ele>
        <time>2014-06-27T09:13:48Z</time>
      </trkpt>
      <trkpt lat="42.25564" lon="8.93637">
        <ele>1781.460205</ele>
        <time>2014-06-27T09:14:05Z</time>
      </trkpt>
      <trkpt lat="42.25563" lon="8.93627">
        <ele>1784.824951</ele>
        <time>2014-06-27T09:14:19Z</time>
      </trkpt>
      <trkpt lat="42.25559" lon="8.93613">
        <ele>1786.266846</ele>
        <time>2014-06-27T09:14:34Z</time>
      </trkpt>
      <trkpt lat="42.25555" lon="8.936">
        <ele>1788.67041</ele>
        <time>2014-06-27T09:14:49Z</time>
      </trkpt>
      <trkpt lat="42.25554" lon="8.93589">
        <ele>1792.034912</ele>
        <time>2014-06-27T09:14:59Z</time>
      </trkpt>
      <trkpt lat="42.25553" lon="8.93586">
        <ele>1792.034912</ele>
        <time>2014-06-27T09:15:03Z</time>
      </trkpt>
      <trkpt lat="42.25556" lon="8.93571">
        <ele>1792.034912</ele>
        <time>2014-06-27T09:15:17Z</time>
      </trkpt>
      <trkpt lat="42.25554" lon="8.93568">
        <ele>1792.996094</ele>
        <time>2014-06-27T09:15:29Z</time>
      </trkpt>
      <trkpt lat="42.25547" lon="8.93558">
        <ele>1795.399414</ele>
        <time>2014-06-27T09:15:43Z</time>
      </trkpt>
      <trkpt lat="42.2554" lon="8.93552">
        <ele>1796.841309</ele>
        <time>2014-06-27T09:15:57Z</time>
      </trkpt>
      <trkpt lat="42.25536" lon="8.9355">
        <ele>1797.322021</ele>
        <time>2014-06-27T09:16:03Z</time>
      </trkpt>
      <trkpt lat="42.25533" lon="8.93545">
        <ele>1798.283203</ele>
        <time>2014-06-27T09:16:12Z</time>
      </trkpt>
      <trkpt lat="42.25542" lon="8.93533">
        <ele>1799.244629</ele>
        <time>2014-06-27T09:16:27Z</time>
      </trkpt>
      <trkpt lat="42.25552" lon="8.93517">
        <ele>1800.686523</ele>
        <time>2014-06-27T09:16:45Z</time>
      </trkpt>
      <trkpt lat="42.25551" lon="8.93505">
        <ele>1801.647949</ele>
        <time>2014-06-27T09:17:01Z</time>
      </trkpt>
      <trkpt lat="42.2555" lon="8.93506">
        <ele>1802.609131</ele>
        <time>2014-06-27T09:17:03Z</time>
      </trkpt>
      <trkpt lat="42.25543" lon="8.93507">
        <ele>1805.012695</ele>
        <time>2014-06-27T09:17:18Z</time>
      </trkpt>
      <trkpt lat="42.25536" lon="8.93507">
        <ele>1805.973877</ele>
        <time>2014-06-27T09:17:36Z</time>
      </trkpt>
      <trkpt lat="42.25537" lon="8.93495">
        <ele>1806.45459</ele>
        <time>2014-06-27T09:17:51Z</time>
      </trkpt>
      <trkpt lat="42.25539" lon="8.93484">
        <ele>1807.896729</ele>
        <time>2014-06-27T09:18:05Z</time>
      </trkpt>
      <trkpt lat="42.25545" lon="8.93473">
        <ele>1809.819092</ele>
        <time>2014-06-27T09:18:19Z</time>
      </trkpt>
      <trkpt lat="42.25548" lon="8.93461">
        <ele>1810.299805</ele>
        <time>2014-06-27T09:18:34Z</time>
      </trkpt>
      <trkpt lat="42.25554" lon="8.93447">
        <ele>1811.26123</ele>
        <time>2014-06-27T09:18:50Z</time>
      </trkpt>
      <trkpt lat="42.2556" lon="8.93437">
        <ele>1812.222412</ele>
        <time>2014-06-27T09:19:06Z</time>
      </trkpt>
      <trkpt lat="42.2556" lon="8.93429">
        <ele>1815.587158</ele>
        <time>2014-06-27T09:19:17Z</time>
      </trkpt>
      <trkpt lat="42.25557" lon="8.93425">
        <ele>1816.54834</ele>
        <time>2014-06-27T09:19:30Z</time>
      </trkpt>
      <trkpt lat="42.25554" lon="8.93427">
        <ele>1817.509521</ele>
        <time>2014-06-27T09:19:35Z</time>
      </trkpt>
      <trkpt lat="42.25539" lon="8.93428">
        <ele>1817.990234</ele>
        <time>2014-06-27T09:19:53Z</time>
      </trkpt>
      <trkpt lat="42.25541" lon="8.9342">
        <ele>1820.393799</ele>
        <time>2014-06-27T09:20:04Z</time>
      </trkpt>
      <trkpt lat="42.25549" lon="8.9341">
        <ele>1822.316406</ele>
        <time>2014-06-27T09:20:20Z</time>
      </trkpt>
      <trkpt lat="42.25553" lon="8.93395">
        <ele>1824.239014</ele>
        <time>2014-06-27T09:20:37Z</time>
      </trkpt>
      <trkpt lat="42.25549" lon="8.93385">
        <ele>1826.161621</ele>
        <time>2014-06-27T09:20:56Z</time>
      </trkpt>
      <trkpt lat="42.25543" lon="8.93375">
        <ele>1828.084229</ele>
        <time>2014-06-27T09:21:12Z</time>
      </trkpt>
      <trkpt lat="42.25535" lon="8.93374">
        <ele>1830.006836</ele>
        <time>2014-06-27T09:21:24Z</time>
      </trkpt>
      <trkpt lat="42.25524" lon="8.93374">
        <ele>1832.410156</ele>
        <time>2014-06-27T09:21:39Z</time>
      </trkpt>
      <trkpt lat="42.25513" lon="8.93377">
        <ele>1833.371338</ele>
        <time>2014-06-27T09:21:54Z</time>
      </trkpt>
      <trkpt lat="42.2551" lon="8.93376">
        <ele>1835.774658</ele>
        <time>2014-06-27T09:21:59Z</time>
      </trkpt>
      <trkpt lat="42.25512" lon="8.93361">
        <ele>1837.216797</ele>
        <time>2014-06-27T09:22:14Z</time>
      </trkpt>
      <trkpt lat="42.25512" lon="8.93354">
        <ele>1840.581299</ele>
        <time>2014-06-27T09:22:21Z</time>
      </trkpt>
      <trkpt lat="42.25515" lon="8.93341">
        <ele>1839.620117</ele>
        <time>2014-06-27T09:22:35Z</time>
      </trkpt>
      <trkpt lat="42.25519" lon="8.9332">
        <ele>1842.023438</ele>
        <time>2014-06-27T09:22:55Z</time>
      </trkpt>
      <trkpt lat="42.25519" lon="8.93308">
        <ele>1841.542725</ele>
        <time>2014-06-27T09:23:13Z</time>
      </trkpt>
      <trkpt lat="42.25516" lon="8.93298">
        <ele>1842.50415</ele>
        <time>2014-06-27T09:23:21Z</time>
      </trkpt>
      <trkpt lat="42.25513" lon="8.93276">
        <ele>1844.907227</ele>
        <time>2014-06-27T09:23:40Z</time>
      </trkpt>
      <trkpt lat="42.25512" lon="8.93267">
        <ele>1845.387939</ele>
        <time>2014-06-27T09:23:57Z</time>
      </trkpt>
      <trkpt lat="42.25508" lon="8.93252">
        <ele>1844.426514</ele>
        <time>2014-06-27T09:24:09Z</time>
      </trkpt>
      <trkpt lat="42.25497" lon="8.93229">
        <ele>1844.907227</ele>
        <time>2014-06-27T09:24:28Z</time>
      </trkpt>
      <trkpt lat="42.25489" lon="8.93205">
        <ele>1844.426514</ele>
        <time>2014-06-27T09:24:46Z</time>
      </trkpt>
      <trkpt lat="42.25481" lon="8.93176">
        <ele>1844.907227</ele>
        <time>2014-06-27T09:25:06Z</time>
      </trkpt>
      <trkpt lat="42.25475" lon="8.93148">
        <ele>1846.349365</ele>
        <time>2014-06-27T09:25:26Z</time>
      </trkpt>
      <trkpt lat="42.25478" lon="8.93119">
        <ele>1846.349365</ele>
        <time>2014-06-27T09:25:46Z</time>
      </trkpt>
      <trkpt lat="42.25479" lon="8.93116">
        <ele>1846.829834</ele>
        <time>2014-06-27T09:26:05Z</time>
      </trkpt>
      <trkpt lat="42.25479" lon="8.93109">
        <ele>1846.349365</ele>
        <time>2014-06-27T09:26:26Z</time>
      </trkpt>
      <trkpt lat="42.25481" lon="8.93092">
        <ele>1847.310547</ele>
        <time>2014-06-27T09:26:41Z</time>
      </trkpt>
      <trkpt lat="42.25482" lon="8.9306">
        <ele>1848.271729</ele>
        <time>2014-06-27T09:27:01Z</time>
      </trkpt>
      <trkpt lat="42.25483" lon="8.93029">
        <ele>1848.752441</ele>
        <time>2014-06-27T09:27:21Z</time>
      </trkpt>
      <trkpt lat="42.2548" lon="8.92995">
        <ele>1849.713867</ele>
        <time>2014-06-27T09:27:44Z</time>
      </trkpt>
      <trkpt lat="42.2548" lon="8.92992">
        <ele>1848.752441</ele>
        <time>2014-06-27T09:27:46Z</time>
      </trkpt>
      <trkpt lat="42.25479" lon="8.92968">
        <ele>1849.713867</ele>
        <time>2014-06-27T09:28:04Z</time>
      </trkpt>
      <trkpt lat="42.25474" lon="8.92925">
        <ele>1851.155762</ele>
        <time>2014-06-27T09:28:30Z</time>
      </trkpt>
      <trkpt lat="42.25471" lon="8.92895">
        <ele>1852.5979</ele>
        <time>2014-06-27T09:28:49Z</time>
      </trkpt>
      <trkpt lat="42.25471" lon="8.92883">
        <ele>1853.078613</ele>
        <time>2014-06-27T09:28:57Z</time>
      </trkpt>
      <trkpt lat="42.25467" lon="8.92865">
        <ele>1855.481934</ele>
        <time>2014-06-27T09:29:11Z</time>
      </trkpt>
      <trkpt lat="42.25465" lon="8.9285">
        <ele>1856.443115</ele>
        <time>2014-06-27T09:29:23Z</time>
      </trkpt>
      <trkpt lat="42.25463" lon="8.92834">
        <ele>1859.327148</ele>
        <time>2014-06-27T09:29:36Z</time>
      </trkpt>
      <trkpt lat="42.25457" lon="8.92816">
        <ele>1862.210938</ele>
        <time>2014-06-27T09:29:53Z</time>
      </trkpt>
      <trkpt lat="42.25451" lon="8.928">
        <ele>1864.133545</ele>
        <time>2014-06-27T09:30:09Z</time>
      </trkpt>
      <trkpt lat="42.25447" lon="8.92782">
        <ele>1865.094971</ele>
        <time>2014-06-27T09:30:28Z</time>
      </trkpt>
      <trkpt lat="42.25446" lon="8.92779">
        <ele>1866.536865</ele>
        <time>2014-06-27T09:30:32Z</time>
      </trkpt>
      <trkpt lat="42.25443" lon="8.92768">
        <ele>1869.421143</ele>
        <time>2014-06-27T09:30:44Z</time>
      </trkpt>
      <trkpt lat="42.25443" lon="8.92767">
        <ele>1869.421143</ele>
        <time>2014-06-27T09:30:45Z</time>
      </trkpt>
      <trkpt lat="42.25439" lon="8.92754">
        <ele>1871.343506</ele>
        <time>2014-06-27T09:31:00Z</time>
      </trkpt>
      <trkpt lat="42.25437" lon="8.92746">
        <ele>1874.227539</ele>
        <time>2014-06-27T09:31:09Z</time>
      </trkpt>
      <trkpt lat="42.25436" lon="8.92735">
        <ele>1876.150146</ele>
        <time>2014-06-27T09:31:18Z</time>
      </trkpt>
      <trkpt lat="42.25436" lon="8.92733">
        <ele>1877.111572</ele>
        <time>2014-06-27T09:31:20Z</time>
      </trkpt>
      <trkpt lat="42.25432" lon="8.92719">
        <ele>1878.072754</ele>
        <time>2014-06-27T09:31:32Z</time>
      </trkpt>
      <trkpt lat="42.25429" lon="8.92713">
        <ele>1878.553467</ele>
        <time>2014-06-27T09:31:38Z</time>
      </trkpt>
      <trkpt lat="42.25429" lon="8.92695">
        <ele>1879.995361</ele>
        <time>2014-06-27T09:31:52Z</time>
      </trkpt>
      <trkpt lat="42.2543" lon="8.92686">
        <ele>1881.437256</ele>
        <time>2014-06-27T09:32:09Z</time>
      </trkpt>
      <trkpt lat="42.2543" lon="8.92684">
        <ele>1879.995361</ele>
        <time>2014-06-27T09:32:10Z</time>
      </trkpt>
      <trkpt lat="42.25428" lon="8.9268">
        <ele>1881.437256</ele>
        <time>2014-06-27T09:32:14Z</time>
      </trkpt>
      <trkpt lat="42.25429" lon="8.92674">
        <ele>1883.359863</ele>
        <time>2014-06-27T09:32:18Z</time>
      </trkpt>
      <trkpt lat="42.25431" lon="8.92659">
        <ele>1882.87915</ele>
        <time>2014-06-27T09:32:37Z</time>
      </trkpt>
      <trkpt lat="42.2543" lon="8.9264">
        <ele>1884.321533</ele>
        <time>2014-06-27T09:32:56Z</time>
      </trkpt>
      <trkpt lat="42.25423" lon="8.92606">
        <ele>1884.321533</ele>
        <time>2014-06-27T09:33:19Z</time>
      </trkpt>
      <trkpt lat="42.2542" lon="8.92592">
        <ele>1880.956787</ele>
        <time>2014-06-27T09:33:29Z</time>
      </trkpt>
      <trkpt lat="42.2542" lon="8.92591">
        <ele>1881.917969</ele>
        <time>2014-06-27T09:33:30Z</time>
      </trkpt>
      <trkpt lat="42.2542" lon="8.92589">
        <ele>1883.359863</ele>
        <time>2014-06-27T09:33:32Z</time>
      </trkpt>
      <trkpt lat="42.2542" lon="8.92588">
        <ele>1881.437256</ele>
        <time>2014-06-27T09:33:33Z</time>
      </trkpt>
      <trkpt lat="42.25421" lon="8.92585">
        <ele>1880.476074</ele>
        <time>2014-06-27T09:33:35Z</time>
      </trkpt>
      <trkpt lat="42.25421" lon="8.92584">
        <ele>1881.917969</ele>
        <time>2014-06-27T09:33:36Z</time>
      </trkpt>
      <trkpt lat="42.25421" lon="8.92578">
        <ele>1881.437256</ele>
        <time>2014-06-27T09:33:40Z</time>
      </trkpt>
      <trkpt lat="42.25421" lon="8.92572">
        <ele>1880.956787</ele>
        <time>2014-06-27T09:33:44Z</time>
      </trkpt>
      <trkpt lat="42.2542" lon="8.92553">
        <ele>1877.592041</ele>
        <time>2014-06-27T09:33:57Z</time>
      </trkpt>
      <trkpt lat="42.25421" lon="8.9255">
        <ele>1876.150146</ele>
        <time>2014-06-27T09:34:00Z</time>
      </trkpt>
      <trkpt lat="42.25422" lon="8.92547">
        <ele>1875.188721</ele>
        <time>2014-06-27T09:34:11Z</time>
      </trkpt>
      <trkpt lat="42.25422" lon="8.92547">
        <ele>1874.708252</ele>
        <time>2014-06-27T09:34:25Z</time>
      </trkpt>
      <trkpt lat="42.25422" lon="8.92547">
        <ele>1874.227539</ele>
        <time>2014-06-27T09:34:51Z</time>
      </trkpt>
      <trkpt lat="42.25423" lon="8.92546">
        <ele>1876.150146</ele>
        <time>2014-06-27T09:35:34Z</time>
      </trkpt>
      <trkpt lat="42.25422" lon="8.92546">
        <ele>1875.669434</ele>
        <time>2014-06-27T09:35:59Z</time>
      </trkpt>
      <trkpt lat="42.25417" lon="8.92543">
        <ele>1876.150146</ele>
        <time>2014-06-27T09:36:07Z</time>
      </trkpt>
      <trkpt lat="42.25418" lon="8.92529">
        <ele>1874.227539</ele>
        <time>2014-06-27T09:36:15Z</time>
      </trkpt>
      <trkpt lat="42.25416" lon="8.92516">
        <ele>1871.824219</ele>
        <time>2014-06-27T09:36:22Z</time>
      </trkpt>
      <trkpt lat="42.25417" lon="8.92515">
        <ele>1871.824219</ele>
        <time>2014-06-27T09:36:23Z</time>
      </trkpt>
      <trkpt lat="42.25419" lon="8.92511">
        <ele>1871.343506</ele>
        <time>2014-06-27T09:36:26Z</time>
      </trkpt>
      <trkpt lat="42.25422" lon="8.92493">
        <ele>1867.97876</ele>
        <time>2014-06-27T09:36:37Z</time>
      </trkpt>
      <trkpt lat="42.25423" lon="8.92491">
        <ele>1866.536865</ele>
        <time>2014-06-27T09:36:39Z</time>
      </trkpt>
      <trkpt lat="42.25424" lon="8.9249">
        <ele>1865.575684</ele>
        <time>2014-06-27T09:36:40Z</time>
      </trkpt>
      <trkpt lat="42.25428" lon="8.92468">
        <ele>1865.094971</ele>
        <time>2014-06-27T09:36:52Z</time>
      </trkpt>
      <trkpt lat="42.25431" lon="8.92454">
        <ele>1863.652832</ele>
        <time>2014-06-27T09:37:00Z</time>
      </trkpt>
      <trkpt lat="42.25438" lon="8.92423">
        <ele>1863.652832</ele>
        <time>2014-06-27T09:37:18Z</time>
      </trkpt>
      <trkpt lat="42.25442" lon="8.92396">
        <ele>1861.730469</ele>
        <time>2014-06-27T09:37:38Z</time>
      </trkpt>
      <trkpt lat="42.25445" lon="8.92376">
        <ele>1859.327148</ele>
        <time>2014-06-27T09:37:55Z</time>
      </trkpt>
      <trkpt lat="42.25445" lon="8.92367">
        <ele>1857.885254</ele>
        <time>2014-06-27T09:38:03Z</time>
      </trkpt>
      <trkpt lat="42.25447" lon="8.92361">
        <ele>1856.923828</ele>
        <time>2014-06-27T09:38:08Z</time>
      </trkpt>
      <trkpt lat="42.25446" lon="8.92355">
        <ele>1856.923828</ele>
        <time>2014-06-27T09:38:13Z</time>
      </trkpt>
      <trkpt lat="42.25452" lon="8.92333">
        <ele>1854.040039</ele>
        <time>2014-06-27T09:38:32Z</time>
      </trkpt>
      <trkpt lat="42.25454" lon="8.92314">
        <ele>1853.078613</ele>
        <time>2014-06-27T09:38:49Z</time>
      </trkpt>
      <trkpt lat="42.25458" lon="8.92296">
        <ele>1852.117188</ele>
        <time>2014-06-27T09:39:06Z</time>
      </trkpt>
      <trkpt lat="42.25459" lon="8.92294">
        <ele>1850.675049</ele>
        <time>2014-06-27T09:39:09Z</time>
      </trkpt>
      <trkpt lat="42.25463" lon="8.92283">
        <ele>1850.675049</ele>
        <time>2014-06-27T09:39:21Z</time>
      </trkpt>
      <trkpt lat="42.2547" lon="8.92265">
        <ele>1849.233154</ele>
        <time>2014-06-27T09:39:37Z</time>
      </trkpt>
      <trkpt lat="42.25474" lon="8.92249">
        <ele>1848.752441</ele>
        <time>2014-06-27T09:39:52Z</time>
      </trkpt>
      <trkpt lat="42.25478" lon="8.92238">
        <ele>1846.349365</ele>
        <time>2014-06-27T09:40:01Z</time>
      </trkpt>
      <trkpt lat="42.25479" lon="8.92234">
        <ele>1847.310547</ele>
        <time>2014-06-27T09:40:05Z</time>
      </trkpt>
      <trkpt lat="42.25483" lon="8.92213">
        <ele>1844.426514</ele>
        <time>2014-06-27T09:40:22Z</time>
      </trkpt>
      <trkpt lat="42.25485" lon="8.92196">
        <ele>1845.387939</ele>
        <time>2014-06-27T09:40:37Z</time>
      </trkpt>
      <trkpt lat="42.25494" lon="8.92176">
        <ele>1842.984619</ele>
        <time>2014-06-27T09:40:54Z</time>
      </trkpt>
      <trkpt lat="42.25505" lon="8.92158">
        <ele>1841.062012</ele>
        <time>2014-06-27T09:41:12Z</time>
      </trkpt>
      <trkpt lat="42.25513" lon="8.92144">
        <ele>1840.10083</ele>
        <time>2014-06-27T09:41:30Z</time>
      </trkpt>
      <trkpt lat="42.2552" lon="8.9213">
        <ele>1841.062012</ele>
        <time>2014-06-27T09:41:45Z</time>
      </trkpt>
      <trkpt lat="42.25526" lon="8.9212">
        <ele>1841.542725</ele>
        <time>2014-06-27T09:42:01Z</time>
      </trkpt>
      <trkpt lat="42.25529" lon="8.92108">
        <ele>1839.620117</ele>
        <time>2014-06-27T09:42:15Z</time>
      </trkpt>
      <trkpt lat="42.25531" lon="8.92102">
        <ele>1838.658936</ele>
        <time>2014-06-27T09:42:21Z</time>
      </trkpt>
      <trkpt lat="42.25536" lon="8.92081">
        <ele>1836.255615</ele>
        <time>2014-06-27T09:42:39Z</time>
      </trkpt>
      <trkpt lat="42.25538" lon="8.92065">
        <ele>1834.813477</ele>
        <time>2014-06-27T09:42:54Z</time>
      </trkpt>
      <trkpt lat="42.25539" lon="8.92063">
        <ele>1834.332764</ele>
        <time>2014-06-27T09:42:56Z</time>
      </trkpt>
      <trkpt lat="42.25539" lon="8.92046">
        <ele>1835.774658</ele>
        <time>2014-06-27T09:43:15Z</time>
      </trkpt>
      <trkpt lat="42.25545" lon="8.92029">
        <ele>1835.774658</ele>
        <time>2014-06-27T09:43:30Z</time>
      </trkpt>
      <trkpt lat="42.2555" lon="8.92009">
        <ele>1837.216797</ele>
        <time>2014-06-27T09:43:49Z</time>
      </trkpt>
      <trkpt lat="42.25553" lon="8.91998">
        <ele>1836.736084</ele>
        <time>2014-06-27T09:44:02Z</time>
      </trkpt>
      <trkpt lat="42.25554" lon="8.91987">
        <ele>1838.658936</ele>
        <time>2014-06-27T09:44:17Z</time>
      </trkpt>
      <trkpt lat="42.25552" lon="8.91981">
        <ele>1838.658936</ele>
        <time>2014-06-27T09:44:41Z</time>
      </trkpt>
      <trkpt lat="42.25554" lon="8.91973">
        <ele>1838.658936</ele>
        <time>2014-06-27T09:44:48Z</time>
      </trkpt>
      <trkpt lat="42.25556" lon="8.91954">
        <ele>1837.69751</ele>
        <time>2014-06-27T09:45:01Z</time>
      </trkpt>
      <trkpt lat="42.25557" lon="8.91947">
        <ele>1836.255615</ele>
        <time>2014-06-27T09:45:06Z</time>
      </trkpt>
      <trkpt lat="42.25559" lon="8.91926">
        <ele>1833.371338</ele>
        <time>2014-06-27T09:45:22Z</time>
      </trkpt>
      <trkpt lat="42.25557" lon="8.91916">
        <ele>1833.371338</ele>
        <time>2014-06-27T09:45:30Z</time>
      </trkpt>
      <trkpt lat="42.2556" lon="8.91893">
        <ele>1831.929443</ele>
        <time>2014-06-27T09:45:47Z</time>
      </trkpt>
      <trkpt lat="42.2556" lon="8.91874">
        <ele>1831.44873</ele>
        <time>2014-06-27T09:46:04Z</time>
      </trkpt>
      <trkpt lat="42.2556" lon="8.91856">
        <ele>1830.968262</ele>
        <time>2014-06-27T09:46:21Z</time>
      </trkpt>
      <trkpt lat="42.25558" lon="8.91839">
        <ele>1829.04541</ele>
        <time>2014-06-27T09:46:37Z</time>
      </trkpt>
      <trkpt lat="42.25559" lon="8.91831">
        <ele>1829.526123</ele>
        <time>2014-06-27T09:46:45Z</time>
      </trkpt>
      <trkpt lat="42.25571" lon="8.91815">
        <ele>1829.04541</ele>
        <time>2014-06-27T09:47:05Z</time>
      </trkpt>
      <trkpt lat="42.25568" lon="8.91811">
        <ele>1826.642334</ele>
        <time>2014-06-27T09:47:14Z</time>
      </trkpt>
      <trkpt lat="42.25561" lon="8.91807">
        <ele>1825.200195</ele>
        <time>2014-06-27T09:47:26Z</time>
      </trkpt>
      <trkpt lat="42.25552" lon="8.9181">
        <ele>1822.797119</ele>
        <time>2014-06-27T09:47:44Z</time>
      </trkpt>
      <trkpt lat="42.25554" lon="8.91805">
        <ele>1821.835693</ele>
        <time>2014-06-27T09:47:49Z</time>
      </trkpt>
      <trkpt lat="42.25561" lon="8.91791">
        <ele>1820.874512</ele>
        <time>2014-06-27T09:48:06Z</time>
      </trkpt>
      <trkpt lat="42.25563" lon="8.91786">
        <ele>1819.432373</ele>
        <time>2014-06-27T09:48:23Z</time>
      </trkpt>
      <trkpt lat="42.25562" lon="8.91779">
        <ele>1816.067627</ele>
        <time>2014-06-27T09:48:35Z</time>
      </trkpt>
      <trkpt lat="42.25557" lon="8.91776">
        <ele>1815.587158</ele>
        <time>2014-06-27T09:48:51Z</time>
      </trkpt>
      <trkpt lat="42.25558" lon="8.91763">
        <ele>1812.703125</ele>
        <time>2014-06-27T09:49:08Z</time>
      </trkpt>
      <trkpt lat="42.25559" lon="8.91759">
        <ele>1812.222412</ele>
        <time>2014-06-27T09:49:26Z</time>
      </trkpt>
      <trkpt lat="42.25558" lon="8.91759">
        <ele>1811.741943</ele>
        <time>2014-06-27T09:50:23Z</time>
      </trkpt>
      <trkpt lat="42.25555" lon="8.9176">
        <ele>1812.222412</ele>
        <time>2014-06-27T09:50:48Z</time>
      </trkpt>
      <trkpt lat="42.25547" lon="8.91772">
        <ele>1811.26123</ele>
        <time>2014-06-27T09:51:03Z</time>
      </trkpt>
      <trkpt lat="42.25545" lon="8.91764">
        <ele>1808.85791</ele>
        <time>2014-06-27T09:51:18Z</time>
      </trkpt>
      <trkpt lat="42.25545" lon="8.9175">
        <ele>1807.416016</ele>
        <time>2014-06-27T09:51:33Z</time>
      </trkpt>
      <trkpt lat="42.25544" lon="8.9174">
        <ele>1804.051514</ele>
        <time>2014-06-27T09:51:45Z</time>
      </trkpt>
      <trkpt lat="42.2554" lon="8.91744">
        <ele>1804.051514</ele>
        <time>2014-06-27T09:51:56Z</time>
      </trkpt>
      <trkpt lat="42.25534" lon="8.91748">
        <ele>1800.686523</ele>
        <time>2014-06-27T09:52:11Z</time>
      </trkpt>
      <trkpt lat="42.25534" lon="8.91734">
        <ele>1799.244629</ele>
        <time>2014-06-27T09:52:27Z</time>
      </trkpt>
      <trkpt lat="42.25534" lon="8.91725">
        <ele>1798.283203</ele>
        <time>2014-06-27T09:52:41Z</time>
      </trkpt>
      <trkpt lat="42.25535" lon="8.9171">
        <ele>1796.36084</ele>
        <time>2014-06-27T09:52:56Z</time>
      </trkpt>
      <trkpt lat="42.25536" lon="8.91692">
        <ele>1794.918701</ele>
        <time>2014-06-27T09:53:12Z</time>
      </trkpt>
      <trkpt lat="42.25533" lon="8.91672">
        <ele>1793.476807</ele>
        <time>2014-06-27T09:53:29Z</time>
      </trkpt>
      <trkpt lat="42.25532" lon="8.91663">
        <ele>1793.476807</ele>
        <time>2014-06-27T09:53:36Z</time>
      </trkpt>
      <trkpt lat="42.25529" lon="8.91642">
        <ele>1793.95752</ele>
        <time>2014-06-27T09:53:56Z</time>
      </trkpt>
      <trkpt lat="42.25529" lon="8.91638">
        <ele>1794.437988</ele>
        <time>2014-06-27T09:54:06Z</time>
      </trkpt>
      <trkpt lat="42.25527" lon="8.91628">
        <ele>1794.437988</ele>
        <time>2014-06-27T09:54:24Z</time>
      </trkpt>
      <trkpt lat="42.25531" lon="8.91631">
        <ele>1795.880127</ele>
        <time>2014-06-27T09:54:41Z</time>
      </trkpt>
      <trkpt lat="42.25531" lon="8.91623">
        <ele>1797.802734</ele>
        <time>2014-06-27T09:54:55Z</time>
      </trkpt>
      <trkpt lat="42.2553" lon="8.91617">
        <ele>1800.686523</ele>
        <time>2014-06-27T09:55:06Z</time>
      </trkpt>
      <trkpt lat="42.25528" lon="8.91607">
        <ele>1801.647949</ele>
        <time>2014-06-27T09:55:19Z</time>
      </trkpt>
      <trkpt lat="42.25527" lon="8.91592">
        <ele>1803.089844</ele>
        <time>2014-06-27T09:55:36Z</time>
      </trkpt>
      <trkpt lat="42.25529" lon="8.91588">
        <ele>1805.012695</ele>
        <time>2014-06-27T09:55:49Z</time>
      </trkpt>
      <trkpt lat="42.2553" lon="8.91589">
        <ele>1805.973877</ele>
        <time>2014-06-27T09:55:51Z</time>
      </trkpt>
      <trkpt lat="42.25534" lon="8.91596">
        <ele>1808.85791</ele>
        <time>2014-06-27T09:56:04Z</time>
      </trkpt>
      <trkpt lat="42.25536" lon="8.91589">
        <ele>1809.819092</ele>
        <time>2014-06-27T09:56:17Z</time>
      </trkpt>
      <trkpt lat="42.25538" lon="8.91579">
        <ele>1811.26123</ele>
        <time>2014-06-27T09:56:31Z</time>
      </trkpt>
      <trkpt lat="42.2554" lon="8.91577">
        <ele>1809.819092</ele>
        <time>2014-06-27T09:56:34Z</time>
      </trkpt>
      <trkpt lat="42.2554" lon="8.91562">
        <ele>1808.377197</ele>
        <time>2014-06-27T09:56:51Z</time>
      </trkpt>
      <trkpt lat="42.25539" lon="8.91554">
        <ele>1808.377197</ele>
        <time>2014-06-27T09:57:07Z</time>
      </trkpt>
      <trkpt lat="42.25534" lon="8.91541">
        <ele>1808.377197</ele>
        <time>2014-06-27T09:57:25Z</time>
      </trkpt>
      <trkpt lat="42.2553" lon="8.91522">
        <ele>1807.896729</ele>
        <time>2014-06-27T09:57:42Z</time>
      </trkpt>
      <trkpt lat="42.25528" lon="8.91511">
        <ele>1804.531982</ele>
        <time>2014-06-27T09:57:58Z</time>
      </trkpt>
      <trkpt lat="42.25528" lon="8.91506">
        <ele>1804.531982</ele>
        <time>2014-06-27T09:58:20Z</time>
      </trkpt>
      <trkpt lat="42.25529" lon="8.91496">
        <ele>1802.609131</ele>
        <time>2014-06-27T09:58:34Z</time>
      </trkpt>
      <trkpt lat="42.25525" lon="8.9148">
        <ele>1800.686523</ele>
        <time>2014-06-27T09:58:50Z</time>
      </trkpt>
      <trkpt lat="42.25523" lon="8.91467">
        <ele>1797.802734</ele>
        <time>2014-06-27T09:59:05Z</time>
      </trkpt>
      <trkpt lat="42.25524" lon="8.91454">
        <ele>1795.880127</ele>
        <time>2014-06-27T09:59:22Z</time>
      </trkpt>
      <trkpt lat="42.25522" lon="8.91444">
        <ele>1794.437988</ele>
        <time>2014-06-27T09:59:37Z</time>
      </trkpt>
      <trkpt lat="42.25519" lon="8.91432">
        <ele>1793.95752</ele>
        <time>2014-06-27T09:59:53Z</time>
      </trkpt>
      <trkpt lat="42.25514" lon="8.91418">
        <ele>1791.554199</ele>
        <time>2014-06-27T10:00:10Z</time>
      </trkpt>
      <trkpt lat="42.25513" lon="8.91406">
        <ele>1789.631592</ele>
        <time>2014-06-27T10:00:25Z</time>
      </trkpt>
      <trkpt lat="42.25512" lon="8.91389">
        <ele>1789.150879</ele>
        <time>2014-06-27T10:00:43Z</time>
      </trkpt>
      <trkpt lat="42.25511" lon="8.91366">
        <ele>1787.70874</ele>
        <time>2014-06-27T10:01:01Z</time>
      </trkpt>
      <trkpt lat="42.25516" lon="8.91338">
        <ele>1786.266846</ele>
        <time>2014-06-27T10:01:22Z</time>
      </trkpt>
      <trkpt lat="42.25516" lon="8.91313">
        <ele>1784.824951</ele>
        <time>2014-06-27T10:01:40Z</time>
      </trkpt>
      <trkpt lat="42.25518" lon="8.91291">
        <ele>1783.863525</ele>
        <time>2014-06-27T10:01:58Z</time>
      </trkpt>
      <trkpt lat="42.2552" lon="8.9127">
        <ele>1782.9021</ele>
        <time>2014-06-27T10:02:14Z</time>
      </trkpt>
      <trkpt lat="42.25519" lon="8.91249">
        <ele>1784.344238</ele>
        <time>2014-06-27T10:02:33Z</time>
      </trkpt>
      <trkpt lat="42.25511" lon="8.91235">
        <ele>1785.30542</ele>
        <time>2014-06-27T10:02:50Z</time>
      </trkpt>
      <trkpt lat="42.25511" lon="8.9123">
        <ele>1784.824951</ele>
        <time>2014-06-27T10:03:06Z</time>
      </trkpt>
      <trkpt lat="42.25511" lon="8.9123">
        <ele>1784.344238</ele>
        <time>2014-06-27T10:03:37Z</time>
      </trkpt>
      <trkpt lat="42.25511" lon="8.91231">
        <ele>1783.863525</ele>
        <time>2014-06-27T10:03:54Z</time>
      </trkpt>
      <trkpt lat="42.2551" lon="8.91231">
        <ele>1783.863525</ele>
        <time>2014-06-27T10:05:23Z</time>
      </trkpt>
      <trkpt lat="42.25511" lon="8.9123">
        <ele>1782.421631</ele>
        <time>2014-06-27T10:05:45Z</time>
      </trkpt>
      <trkpt lat="42.25512" lon="8.91232">
        <ele>1780.979736</ele>
        <time>2014-06-27T10:06:06Z</time>
      </trkpt>
      <trkpt lat="42.25512" lon="8.91232">
        <ele>1784.344238</ele>
        <time>2014-06-27T10:06:07Z</time>
      </trkpt>
      <trkpt lat="42.25512" lon="8.91232">
        <ele>1782.9021</ele>
        <time>2014-06-27T10:06:08Z</time>
      </trkpt>
      <trkpt lat="42.25511" lon="8.91231">
        <ele>1782.421631</ele>
        <time>2014-06-27T10:06:43Z</time>
      </trkpt>
      <trkpt lat="42.25511" lon="8.91231">
        <ele>1781.940918</ele>
        <time>2014-06-27T10:07:17Z</time>
      </trkpt>
      <trkpt lat="42.2551" lon="8.91228">
        <ele>1782.9021</ele>
        <time>2014-06-27T10:07:53Z</time>
      </trkpt>
      <trkpt lat="42.25511" lon="8.91231">
        <ele>1782.421631</ele>
        <time>2014-06-27T10:08:46Z</time>
      </trkpt>
      <trkpt lat="42.25512" lon="8.9123">
        <ele>1782.9021</ele>
        <time>2014-06-27T10:09:23Z</time>
      </trkpt>
      <trkpt lat="42.25513" lon="8.91231">
        <ele>1784.824951</ele>
        <time>2014-06-27T10:13:37Z</time>
      </trkpt>
      <trkpt lat="42.25512" lon="8.9123">
        <ele>1784.344238</ele>
        <time>2014-06-27T10:14:12Z</time>
      </trkpt>
      <trkpt lat="42.25513" lon="8.91232">
        <ele>1784.344238</ele>
        <time>2014-06-27T10:14:54Z</time>
      </trkpt>
      <trkpt lat="42.25513" lon="8.91231">
        <ele>1784.824951</ele>
        <time>2014-06-27T10:15:23Z</time>
      </trkpt>
      <trkpt lat="42.25512" lon="8.9123">
        <ele>1783.863525</ele>
        <time>2014-06-27T10:15:57Z</time>
      </trkpt>
      <trkpt lat="42.25511" lon="8.91227">
        <ele>1784.344238</ele>
        <time>2014-06-27T10:16:25Z</time>
      </trkpt>
      <trkpt lat="42.25511" lon="8.91227">
        <ele>1784.344238</ele>
        <time>2014-06-27T10:16:54Z</time>
      </trkpt>
      <trkpt lat="42.2551" lon="8.91228">
        <ele>1783.382813</ele>
        <time>2014-06-27T10:17:24Z</time>
      </trkpt>
      <trkpt lat="42.25508" lon="8.91229">
        <ele>1782.9021</ele>
        <time>2014-06-27T10:17:43Z</time>
      </trkpt>
      <trkpt lat="42.25508" lon="8.91227">
        <ele>1783.863525</ele>
        <time>2014-06-27T10:17:58Z</time>
      </trkpt>
      <trkpt lat="42.2551" lon="8.91227">
        <ele>1783.382813</ele>
        <time>2014-06-27T10:18:58Z</time>
      </trkpt>
      <trkpt lat="42.25508" lon="8.91229">
        <ele>1782.9021</ele>
        <time>2014-06-27T10:19:22Z</time>
      </trkpt>
      <trkpt lat="42.2551" lon="8.91229">
        <ele>1782.9021</ele>
        <time>2014-06-27T10:19:51Z</time>
      </trkpt>
      <trkpt lat="42.2551" lon="8.91229">
        <ele>1782.9021</ele>
        <time>2014-06-27T10:20:13Z</time>
      </trkpt>
      <trkpt lat="42.2551" lon="8.91229">
        <ele>1782.9021</ele>
        <time>2014-06-27T10:20:30Z</time>
      </trkpt>
      <trkpt lat="42.25508" lon="8.9123">
        <ele>1782.9021</ele>
        <time>2014-06-27T10:20:51Z</time>
      </trkpt>
      <trkpt lat="42.2551" lon="8.9123">
        <ele>1783.863525</ele>
        <time>2014-06-27T10:21:38Z</time>
      </trkpt>
      <trkpt lat="42.25511" lon="8.91228">
        <ele>1783.863525</ele>
        <time>2014-06-27T10:22:06Z</time>
      </trkpt>
      <trkpt lat="42.25511" lon="8.91227">
        <ele>1783.382813</ele>
        <time>2014-06-27T10:22:59Z</time>
      </trkpt>
      <trkpt lat="42.25512" lon="8.91226">
        <ele>1783.382813</ele>
        <time>2014-06-27T10:23:27Z</time>
      </trkpt>
      <trkpt lat="42.25511" lon="8.91228">
        <ele>1781.940918</ele>
        <time>2014-06-27T10:23:55Z</time>
      </trkpt>
      <trkpt lat="42.25511" lon="8.91229">
        <ele>1781.940918</ele>
        <time>2014-06-27T10:24:48Z</time>
      </trkpt>
      <trkpt lat="42.25511" lon="8.91232">
        <ele>1782.9021</ele>
        <time>2014-06-27T10:26:39Z</time>
      </trkpt>
      <trkpt lat="42.25509" lon="8.91231">
        <ele>1782.421631</ele>
        <time>2014-06-27T10:27:07Z</time>
      </trkpt>
      <trkpt lat="42.2551" lon="8.9123">
        <ele>1782.9021</ele>
        <time>2014-06-27T10:27:38Z</time>
      </trkpt>
      <trkpt lat="42.2551" lon="8.9123">
        <ele>1782.421631</ele>
        <time>2014-06-27T10:28:06Z</time>
      </trkpt>
      <trkpt lat="42.25511" lon="8.9123">
        <ele>1782.421631</ele>
        <time>2014-06-27T10:28:45Z</time>
      </trkpt>
      <trkpt lat="42.25512" lon="8.9123">
        <ele>1782.9021</ele>
        <time>2014-06-27T10:29:15Z</time>
      </trkpt>
      <trkpt lat="42.25511" lon="8.91231">
        <ele>1781.940918</ele>
        <time>2014-06-27T10:29:48Z</time>
      </trkpt>
      <trkpt lat="42.25511" lon="8.91231">
        <ele>1782.421631</ele>
        <time>2014-06-27T10:30:28Z</time>
      </trkpt>
      <trkpt lat="42.25511" lon="8.91229">
        <ele>1782.9021</ele>
        <time>2014-06-27T10:30:55Z</time>
      </trkpt>
      <trkpt lat="42.2551" lon="8.91229">
        <ele>1782.421631</ele>
        <time>2014-06-27T10:31:18Z</time>
      </trkpt>
      <trkpt lat="42.2551" lon="8.91228">
        <ele>1782.9021</ele>
        <time>2014-06-27T10:31:46Z</time>
      </trkpt>
      <trkpt lat="42.2551" lon="8.91228">
        <ele>1784.344238</ele>
        <time>2014-06-27T10:31:50Z</time>
      </trkpt>
      <trkpt lat="42.25511" lon="8.91229">
        <ele>1784.824951</ele>
        <time>2014-06-27T10:32:16Z</time>
      </trkpt>
      <trkpt lat="42.25512" lon="8.91229">
        <ele>1784.344238</ele>
        <time>2014-06-27T10:32:45Z</time>
      </trkpt>
      <trkpt lat="42.25511" lon="8.91229">
        <ele>1783.863525</ele>
        <time>2014-06-27T10:33:08Z</time>
      </trkpt>
      <trkpt lat="42.25512" lon="8.91229">
        <ele>1783.863525</ele>
        <time>2014-06-27T10:33:29Z</time>
      </trkpt>
      <trkpt lat="42.25512" lon="8.9123">
        <ele>1784.344238</ele>
        <time>2014-06-27T10:33:59Z</time>
      </trkpt>
      <trkpt lat="42.25519" lon="8.91231">
        <ele>1783.382813</ele>
        <time>2014-06-27T10:34:15Z</time>
      </trkpt>
      <trkpt lat="42.25522" lon="8.91227">
        <ele>1782.421631</ele>
        <time>2014-06-27T10:34:21Z</time>
      </trkpt>
      <trkpt lat="42.25525" lon="8.91226">
        <ele>1780.979736</ele>
        <time>2014-06-27T10:34:28Z</time>
      </trkpt>
      <trkpt lat="42.2553" lon="8.91215">
        <ele>1779.537598</ele>
        <time>2014-06-27T10:34:44Z</time>
      </trkpt>
      <trkpt lat="42.25533" lon="8.91196">
        <ele>1779.537598</ele>
        <time>2014-06-27T10:35:00Z</time>
      </trkpt>
      <trkpt lat="42.25538" lon="8.9117">
        <ele>1779.056885</ele>
        <time>2014-06-27T10:35:20Z</time>
      </trkpt>
      <trkpt lat="42.25539" lon="8.91168">
        <ele>1778.576416</ele>
        <time>2014-06-27T10:35:22Z</time>
      </trkpt>
      <trkpt lat="42.25543" lon="8.91143">
        <ele>1777.134521</ele>
        <time>2014-06-27T10:35:40Z</time>
      </trkpt>
      <trkpt lat="42.25544" lon="8.91121">
        <ele>1774.731201</ele>
        <time>2014-06-27T10:35:57Z</time>
      </trkpt>
      <trkpt lat="42.25544" lon="8.91103">
        <ele>1774.250488</ele>
        <time>2014-06-27T10:36:13Z</time>
      </trkpt>
      <trkpt lat="42.25544" lon="8.91091">
        <ele>1772.808594</ele>
        <time>2014-06-27T10:36:28Z</time>
      </trkpt>
      <trkpt lat="42.25544" lon="8.91079">
        <ele>1771.846924</ele>
        <time>2014-06-27T10:36:39Z</time>
      </trkpt>
      <trkpt lat="42.25538" lon="8.9106">
        <ele>1771.846924</ele>
        <time>2014-06-27T10:36:56Z</time>
      </trkpt>
      <trkpt lat="42.25539" lon="8.91061">
        <ele>1771.366211</ele>
        <time>2014-06-27T10:37:16Z</time>
      </trkpt>
      <trkpt lat="42.25538" lon="8.9106">
        <ele>1771.366211</ele>
        <time>2014-06-27T10:37:23Z</time>
      </trkpt>
      <trkpt lat="42.25531" lon="8.91041">
        <ele>1770.405029</ele>
        <time>2014-06-27T10:37:39Z</time>
      </trkpt>
      <trkpt lat="42.25526" lon="8.91027">
        <ele>1770.405029</ele>
        <time>2014-06-27T10:37:55Z</time>
      </trkpt>
      <trkpt lat="42.25518" lon="8.91015">
        <ele>1769.443848</ele>
        <time>2014-06-27T10:38:11Z</time>
      </trkpt>
      <trkpt lat="42.25505" lon="8.90996">
        <ele>1769.924316</ele>
        <time>2014-06-27T10:38:29Z</time>
      </trkpt>
      <trkpt lat="42.25501" lon="8.90987">
        <ele>1769.924316</ele>
        <time>2014-06-27T10:38:37Z</time>
      </trkpt>
      <trkpt lat="42.25501" lon="8.90981">
        <ele>1768.001709</ele>
        <time>2014-06-27T10:38:41Z</time>
      </trkpt>
      <trkpt lat="42.25502" lon="8.90963">
        <ele>1764.637207</ele>
        <time>2014-06-27T10:38:54Z</time>
      </trkpt>
      <trkpt lat="42.25503" lon="8.90944">
        <ele>1763.675781</ele>
        <time>2014-06-27T10:39:10Z</time>
      </trkpt>
      <trkpt lat="42.255" lon="8.90921">
        <ele>1761.753418</ele>
        <time>2014-06-27T10:39:26Z</time>
      </trkpt>
      <trkpt lat="42.255" lon="8.9092">
        <ele>1762.233887</ele>
        <time>2014-06-27T10:39:27Z</time>
      </trkpt>
      <trkpt lat="42.25499" lon="8.90917">
        <ele>1762.7146</ele>
        <time>2014-06-27T10:39:29Z</time>
      </trkpt>
      <trkpt lat="42.25501" lon="8.90908">
        <ele>1761.272705</ele>
        <time>2014-06-27T10:39:35Z</time>
      </trkpt>
      <trkpt lat="42.25501" lon="8.90905">
        <ele>1760.311279</ele>
        <time>2014-06-27T10:39:37Z</time>
      </trkpt>
      <trkpt lat="42.25506" lon="8.90886">
        <ele>1759.830566</ele>
        <time>2014-06-27T10:39:53Z</time>
      </trkpt>
      <trkpt lat="42.25509" lon="8.90873">
        <ele>1758.388672</ele>
        <time>2014-06-27T10:40:08Z</time>
      </trkpt>
      <trkpt lat="42.25513" lon="8.90861">
        <ele>1755.504639</ele>
        <time>2014-06-27T10:40:22Z</time>
      </trkpt>
      <trkpt lat="42.25517" lon="8.90847">
        <ele>1754.062744</ele>
        <time>2014-06-27T10:40:35Z</time>
      </trkpt>
      <trkpt lat="42.25519" lon="8.90828">
        <ele>1754.543213</ele>
        <time>2014-06-27T10:40:51Z</time>
      </trkpt>
      <trkpt lat="42.2552" lon="8.90821">
        <ele>1754.062744</ele>
        <time>2014-06-27T10:41:04Z</time>
      </trkpt>
      <trkpt lat="42.2552" lon="8.90807">
        <ele>1755.023926</ele>
        <time>2014-06-27T10:41:18Z</time>
      </trkpt>
      <trkpt lat="42.25517" lon="8.90785">
        <ele>1754.543213</ele>
        <time>2014-06-27T10:41:37Z</time>
      </trkpt>
      <trkpt lat="42.25517" lon="8.90776">
        <ele>1752.139893</ele>
        <time>2014-06-27T10:41:50Z</time>
      </trkpt>
      <trkpt lat="42.25519" lon="8.90774">
        <ele>1751.178711</ele>
        <time>2014-06-27T10:41:55Z</time>
      </trkpt>
      <trkpt lat="42.25522" lon="8.90772">
        <ele>1749.256104</ele>
        <time>2014-06-27T10:42:01Z</time>
      </trkpt>
      <trkpt lat="42.25531" lon="8.90781">
        <ele>1746.372314</ele>
        <time>2014-06-27T10:42:16Z</time>
      </trkpt>
      <trkpt lat="42.25536" lon="8.90779">
        <ele>1744.449463</ele>
        <time>2014-06-27T10:42:29Z</time>
      </trkpt>
      <trkpt lat="42.2554" lon="8.90766">
        <ele>1741.084961</ele>
        <time>2014-06-27T10:42:47Z</time>
      </trkpt>
      <trkpt lat="42.25541" lon="8.90752">
        <ele>1738.200928</ele>
        <time>2014-06-27T10:43:02Z</time>
      </trkpt>
      <trkpt lat="42.25541" lon="8.90744">
        <ele>1737.720215</ele>
        <time>2014-06-27T10:43:12Z</time>
      </trkpt>
      <trkpt lat="42.2554" lon="8.9074">
        <ele>1737.239502</ele>
        <time>2014-06-27T10:43:15Z</time>
      </trkpt>
      <trkpt lat="42.2553" lon="8.90723">
        <ele>1736.27832</ele>
        <time>2014-06-27T10:43:32Z</time>
      </trkpt>
      <trkpt lat="42.25528" lon="8.90711">
        <ele>1734.355713</ele>
        <time>2014-06-27T10:43:47Z</time>
      </trkpt>
      <trkpt lat="42.25518" lon="8.90694">
        <ele>1731.952393</ele>
        <time>2014-06-27T10:44:04Z</time>
      </trkpt>
      <trkpt lat="42.25516" lon="8.90689">
        <ele>1731.952393</ele>
        <time>2014-06-27T10:44:12Z</time>
      </trkpt>
      <trkpt lat="42.25509" lon="8.90672">
        <ele>1729.068359</ele>
        <time>2014-06-27T10:44:29Z</time>
      </trkpt>
      <trkpt lat="42.25509" lon="8.90666">
        <ele>1727.626465</ele>
        <time>2014-06-27T10:44:42Z</time>
      </trkpt>
      <trkpt lat="42.25518" lon="8.90669">
        <ele>1724.742676</ele>
        <time>2014-06-27T10:44:56Z</time>
      </trkpt>
      <trkpt lat="42.25521" lon="8.9067">
        <ele>1724.742676</ele>
        <time>2014-06-27T10:44:59Z</time>
      </trkpt>
      <trkpt lat="42.25531" lon="8.90676">
        <ele>1722.819824</ele>
        <time>2014-06-27T10:45:14Z</time>
      </trkpt>
      <trkpt lat="42.25535" lon="8.90683">
        <ele>1721.858398</ele>
        <time>2014-06-27T10:45:27Z</time>
      </trkpt>
      <trkpt lat="42.25537" lon="8.9069">
        <ele>1723.300537</ele>
        <time>2014-06-27T10:45:33Z</time>
      </trkpt>
      <trkpt lat="42.25542" lon="8.90695">
        <ele>1722.339111</ele>
        <time>2014-06-27T10:45:42Z</time>
      </trkpt>
      <trkpt lat="42.25559" lon="8.90707">
        <ele>1720.897217</ele>
        <time>2014-06-27T10:46:00Z</time>
      </trkpt>
      <trkpt lat="42.25567" lon="8.90714">
        <ele>1717.532471</ele>
        <time>2014-06-27T10:46:14Z</time>
      </trkpt>
      <trkpt lat="42.25576" lon="8.9072">
        <ele>1716.571289</ele>
        <time>2014-06-27T10:46:28Z</time>
      </trkpt>
      <trkpt lat="42.25581" lon="8.90727">
        <ele>1715.610107</ele>
        <time>2014-06-27T10:46:44Z</time>
      </trkpt>
      <trkpt lat="42.25582" lon="8.90728">
        <ele>1715.129395</ele>
        <time>2014-06-27T10:46:45Z</time>
      </trkpt>
      <trkpt lat="42.25591" lon="8.9074">
        <ele>1714.167969</ele>
        <time>2014-06-27T10:47:02Z</time>
      </trkpt>
      <trkpt lat="42.25592" lon="8.9073">
        <ele>1713.206787</ele>
        <time>2014-06-27T10:47:15Z</time>
      </trkpt>
      <trkpt lat="42.25589" lon="8.90716">
        <ele>1709.842041</ele>
        <time>2014-06-27T10:47:30Z</time>
      </trkpt>
      <trkpt lat="42.25585" lon="8.90703">
        <ele>1707.438721</ele>
        <time>2014-06-27T10:47:46Z</time>
      </trkpt>
      <trkpt lat="42.2558" lon="8.90691">
        <ele>1705.996582</ele>
        <time>2014-06-27T10:48:02Z</time>
      </trkpt>
      <trkpt lat="42.25572" lon="8.9068">
        <ele>1705.0354</ele>
        <time>2014-06-27T10:48:17Z</time>
      </trkpt>
      <trkpt lat="42.25571" lon="8.90675">
        <ele>1705.0354</ele>
        <time>2014-06-27T10:48:21Z</time>
      </trkpt>
      <trkpt lat="42.25562" lon="8.90658">
        <ele>1704.554688</ele>
        <time>2014-06-27T10:48:39Z</time>
      </trkpt>
      <trkpt lat="42.25558" lon="8.90643">
        <ele>1701.190186</ele>
        <time>2014-06-27T10:48:52Z</time>
      </trkpt>
      <trkpt lat="42.25558" lon="8.90642">
        <ele>1701.190186</ele>
        <time>2014-06-27T10:48:53Z</time>
      </trkpt>
      <trkpt lat="42.2556" lon="8.90626">
        <ele>1701.190186</ele>
        <time>2014-06-27T10:49:09Z</time>
      </trkpt>
      <trkpt lat="42.2556" lon="8.90608">
        <ele>1699.267578</ele>
        <time>2014-06-27T10:49:25Z</time>
      </trkpt>
      <trkpt lat="42.25563" lon="8.90601">
        <ele>1696.864258</ele>
        <time>2014-06-27T10:49:39Z</time>
      </trkpt>
      <trkpt lat="42.25568" lon="8.90591">
        <ele>1694.94165</ele>
        <time>2014-06-27T10:49:53Z</time>
      </trkpt>
      <trkpt lat="42.25574" lon="8.90595">
        <ele>1694.460938</ele>
        <time>2014-06-27T10:50:06Z</time>
      </trkpt>
      <trkpt lat="42.25578" lon="8.90603">
        <ele>1693.499756</ele>
        <time>2014-06-27T10:50:22Z</time>
      </trkpt>
      <trkpt lat="42.2558" lon="8.90621">
        <ele>1692.538574</ele>
        <time>2014-06-27T10:50:37Z</time>
      </trkpt>
      <trkpt lat="42.25584" lon="8.90619">
        <ele>1689.654297</ele>
        <time>2014-06-27T10:50:51Z</time>
      </trkpt>
      <trkpt lat="42.25587" lon="8.90613">
        <ele>1687.250977</ele>
        <time>2014-06-27T10:51:02Z</time>
      </trkpt>
      <trkpt lat="42.25591" lon="8.90609">
        <ele>1684.8479</ele>
        <time>2014-06-27T10:51:18Z</time>
      </trkpt>
      <trkpt lat="42.25593" lon="8.90602">
        <ele>1682.925049</ele>
        <time>2014-06-27T10:51:30Z</time>
      </trkpt>
      <trkpt lat="42.25597" lon="8.90587">
        <ele>1680.04126</ele>
        <time>2014-06-27T10:51:46Z</time>
      </trkpt>
      <trkpt lat="42.25598" lon="8.90573">
        <ele>1679.079834</ele>
        <time>2014-06-27T10:52:00Z</time>
      </trkpt>
      <trkpt lat="42.25597" lon="8.90558">
        <ele>1677.637939</ele>
        <time>2014-06-27T10:52:13Z</time>
      </trkpt>
      <trkpt lat="42.25595" lon="8.90534">
        <ele>1675.715088</ele>
        <time>2014-06-27T10:52:31Z</time>
      </trkpt>
      <trkpt lat="42.25594" lon="8.90517">
        <ele>1675.234375</ele>
        <time>2014-06-27T10:52:47Z</time>
      </trkpt>
      <trkpt lat="42.25599" lon="8.90502">
        <ele>1672.831299</ele>
        <time>2014-06-27T10:53:02Z</time>
      </trkpt>
      <trkpt lat="42.25605" lon="8.90487">
        <ele>1671.38916</ele>
        <time>2014-06-27T10:53:20Z</time>
      </trkpt>
      <trkpt lat="42.25608" lon="8.90469">
        <ele>1669.947266</ele>
        <time>2014-06-27T10:53:35Z</time>
      </trkpt>
      <trkpt lat="42.25612" lon="8.90448">
        <ele>1669.947266</ele>
        <time>2014-06-27T10:53:52Z</time>
      </trkpt>
      <trkpt lat="42.25615" lon="8.90432">
        <ele>1668.986084</ele>
        <time>2014-06-27T10:54:07Z</time>
      </trkpt>
      <trkpt lat="42.25614" lon="8.90426">
        <ele>1669.947266</ele>
        <time>2014-06-27T10:54:12Z</time>
      </trkpt>
      <trkpt lat="42.25615" lon="8.90417">
        <ele>1669.466797</ele>
        <time>2014-06-27T10:54:19Z</time>
      </trkpt>
      <trkpt lat="42.25623" lon="8.90404">
        <ele>1668.986084</ele>
        <time>2014-06-27T10:54:35Z</time>
      </trkpt>
      <trkpt lat="42.25631" lon="8.9039">
        <ele>1667.063477</ele>
        <time>2014-06-27T10:54:53Z</time>
      </trkpt>
      <trkpt lat="42.25633" lon="8.90388">
        <ele>1666.102051</ele>
        <time>2014-06-27T10:54:57Z</time>
      </trkpt>
      <trkpt lat="42.25639" lon="8.9038">
        <ele>1664.660156</ele>
        <time>2014-06-27T10:55:11Z</time>
      </trkpt>
      <trkpt lat="42.25646" lon="8.9037">
        <ele>1662.737549</ele>
        <time>2014-06-27T10:55:25Z</time>
      </trkpt>
      <trkpt lat="42.25652" lon="8.90361">
        <ele>1661.295654</ele>
        <time>2014-06-27T10:55:40Z</time>
      </trkpt>
      <trkpt lat="42.25656" lon="8.90358">
        <ele>1661.776367</ele>
        <time>2014-06-27T10:55:46Z</time>
      </trkpt>
      <trkpt lat="42.25658" lon="8.90357">
        <ele>1661.295654</ele>
        <time>2014-06-27T10:55:49Z</time>
      </trkpt>
      <trkpt lat="42.25666" lon="8.90346">
        <ele>1660.334229</ele>
        <time>2014-06-27T10:56:04Z</time>
      </trkpt>
      <trkpt lat="42.25672" lon="8.90341">
        <ele>1656.969482</ele>
        <time>2014-06-27T10:56:13Z</time>
      </trkpt>
      <trkpt lat="42.25685" lon="8.90328">
        <ele>1655.527588</ele>
        <time>2014-06-27T10:56:29Z</time>
      </trkpt>
      <trkpt lat="42.25705" lon="8.90315">
        <ele>1655.046875</ele>
        <time>2014-06-27T10:56:48Z</time>
      </trkpt>
      <trkpt lat="42.25715" lon="8.90293">
        <ele>1655.527588</ele>
        <time>2014-06-27T10:57:05Z</time>
      </trkpt>
      <trkpt lat="42.25723" lon="8.90288">
        <ele>1654.566162</ele>
        <time>2014-06-27T10:57:18Z</time>
      </trkpt>
      <trkpt lat="42.25735" lon="8.90278">
        <ele>1653.124268</ele>
        <time>2014-06-27T10:57:37Z</time>
      </trkpt>
      <trkpt lat="42.25743" lon="8.90269">
        <ele>1652.162842</ele>
        <time>2014-06-27T10:57:51Z</time>
      </trkpt>
      <trkpt lat="42.25752" lon="8.90258">
        <ele>1651.20166</ele>
        <time>2014-06-27T10:58:07Z</time>
      </trkpt>
      <trkpt lat="42.25761" lon="8.90251">
        <ele>1650.240479</ele>
        <time>2014-06-27T10:58:21Z</time>
      </trkpt>
      <trkpt lat="42.25768" lon="8.90247">
        <ele>1649.279053</ele>
        <time>2014-06-27T10:58:31Z</time>
      </trkpt>
      <trkpt lat="42.25786" lon="8.90238">
        <ele>1647.837158</ele>
        <time>2014-06-27T10:58:50Z</time>
      </trkpt>
      <trkpt lat="42.25797" lon="8.90231">
        <ele>1647.837158</ele>
        <time>2014-06-27T10:59:06Z</time>
      </trkpt>
      <trkpt lat="42.25809" lon="8.90215">
        <ele>1646.395264</ele>
        <time>2014-06-27T10:59:22Z</time>
      </trkpt>
      <trkpt lat="42.25809" lon="8.90205">
        <ele>1644.953125</ele>
        <time>2014-06-27T10:59:31Z</time>
      </trkpt>
      <trkpt lat="42.25809" lon="8.90199">
        <ele>1643.991699</ele>
        <time>2014-06-27T10:59:36Z</time>
      </trkpt>
      <trkpt lat="42.25813" lon="8.90179">
        <ele>1641.588379</ele>
        <time>2014-06-27T10:59:52Z</time>
      </trkpt>
      <trkpt lat="42.25817" lon="8.90166">
        <ele>1641.588379</ele>
        <time>2014-06-27T11:00:06Z</time>
      </trkpt>
      <trkpt lat="42.2582" lon="8.90147">
        <ele>1639.665771</ele>
        <time>2014-06-27T11:00:23Z</time>
      </trkpt>
      <trkpt lat="42.25823" lon="8.90132">
        <ele>1638.70459</ele>
        <time>2014-06-27T11:00:38Z</time>
      </trkpt>
      <trkpt lat="42.25827" lon="8.90118">
        <ele>1634.859375</ele>
        <time>2014-06-27T11:00:51Z</time>
      </trkpt>
      <trkpt lat="42.25828" lon="8.90113">
        <ele>1633.897949</ele>
        <time>2014-06-27T11:00:55Z</time>
      </trkpt>
      <trkpt lat="42.25836" lon="8.90094">
        <ele>1631.494629</ele>
        <time>2014-06-27T11:01:12Z</time>
      </trkpt>
      <trkpt lat="42.25838" lon="8.90089">
        <ele>1631.494629</ele>
        <time>2014-06-27T11:01:16Z</time>
      </trkpt>
      <trkpt lat="42.25841" lon="8.9008">
        <ele>1630.533447</ele>
        <time>2014-06-27T11:01:24Z</time>
      </trkpt>
      <trkpt lat="42.25844" lon="8.90071">
        <ele>1630.533447</ele>
        <time>2014-06-27T11:01:31Z</time>
      </trkpt>
      <trkpt lat="42.25851" lon="8.90051">
        <ele>1627.64917</ele>
        <time>2014-06-27T11:01:46Z</time>
      </trkpt>
      <trkpt lat="42.25856" lon="8.90029">
        <ele>1625.726563</ele>
        <time>2014-06-27T11:02:04Z</time>
      </trkpt>
      <trkpt lat="42.25863" lon="8.90013">
        <ele>1624.284668</ele>
        <time>2014-06-27T11:02:20Z</time>
      </trkpt>
      <trkpt lat="42.25866" lon="8.90001">
        <ele>1622.362061</ele>
        <time>2014-06-27T11:02:34Z</time>
      </trkpt>
      <trkpt lat="42.25873" lon="8.89984">
        <ele>1619.95874</ele>
        <time>2014-06-27T11:02:50Z</time>
      </trkpt>
      <trkpt lat="42.25881" lon="8.89967">
        <ele>1618.036133</ele>
        <time>2014-06-27T11:03:06Z</time>
      </trkpt>
      <trkpt lat="42.25884" lon="8.89947">
        <ele>1615.633057</ele>
        <time>2014-06-27T11:03:23Z</time>
      </trkpt>
      <trkpt lat="42.25885" lon="8.89945">
        <ele>1614.671631</ele>
        <time>2014-06-27T11:03:26Z</time>
      </trkpt>
      <trkpt lat="42.2589" lon="8.89943">
        <ele>1613.229736</ele>
        <time>2014-06-27T11:03:30Z</time>
      </trkpt>
      <trkpt lat="42.25899" lon="8.89934">
        <ele>1611.787598</ele>
        <time>2014-06-27T11:03:43Z</time>
      </trkpt>
      <trkpt lat="42.25901" lon="8.89933">
        <ele>1611.306885</ele>
        <time>2014-06-27T11:03:45Z</time>
      </trkpt>
      <trkpt lat="42.25911" lon="8.8991">
        <ele>1608.422852</ele>
        <time>2014-06-27T11:04:04Z</time>
      </trkpt>
      <trkpt lat="42.2592" lon="8.89888">
        <ele>1606.019531</ele>
        <time>2014-06-27T11:04:21Z</time>
      </trkpt>
      <trkpt lat="42.25923" lon="8.89877">
        <ele>1606.980957</ele>
        <time>2014-06-27T11:04:29Z</time>
      </trkpt>
      <trkpt lat="42.25928" lon="8.89865">
        <ele>1605.05835</ele>
        <time>2014-06-27T11:04:42Z</time>
      </trkpt>
      <trkpt lat="42.25928" lon="8.89858">
        <ele>1605.539063</ele>
        <time>2014-06-27T11:05:01Z</time>
      </trkpt>
      <trkpt lat="42.25933" lon="8.89846">
        <ele>1603.616455</ele>
        <time>2014-06-27T11:05:15Z</time>
      </trkpt>
      <trkpt lat="42.25933" lon="8.89843">
        <ele>1603.616455</ele>
        <time>2014-06-27T11:05:18Z</time>
      </trkpt>
      <trkpt lat="42.25931" lon="8.89838">
        <ele>1603.616455</ele>
        <time>2014-06-27T11:05:22Z</time>
      </trkpt>
      <trkpt lat="42.25931" lon="8.89821">
        <ele>1601.213135</ele>
        <time>2014-06-27T11:05:38Z</time>
      </trkpt>
      <trkpt lat="42.25935" lon="8.89816">
        <ele>1599.77124</ele>
        <time>2014-06-27T11:05:45Z</time>
      </trkpt>
      <trkpt lat="42.25945" lon="8.89811">
        <ele>1598.809814</ele>
        <time>2014-06-27T11:06:00Z</time>
      </trkpt>
      <trkpt lat="42.25949" lon="8.89809">
        <ele>1597.848633</ele>
        <time>2014-06-27T11:06:05Z</time>
      </trkpt>
      <trkpt lat="42.25952" lon="8.89804">
        <ele>1597.36792</ele>
        <time>2014-06-27T11:06:12Z</time>
      </trkpt>
      <trkpt lat="42.25955" lon="8.89802">
        <ele>1597.36792</ele>
        <time>2014-06-27T11:06:15Z</time>
      </trkpt>
      <trkpt lat="42.25964" lon="8.89784">
        <ele>1593.041748</ele>
        <time>2014-06-27T11:06:32Z</time>
      </trkpt>
      <trkpt lat="42.25965" lon="8.89783">
        <ele>1593.522461</ele>
        <time>2014-06-27T11:06:33Z</time>
      </trkpt>
      <trkpt lat="42.25967" lon="8.89777">
        <ele>1592.561279</ele>
        <time>2014-06-27T11:06:39Z</time>
      </trkpt>
      <trkpt lat="42.25973" lon="8.89766">
        <ele>1592.080566</ele>
        <time>2014-06-27T11:06:52Z</time>
      </trkpt>
      <trkpt lat="42.2598" lon="8.89756">
        <ele>1589.196533</ele>
        <time>2014-06-27T11:07:06Z</time>
      </trkpt>
      <trkpt lat="42.25982" lon="8.89755">
        <ele>1588.716064</ele>
        <time>2014-06-27T11:07:24Z</time>
      </trkpt>
      <trkpt lat="42.25989" lon="8.89749">
        <ele>1586.793213</ele>
        <time>2014-06-27T11:07:32Z</time>
      </trkpt>
      <trkpt lat="42.25999" lon="8.89728">
        <ele>1581.506104</ele>
        <time>2014-06-27T11:07:51Z</time>
      </trkpt>
      <trkpt lat="42.25999" lon="8.89727">
        <ele>1582.467529</ele>
        <time>2014-06-27T11:07:52Z</time>
      </trkpt>
      <trkpt lat="42.26001" lon="8.89724">
        <ele>1583.909424</ele>
        <time>2014-06-27T11:07:55Z</time>
      </trkpt>
      <trkpt lat="42.26003" lon="8.8972">
        <ele>1580.064209</ele>
        <time>2014-06-27T11:08:00Z</time>
      </trkpt>
      <trkpt lat="42.26004" lon="8.89719">
        <ele>1580.064209</ele>
        <time>2014-06-27T11:08:01Z</time>
      </trkpt>
      <trkpt lat="42.26009" lon="8.8971">
        <ele>1579.583252</ele>
        <time>2014-06-27T11:08:12Z</time>
      </trkpt>
      <trkpt lat="42.26013" lon="8.89698">
        <ele>1576.699463</ele>
        <time>2014-06-27T11:08:28Z</time>
      </trkpt>
      <trkpt lat="42.26014" lon="8.89696">
        <ele>1576.699463</ele>
        <time>2014-06-27T11:08:30Z</time>
      </trkpt>
      <trkpt lat="42.26016" lon="8.89696">
        <ele>1577.180176</ele>
        <time>2014-06-27T11:08:32Z</time>
      </trkpt>
      <trkpt lat="42.26019" lon="8.89691">
        <ele>1574.776855</ele>
        <time>2014-06-27T11:08:39Z</time>
      </trkpt>
      <trkpt lat="42.26022" lon="8.89686">
        <ele>1574.296143</ele>
        <time>2014-06-27T11:08:44Z</time>
      </trkpt>
      <trkpt lat="42.26028" lon="8.89669">
        <ele>1571.892822</ele>
        <time>2014-06-27T11:09:01Z</time>
      </trkpt>
      <trkpt lat="42.26029" lon="8.89656">
        <ele>1572.373535</ele>
        <time>2014-06-27T11:09:15Z</time>
      </trkpt>
      <trkpt lat="42.26036" lon="8.89646">
        <ele>1570.931641</ele>
        <time>2014-06-27T11:09:30Z</time>
      </trkpt>
      <trkpt lat="42.26037" lon="8.89645">
        <ele>1569.009033</ele>
        <time>2014-06-27T11:09:33Z</time>
      </trkpt>
      <trkpt lat="42.26042" lon="8.89633">
        <ele>1567.086426</ele>
        <time>2014-06-27T11:09:48Z</time>
      </trkpt>
      <trkpt lat="42.26049" lon="8.89628">
        <ele>1564.683105</ele>
        <time>2014-06-27T11:10:01Z</time>
      </trkpt>
      <trkpt lat="42.26049" lon="8.89626">
        <ele>1563.721436</ele>
        <time>2014-06-27T11:10:03Z</time>
      </trkpt>
      <trkpt lat="42.26054" lon="8.89612">
        <ele>1562.760254</ele>
        <time>2014-06-27T11:10:19Z</time>
      </trkpt>
      <trkpt lat="42.26055" lon="8.89608">
        <ele>1560.837646</ele>
        <time>2014-06-27T11:10:22Z</time>
      </trkpt>
      <trkpt lat="42.26064" lon="8.89599">
        <ele>1560.837646</ele>
        <time>2014-06-27T11:10:36Z</time>
      </trkpt>
      <trkpt lat="42.26065" lon="8.89598">
        <ele>1557.473145</ele>
        <time>2014-06-27T11:10:39Z</time>
      </trkpt>
      <trkpt lat="42.26066" lon="8.89597">
        <ele>1558.434326</ele>
        <time>2014-06-27T11:10:40Z</time>
      </trkpt>
      <trkpt lat="42.26069" lon="8.89595">
        <ele>1557.473145</ele>
        <time>2014-06-27T11:10:44Z</time>
      </trkpt>
      <trkpt lat="42.26079" lon="8.89586">
        <ele>1554.589111</ele>
        <time>2014-06-27T11:10:58Z</time>
      </trkpt>
      <trkpt lat="42.26082" lon="8.89583">
        <ele>1552.666504</ele>
        <time>2014-06-27T11:11:03Z</time>
      </trkpt>
      <trkpt lat="42.26084" lon="8.89581">
        <ele>1554.589111</ele>
        <time>2014-06-27T11:11:07Z</time>
      </trkpt>
      <trkpt lat="42.26086" lon="8.89581">
        <ele>1553.147217</ele>
        <time>2014-06-27T11:11:09Z</time>
      </trkpt>
      <trkpt lat="42.26091" lon="8.89581">
        <ele>1549.302002</ele>
        <time>2014-06-27T11:11:17Z</time>
      </trkpt>
      <trkpt lat="42.26095" lon="8.89577">
        <ele>1548.340576</ele>
        <time>2014-06-27T11:11:27Z</time>
      </trkpt>
      <trkpt lat="42.26096" lon="8.89576">
        <ele>1544.97583</ele>
        <time>2014-06-27T11:11:30Z</time>
      </trkpt>
      <trkpt lat="42.26096" lon="8.89575">
        <ele>1546.417969</ele>
        <time>2014-06-27T11:11:31Z</time>
      </trkpt>
      <trkpt lat="42.26098" lon="8.89571">
        <ele>1544.97583</ele>
        <time>2014-06-27T11:11:41Z</time>
      </trkpt>
      <trkpt lat="42.26102" lon="8.89568">
        <ele>1543.053223</ele>
        <time>2014-06-27T11:11:53Z</time>
      </trkpt>
      <trkpt lat="42.26108" lon="8.89563">
        <ele>1541.611328</ele>
        <time>2014-06-27T11:12:06Z</time>
      </trkpt>
      <trkpt lat="42.26115" lon="8.89566">
        <ele>1537.766113</ele>
        <time>2014-06-27T11:12:16Z</time>
      </trkpt>
      <trkpt lat="42.26115" lon="8.89565">
        <ele>1537.766113</ele>
        <time>2014-06-27T11:12:17Z</time>
      </trkpt>
      <trkpt lat="42.26116" lon="8.89562">
        <ele>1539.208008</ele>
        <time>2014-06-27T11:12:20Z</time>
      </trkpt>
      <trkpt lat="42.26117" lon="8.89559">
        <ele>1537.766113</ele>
        <time>2014-06-27T11:12:23Z</time>
      </trkpt>
      <trkpt lat="42.26121" lon="8.89559">
        <ele>1536.324219</ele>
        <time>2014-06-27T11:12:30Z</time>
      </trkpt>
      <trkpt lat="42.26123" lon="8.89556">
        <ele>1533.920898</ele>
        <time>2014-06-27T11:12:34Z</time>
      </trkpt>
      <trkpt lat="42.26129" lon="8.89552">
        <ele>1532.479004</ele>
        <time>2014-06-27T11:12:51Z</time>
      </trkpt>
      <trkpt lat="42.26132" lon="8.89549">
        <ele>1530.556152</ele>
        <time>2014-06-27T11:13:16Z</time>
      </trkpt>
      <trkpt lat="42.2614" lon="8.89543">
        <ele>1528.633545</ele>
        <time>2014-06-27T11:13:32Z</time>
      </trkpt>
      <trkpt lat="42.26146" lon="8.89539">
        <ele>1524.78833</ele>
        <time>2014-06-27T11:13:41Z</time>
      </trkpt>
      <trkpt lat="42.26154" lon="8.89529">
        <ele>1521.904297</ele>
        <time>2014-06-27T11:13:57Z</time>
      </trkpt>
      <trkpt lat="42.26159" lon="8.89525">
        <ele>1523.826904</ele>
        <time>2014-06-27T11:14:04Z</time>
      </trkpt>
      <trkpt lat="42.26162" lon="8.89523">
        <ele>1521.423584</ele>
        <time>2014-06-27T11:14:08Z</time>
      </trkpt>
      <trkpt lat="42.26173" lon="8.89516">
        <ele>1518.059082</ele>
        <time>2014-06-27T11:14:23Z</time>
      </trkpt>
      <trkpt lat="42.26185" lon="8.89508">
        <ele>1516.136475</ele>
        <time>2014-06-27T11:14:40Z</time>
      </trkpt>
      <trkpt lat="42.26186" lon="8.89509">
        <ele>1516.136475</ele>
        <time>2014-06-27T11:14:41Z</time>
      </trkpt>
      <trkpt lat="42.26195" lon="8.89511">
        <ele>1513.252441</ele>
        <time>2014-06-27T11:14:54Z</time>
      </trkpt>
      <trkpt lat="42.26202" lon="8.89505">
        <ele>1511.810547</ele>
        <time>2014-06-27T11:15:08Z</time>
      </trkpt>
      <trkpt lat="42.26211" lon="8.89493">
        <ele>1507.965332</ele>
        <time>2014-06-27T11:15:25Z</time>
      </trkpt>
      <trkpt lat="42.26214" lon="8.89491">
        <ele>1507.484619</ele>
        <time>2014-06-27T11:15:30Z</time>
      </trkpt>
      <trkpt lat="42.26221" lon="8.89482">
        <ele>1505.081299</ele>
        <time>2014-06-27T11:15:45Z</time>
      </trkpt>
      <trkpt lat="42.26224" lon="8.8947">
        <ele>1502.677979</ele>
        <time>2014-06-27T11:16:01Z</time>
      </trkpt>
      <trkpt lat="42.26234" lon="8.8946">
        <ele>1501.236084</ele>
        <time>2014-06-27T11:16:18Z</time>
      </trkpt>
      <trkpt lat="42.26244" lon="8.89453">
        <ele>1497.390625</ele>
        <time>2014-06-27T11:16:29Z</time>
      </trkpt>
      <trkpt lat="42.26246" lon="8.89451">
        <ele>1498.351807</ele>
        <time>2014-06-27T11:16:35Z</time>
      </trkpt>
      <trkpt lat="42.26248" lon="8.89451">
        <ele>1497.390625</ele>
        <time>2014-06-27T11:16:37Z</time>
      </trkpt>
      <trkpt lat="42.26264" lon="8.89442">
        <ele>1495.468018</ele>
        <time>2014-06-27T11:16:54Z</time>
      </trkpt>
      <trkpt lat="42.2627" lon="8.89438">
        <ele>1494.506592</ele>
        <time>2014-06-27T11:17:00Z</time>
      </trkpt>
      <trkpt lat="42.26275" lon="8.8943">
        <ele>1493.54541</ele>
        <time>2014-06-27T11:17:07Z</time>
      </trkpt>
      <trkpt lat="42.26278" lon="8.89414">
        <ele>1490.661377</ele>
        <time>2014-06-27T11:17:22Z</time>
      </trkpt>
      <trkpt lat="42.26279" lon="8.89413">
        <ele>1490.661377</ele>
        <time>2014-06-27T11:17:23Z</time>
      </trkpt>
      <trkpt lat="42.26282" lon="8.89405">
        <ele>1490.180908</ele>
        <time>2014-06-27T11:17:31Z</time>
      </trkpt>
      <trkpt lat="42.26284" lon="8.89402">
        <ele>1487.296875</ele>
        <time>2014-06-27T11:17:34Z</time>
      </trkpt>
      <trkpt lat="42.26284" lon="8.89395">
        <ele>1489.700195</ele>
        <time>2014-06-27T11:17:47Z</time>
      </trkpt>
      <trkpt lat="42.26278" lon="8.89387">
        <ele>1491.14209</ele>
        <time>2014-06-27T11:18:01Z</time>
      </trkpt>
      <trkpt lat="42.26282" lon="8.89389">
        <ele>1487.777588</ele>
        <time>2014-06-27T11:18:14Z</time>
      </trkpt>
      <trkpt lat="42.26283" lon="8.89389">
        <ele>1489.219482</ele>
        <time>2014-06-27T11:18:15Z</time>
      </trkpt>
      <trkpt lat="42.26287" lon="8.8939">
        <ele>1484.893799</ele>
        <time>2014-06-27T11:18:21Z</time>
      </trkpt>
      <trkpt lat="42.26287" lon="8.89388">
        <ele>1484.893799</ele>
        <time>2014-06-27T11:18:22Z</time>
      </trkpt>
      <trkpt lat="42.26287" lon="8.89384">
        <ele>1484.413086</ele>
        <time>2014-06-27T11:18:26Z</time>
      </trkpt>
      <trkpt lat="42.26289" lon="8.89381">
        <ele>1482.970703</ele>
        <time>2014-06-27T11:18:30Z</time>
      </trkpt>
      <trkpt lat="42.26289" lon="8.89376">
        <ele>1481.04834</ele>
        <time>2014-06-27T11:18:35Z</time>
      </trkpt>
      <trkpt lat="42.26291" lon="8.89367">
        <ele>1478.164307</ele>
        <time>2014-06-27T11:18:42Z</time>
      </trkpt>
      <trkpt lat="42.26296" lon="8.89362">
        <ele>1476.722412</ele>
        <time>2014-06-27T11:18:49Z</time>
      </trkpt>
      <trkpt lat="42.26299" lon="8.89357">
        <ele>1476.722412</ele>
        <time>2014-06-27T11:18:54Z</time>
      </trkpt>
      <trkpt lat="42.26302" lon="8.89354">
        <ele>1474.799805</ele>
        <time>2014-06-27T11:18:58Z</time>
      </trkpt>
      <trkpt lat="42.26302" lon="8.8935">
        <ele>1473.35791</ele>
        <time>2014-06-27T11:19:01Z</time>
      </trkpt>
      <trkpt lat="42.26305" lon="8.89346">
        <ele>1472.396484</ele>
        <time>2014-06-27T11:19:06Z</time>
      </trkpt>
      <trkpt lat="42.26312" lon="8.89337">
        <ele>1469.993164</ele>
        <time>2014-06-27T11:19:19Z</time>
      </trkpt>
      <trkpt lat="42.26312" lon="8.89336">
        <ele>1469.512695</ele>
        <time>2014-06-27T11:19:20Z</time>
      </trkpt>
      <trkpt lat="42.26319" lon="8.89326">
        <ele>1468.55127</ele>
        <time>2014-06-27T11:19:34Z</time>
      </trkpt>
      <trkpt lat="42.26322" lon="8.89317">
        <ele>1467.109131</ele>
        <time>2014-06-27T11:19:42Z</time>
      </trkpt>
      <trkpt lat="42.26326" lon="8.89304">
        <ele>1466.147705</ele>
        <time>2014-06-27T11:19:52Z</time>
      </trkpt>
      <trkpt lat="42.26336" lon="8.89299">
        <ele>1466.628418</ele>
        <time>2014-06-27T11:20:09Z</time>
      </trkpt>
      <trkpt lat="42.26337" lon="8.89305">
        <ele>1467.109131</ele>
        <time>2014-06-27T11:20:26Z</time>
      </trkpt>
      <trkpt lat="42.26338" lon="8.89311">
        <ele>1466.628418</ele>
        <time>2014-06-27T11:20:31Z</time>
      </trkpt>
      <trkpt lat="42.26338" lon="8.89316">
        <ele>1465.667236</ele>
        <time>2014-06-27T11:20:35Z</time>
      </trkpt>
      <trkpt lat="42.26342" lon="8.89318">
        <ele>1460.860596</ele>
        <time>2014-06-27T11:20:42Z</time>
      </trkpt>
      <trkpt lat="42.26343" lon="8.89318">
        <ele>1464.225098</ele>
        <time>2014-06-27T11:20:44Z</time>
      </trkpt>
      <trkpt lat="42.26344" lon="8.8932">
        <ele>1462.30249</ele>
        <time>2014-06-27T11:20:47Z</time>
      </trkpt>
      <trkpt lat="42.2635" lon="8.89322">
        <ele>1458.937988</ele>
        <time>2014-06-27T11:20:56Z</time>
      </trkpt>
      <trkpt lat="42.26351" lon="8.89323">
        <ele>1457.496094</ele>
        <time>2014-06-27T11:21:00Z</time>
      </trkpt>
      <trkpt lat="42.26357" lon="8.8932">
        <ele>1456.053955</ele>
        <time>2014-06-27T11:21:14Z</time>
      </trkpt>
      <trkpt lat="42.26363" lon="8.89317">
        <ele>1454.131592</ele>
        <time>2014-06-27T11:21:28Z</time>
      </trkpt>
      <trkpt lat="42.26366" lon="8.89307">
        <ele>1452.689453</ele>
        <time>2014-06-27T11:21:42Z</time>
      </trkpt>
      <trkpt lat="42.26366" lon="8.893">
        <ele>1452.20874</ele>
        <time>2014-06-27T11:21:52Z</time>
      </trkpt>
      <trkpt lat="42.26372" lon="8.89291">
        <ele>1449.80542</ele>
        <time>2014-06-27T11:22:05Z</time>
      </trkpt>
      <trkpt lat="42.26376" lon="8.89286">
        <ele>1448.363281</ele>
        <time>2014-06-27T11:22:23Z</time>
      </trkpt>
      <trkpt lat="42.26381" lon="8.89273">
        <ele>1449.324707</ele>
        <time>2014-06-27T11:22:38Z</time>
      </trkpt>
      <trkpt lat="42.26383" lon="8.89271">
        <ele>1447.882813</ele>
        <time>2014-06-27T11:22:40Z</time>
      </trkpt>
      <trkpt lat="42.26393" lon="8.89259">
        <ele>1444.998779</ele>
        <time>2014-06-27T11:22:55Z</time>
      </trkpt>
      <trkpt lat="42.26406" lon="8.89254">
        <ele>1443.076172</ele>
        <time>2014-06-27T11:23:13Z</time>
      </trkpt>
      <trkpt lat="42.26408" lon="8.89255">
        <ele>1442.595703</ele>
        <time>2014-06-27T11:23:16Z</time>
      </trkpt>
      <trkpt lat="42.26419" lon="8.89254">
        <ele>1441.153564</ele>
        <time>2014-06-27T11:23:26Z</time>
      </trkpt>
      <trkpt lat="42.26433" lon="8.89254">
        <ele>1439.71167</ele>
        <time>2014-06-27T11:23:43Z</time>
      </trkpt>
      <trkpt lat="42.26445" lon="8.89257">
        <ele>1436.827637</ele>
        <time>2014-06-27T11:23:59Z</time>
      </trkpt>
      <trkpt lat="42.26457" lon="8.8926">
        <ele>1434.905029</ele>
        <time>2014-06-27T11:24:15Z</time>
      </trkpt>
      <trkpt lat="42.2646" lon="8.89261">
        <ele>1434.905029</ele>
        <time>2014-06-27T11:24:35Z</time>
      </trkpt>
      <trkpt lat="42.26463" lon="8.89262">
        <ele>1435.866211</ele>
        <time>2014-06-27T11:24:57Z</time>
      </trkpt>
      <trkpt lat="42.26478" lon="8.8926">
        <ele>1432.020996</ele>
        <time>2014-06-27T11:25:12Z</time>
      </trkpt>
      <trkpt lat="42.26482" lon="8.8926">
        <ele>1431.059814</ele>
        <time>2014-06-27T11:25:18Z</time>
      </trkpt>
      <trkpt lat="42.26482" lon="8.89265">
        <ele>1429.136963</ele>
        <time>2014-06-27T11:25:30Z</time>
      </trkpt>
      <trkpt lat="42.26474" lon="8.89277">
        <ele>1426.733887</ele>
        <time>2014-06-27T11:25:47Z</time>
      </trkpt>
      <trkpt lat="42.2647" lon="8.89283">
        <ele>1425.291748</ele>
        <time>2014-06-27T11:25:55Z</time>
      </trkpt>
      <trkpt lat="42.26457" lon="8.89286">
        <ele>1425.291748</ele>
        <time>2014-06-27T11:26:10Z</time>
      </trkpt>
      <trkpt lat="42.26444" lon="8.8929">
        <ele>1423.849854</ele>
        <time>2014-06-27T11:26:25Z</time>
      </trkpt>
      <trkpt lat="42.26431" lon="8.89296">
        <ele>1423.369385</ele>
        <time>2014-06-27T11:26:38Z</time>
      </trkpt>
      <trkpt lat="42.26429" lon="8.89309">
        <ele>1419.523926</ele>
        <time>2014-06-27T11:26:54Z</time>
      </trkpt>
      <trkpt lat="42.26429" lon="8.89323">
        <ele>1418.5625</ele>
        <time>2014-06-27T11:27:08Z</time>
      </trkpt>
      <trkpt lat="42.26427" lon="8.89337">
        <ele>1416.15918</ele>
        <time>2014-06-27T11:27:20Z</time>
      </trkpt>
      <trkpt lat="42.26431" lon="8.89353">
        <ele>1415.197998</ele>
        <time>2014-06-27T11:27:35Z</time>
      </trkpt>
      <trkpt lat="42.26431" lon="8.89365">
        <ele>1411.833496</ele>
        <time>2014-06-27T11:27:45Z</time>
      </trkpt>
      <trkpt lat="42.26434" lon="8.89379">
        <ele>1411.352783</ele>
        <time>2014-06-27T11:27:54Z</time>
      </trkpt>
      <trkpt lat="42.26436" lon="8.89385">
        <ele>1410.87207</ele>
        <time>2014-06-27T11:27:59Z</time>
      </trkpt>
      <trkpt lat="42.26439" lon="8.89392">
        <ele>1409.910645</ele>
        <time>2014-06-27T11:28:05Z</time>
      </trkpt>
      <trkpt lat="42.26443" lon="8.89396">
        <ele>1407.507568</ele>
        <time>2014-06-27T11:28:11Z</time>
      </trkpt>
      <trkpt lat="42.26449" lon="8.89409">
        <ele>1406.06543</ele>
        <time>2014-06-27T11:28:21Z</time>
      </trkpt>
      <trkpt lat="42.26453" lon="8.8943">
        <ele>1403.662109</ele>
        <time>2014-06-27T11:28:38Z</time>
      </trkpt>
      <trkpt lat="42.26452" lon="8.89449">
        <ele>1403.181396</ele>
        <time>2014-06-27T11:28:53Z</time>
      </trkpt>
      <trkpt lat="42.26457" lon="8.89461">
        <ele>1401.258789</ele>
        <time>2014-06-27T11:29:06Z</time>
      </trkpt>
      <trkpt lat="42.2646" lon="8.89464">
        <ele>1401.258789</ele>
        <time>2014-06-27T11:29:10Z</time>
      </trkpt>
      <trkpt lat="42.26463" lon="8.89468">
        <ele>1401.258789</ele>
        <time>2014-06-27T11:29:14Z</time>
      </trkpt>
      <trkpt lat="42.26467" lon="8.89483">
        <ele>1399.816895</ele>
        <time>2014-06-27T11:29:27Z</time>
      </trkpt>
      <trkpt lat="42.26468" lon="8.89487">
        <ele>1399.816895</ele>
        <time>2014-06-27T11:29:30Z</time>
      </trkpt>
      <trkpt lat="42.26476" lon="8.89501">
        <ele>1397.413574</ele>
        <time>2014-06-27T11:29:44Z</time>
      </trkpt>
      <trkpt lat="42.2648" lon="8.89509">
        <ele>1396.452393</ele>
        <time>2014-06-27T11:29:56Z</time>
      </trkpt>
      <trkpt lat="42.2648" lon="8.89516">
        <ele>1394.049072</ele>
        <time>2014-06-27T11:30:14Z</time>
      </trkpt>
      <trkpt lat="42.26483" lon="8.89521">
        <ele>1392.607178</ele>
        <time>2014-06-27T11:30:27Z</time>
      </trkpt>
      <trkpt lat="42.26491" lon="8.89529">
        <ele>1391.165039</ele>
        <time>2014-06-27T11:30:40Z</time>
      </trkpt>
      <trkpt lat="42.26493" lon="8.89533">
        <ele>1391.645752</ele>
        <time>2014-06-27T11:30:44Z</time>
      </trkpt>
      <trkpt lat="42.2649" lon="8.89556">
        <ele>1390.203857</ele>
        <time>2014-06-27T11:31:03Z</time>
      </trkpt>
      <trkpt lat="42.2649" lon="8.89561">
        <ele>1389.723145</ele>
        <time>2014-06-27T11:31:15Z</time>
      </trkpt>
      <trkpt lat="42.26492" lon="8.89559">
        <ele>1387.800293</ele>
        <time>2014-06-27T11:31:22Z</time>
      </trkpt>
      <trkpt lat="42.26499" lon="8.89558">
        <ele>1386.358398</ele>
        <time>2014-06-27T11:31:34Z</time>
      </trkpt>
      <trkpt lat="42.265" lon="8.89565">
        <ele>1383.474365</ele>
        <time>2014-06-27T11:31:46Z</time>
      </trkpt>
      <trkpt lat="42.26503" lon="8.89575">
        <ele>1382.513184</ele>
        <time>2014-06-27T11:32:00Z</time>
      </trkpt>
      <trkpt lat="42.26507" lon="8.8957">
        <ele>1381.071289</ele>
        <time>2014-06-27T11:32:11Z</time>
      </trkpt>
      <trkpt lat="42.26512" lon="8.89575">
        <ele>1378.667969</ele>
        <time>2014-06-27T11:32:22Z</time>
      </trkpt>
      <trkpt lat="42.26515" lon="8.89582">
        <ele>1377.226074</ele>
        <time>2014-06-27T11:32:34Z</time>
      </trkpt>
      <trkpt lat="42.26518" lon="8.89583">
        <ele>1375.783936</ele>
        <time>2014-06-27T11:32:44Z</time>
      </trkpt>
      <trkpt lat="42.26523" lon="8.89579">
        <ele>1373.380859</ele>
        <time>2014-06-27T11:32:56Z</time>
      </trkpt>
      <trkpt lat="42.26523" lon="8.89577">
        <ele>1372.900146</ele>
        <time>2014-06-27T11:33:08Z</time>
      </trkpt>
      <trkpt lat="42.26527" lon="8.8958">
        <ele>1373.380859</ele>
        <time>2014-06-27T11:33:37Z</time>
      </trkpt>
      <trkpt lat="42.26524" lon="8.89584">
        <ele>1372.900146</ele>
        <time>2014-06-27T11:33:53Z</time>
      </trkpt>
      <trkpt lat="42.26524" lon="8.89592">
        <ele>1370.977295</ele>
        <time>2014-06-27T11:34:04Z</time>
      </trkpt>
      <trkpt lat="42.26527" lon="8.89597">
        <ele>1369.054688</ele>
        <time>2014-06-27T11:34:19Z</time>
      </trkpt>
      <trkpt lat="42.26526" lon="8.89604">
        <ele>1370.496582</ele>
        <time>2014-06-27T11:34:35Z</time>
      </trkpt>
      <trkpt lat="42.26528" lon="8.89612">
        <ele>1367.13208</ele>
        <time>2014-06-27T11:34:48Z</time>
      </trkpt>
      <trkpt lat="42.26536" lon="8.89608">
        <ele>1364.72876</ele>
        <time>2014-06-27T11:35:02Z</time>
      </trkpt>
      <trkpt lat="42.2654" lon="8.89613">
        <ele>1361.364258</ele>
        <time>2014-06-27T11:35:14Z</time>
      </trkpt>
      <trkpt lat="42.26539" lon="8.89627">
        <ele>1359.922119</ele>
        <time>2014-06-27T11:35:28Z</time>
      </trkpt>
      <trkpt lat="42.26543" lon="8.89634">
        <ele>1357.519043</ele>
        <time>2014-06-27T11:35:39Z</time>
      </trkpt>
      <trkpt lat="42.26547" lon="8.89633">
        <ele>1357.999756</ele>
        <time>2014-06-27T11:35:48Z</time>
      </trkpt>
      <trkpt lat="42.26547" lon="8.89632">
        <ele>1359.44165</ele>
        <time>2014-06-27T11:35:52Z</time>
      </trkpt>
      <trkpt lat="42.26548" lon="8.89632">
        <ele>1355.596191</ele>
        <time>2014-06-27T11:35:57Z</time>
      </trkpt>
      <trkpt lat="42.26548" lon="8.89632">
        <ele>1355.596191</ele>
        <time>2014-06-27T11:35:58Z</time>
      </trkpt>
      <trkpt lat="42.26557" lon="8.89635">
        <ele>1355.596191</ele>
        <time>2014-06-27T11:36:46Z</time>
      </trkpt>
      <trkpt lat="42.26553" lon="8.89635">
        <ele>1357.999756</ele>
        <time>2014-06-27T11:37:13Z</time>
      </trkpt>
      <trkpt lat="42.26552" lon="8.89633">
        <ele>1357.03833</ele>
        <time>2014-06-27T11:37:31Z</time>
      </trkpt>
      <trkpt lat="42.26552" lon="8.89637">
        <ele>1358.480225</ele>
        <time>2014-06-27T11:37:52Z</time>
      </trkpt>
      <trkpt lat="42.26553" lon="8.89638">
        <ele>1357.03833</ele>
        <time>2014-06-27T11:38:31Z</time>
      </trkpt>
      <trkpt lat="42.2656" lon="8.89643">
        <ele>1354.154297</ele>
        <time>2014-06-27T11:38:43Z</time>
      </trkpt>
      <trkpt lat="42.26568" lon="8.89652">
        <ele>1350.789551</ele>
        <time>2014-06-27T11:38:57Z</time>
      </trkpt>
      <trkpt lat="42.26572" lon="8.89664">
        <ele>1348.866943</ele>
        <time>2014-06-27T11:39:12Z</time>
      </trkpt>
      <trkpt lat="42.2658" lon="8.89667">
        <ele>1347.905762</ele>
        <time>2014-06-27T11:39:27Z</time>
      </trkpt>
      <trkpt lat="42.26585" lon="8.89673">
        <ele>1345.502441</ele>
        <time>2014-06-27T11:39:38Z</time>
      </trkpt>
      <trkpt lat="42.26589" lon="8.89681">
        <ele>1345.021729</ele>
        <time>2014-06-27T11:39:52Z</time>
      </trkpt>
      <trkpt lat="42.26593" lon="8.89682">
        <ele>1342.137939</ele>
        <time>2014-06-27T11:40:01Z</time>
      </trkpt>
      <trkpt lat="42.26598" lon="8.89689">
        <ele>1340.695801</ele>
        <time>2014-06-27T11:40:15Z</time>
      </trkpt>
      <trkpt lat="42.26602" lon="8.89691">
        <ele>1339.734375</ele>
        <time>2014-06-27T11:40:22Z</time>
      </trkpt>
      <trkpt lat="42.26611" lon="8.89695">
        <ele>1337.331055</ele>
        <time>2014-06-27T11:40:38Z</time>
      </trkpt>
      <trkpt lat="42.26619" lon="8.89702">
        <ele>1334.927979</ele>
        <time>2014-06-27T11:40:50Z</time>
      </trkpt>
      <trkpt lat="42.26622" lon="8.89705">
        <ele>1334.447266</ele>
        <time>2014-06-27T11:40:54Z</time>
      </trkpt>
      <trkpt lat="42.26628" lon="8.89719">
        <ele>1332.043945</ele>
        <time>2014-06-27T11:41:06Z</time>
      </trkpt>
      <trkpt lat="42.26637" lon="8.89719">
        <ele>1330.602051</ele>
        <time>2014-06-27T11:41:19Z</time>
      </trkpt>
      <trkpt lat="42.26652" lon="8.89721">
        <ele>1327.718018</ele>
        <time>2014-06-27T11:41:37Z</time>
      </trkpt>
      <trkpt lat="42.26662" lon="8.89719">
        <ele>1326.276123</ele>
        <time>2014-06-27T11:41:53Z</time>
      </trkpt>
      <trkpt lat="42.26676" lon="8.89704">
        <ele>1323.872559</ele>
        <time>2014-06-27T11:42:13Z</time>
      </trkpt>
      <trkpt lat="42.26676" lon="8.89685">
        <ele>1321.949951</ele>
        <time>2014-06-27T11:42:30Z</time>
      </trkpt>
      <trkpt lat="42.26673" lon="8.89674">
        <ele>1319.546875</ele>
        <time>2014-06-27T11:42:43Z</time>
      </trkpt>
      <trkpt lat="42.26664" lon="8.89663">
        <ele>1318.585449</ele>
        <time>2014-06-27T11:43:01Z</time>
      </trkpt>
      <trkpt lat="42.26657" lon="8.89654">
        <ele>1317.624023</ele>
        <time>2014-06-27T11:43:15Z</time>
      </trkpt>
      <trkpt lat="42.26655" lon="8.89652">
        <ele>1317.624023</ele>
        <time>2014-06-27T11:43:17Z</time>
      </trkpt>
      <trkpt lat="42.26655" lon="8.89632">
        <ele>1316.182129</ele>
        <time>2014-06-27T11:43:33Z</time>
      </trkpt>
      <trkpt lat="42.26656" lon="8.89624">
        <ele>1315.70166</ele>
        <time>2014-06-27T11:43:40Z</time>
      </trkpt>
      <trkpt lat="42.26651" lon="8.89604">
        <ele>1313.778809</ele>
        <time>2014-06-27T11:43:56Z</time>
      </trkpt>
      <trkpt lat="42.26641" lon="8.89585">
        <ele>1311.856445</ele>
        <time>2014-06-27T11:44:16Z</time>
      </trkpt>
      <trkpt lat="42.2664" lon="8.89573">
        <ele>1310.414307</ele>
        <time>2014-06-27T11:44:28Z</time>
      </trkpt>
      <trkpt lat="42.26646" lon="8.89567">
        <ele>1309.933594</ele>
        <time>2014-06-27T11:44:40Z</time>
      </trkpt>
      <trkpt lat="42.26655" lon="8.89566">
        <ele>1308.972412</ele>
        <time>2014-06-27T11:44:54Z</time>
      </trkpt>
      <trkpt lat="42.26667" lon="8.89561">
        <ele>1307.049561</ele>
        <time>2014-06-27T11:45:08Z</time>
      </trkpt>
      <trkpt lat="42.26675" lon="8.89559">
        <ele>1305.607666</ele>
        <time>2014-06-27T11:45:19Z</time>
      </trkpt>
      <trkpt lat="42.26681" lon="8.89558">
        <ele>1303.685059</ele>
        <time>2014-06-27T11:45:26Z</time>
      </trkpt>
      <trkpt lat="42.2669" lon="8.89558">
        <ele>1301.762451</ele>
        <time>2014-06-27T11:45:38Z</time>
      </trkpt>
      <trkpt lat="42.26697" lon="8.89561">
        <ele>1299.839844</ele>
        <time>2014-06-27T11:45:52Z</time>
      </trkpt>
      <trkpt lat="42.26705" lon="8.89567">
        <ele>1299.359131</ele>
        <time>2014-06-27T11:46:07Z</time>
      </trkpt>
      <trkpt lat="42.26711" lon="8.89571">
        <ele>1298.397705</ele>
        <time>2014-06-27T11:46:15Z</time>
      </trkpt>
      <trkpt lat="42.26715" lon="8.89573">
        <ele>1296.475342</ele>
        <time>2014-06-27T11:46:19Z</time>
      </trkpt>
      <trkpt lat="42.26732" lon="8.89577">
        <ele>1294.55249</ele>
        <time>2014-06-27T11:46:36Z</time>
      </trkpt>
      <trkpt lat="42.26749" lon="8.89581">
        <ele>1293.110596</ele>
        <time>2014-06-27T11:46:58Z</time>
      </trkpt>
      <trkpt lat="42.2676" lon="8.89584">
        <ele>1293.110596</ele>
        <time>2014-06-27T11:47:14Z</time>
      </trkpt>
      <trkpt lat="42.26768" lon="8.89587">
        <ele>1292.149414</ele>
        <time>2014-06-27T11:47:26Z</time>
      </trkpt>
      <trkpt lat="42.26777" lon="8.8959">
        <ele>1289.265137</ele>
        <time>2014-06-27T11:47:36Z</time>
      </trkpt>
      <trkpt lat="42.26791" lon="8.89589">
        <ele>1288.303955</ele>
        <time>2014-06-27T11:47:53Z</time>
      </trkpt>
      <trkpt lat="42.26804" lon="8.89584">
        <ele>1285.419922</ele>
        <time>2014-06-27T11:48:13Z</time>
      </trkpt>
      <trkpt lat="42.26816" lon="8.89577">
        <ele>1284.45874</ele>
        <time>2014-06-27T11:48:26Z</time>
      </trkpt>
      <trkpt lat="42.2683" lon="8.89571">
        <ele>1282.536133</ele>
        <time>2014-06-27T11:48:42Z</time>
      </trkpt>
      <trkpt lat="42.26844" lon="8.89566">
        <ele>1282.05542</ele>
        <time>2014-06-27T11:48:55Z</time>
      </trkpt>
      <trkpt lat="42.26851" lon="8.89562">
        <ele>1280.613525</ele>
        <time>2014-06-27T11:49:07Z</time>
      </trkpt>
      <trkpt lat="42.26865" lon="8.89569">
        <ele>1281.094238</ele>
        <time>2014-06-27T11:49:22Z</time>
      </trkpt>
      <trkpt lat="42.26872" lon="8.89585">
        <ele>1279.171387</ele>
        <time>2014-06-27T11:49:37Z</time>
      </trkpt>
      <trkpt lat="42.26878" lon="8.896">
        <ele>1278.210205</ele>
        <time>2014-06-27T11:49:49Z</time>
      </trkpt>
      <trkpt lat="42.26886" lon="8.89613">
        <ele>1274.364746</ele>
        <time>2014-06-27T11:50:06Z</time>
      </trkpt>
      <trkpt lat="42.26895" lon="8.89625">
        <ele>1272.922852</ele>
        <time>2014-06-27T11:50:23Z</time>
      </trkpt>
      <trkpt lat="42.26901" lon="8.89631">
        <ele>1271.480713</ele>
        <time>2014-06-27T11:50:37Z</time>
      </trkpt>
      <trkpt lat="42.26915" lon="8.89636">
        <ele>1269.077637</ele>
        <time>2014-06-27T11:50:54Z</time>
      </trkpt>
      <trkpt lat="42.26926" lon="8.89639">
        <ele>1267.635498</ele>
        <time>2014-06-27T11:51:05Z</time>
      </trkpt>
      <trkpt lat="42.26939" lon="8.89638">
        <ele>1266.674316</ele>
        <time>2014-06-27T11:51:19Z</time>
      </trkpt>
      <trkpt lat="42.2695" lon="8.89629">
        <ele>1264.751709</ele>
        <time>2014-06-27T11:51:31Z</time>
      </trkpt>
      <trkpt lat="42.26966" lon="8.89617">
        <ele>1263.790283</ele>
        <time>2014-06-27T11:51:46Z</time>
      </trkpt>
      <trkpt lat="42.2698" lon="8.89603">
        <ele>1262.348389</ele>
        <time>2014-06-27T11:52:03Z</time>
      </trkpt>
      <trkpt lat="42.26981" lon="8.89602">
        <ele>1262.348389</ele>
        <time>2014-06-27T11:52:04Z</time>
      </trkpt>
      <trkpt lat="42.26991" lon="8.89588">
        <ele>1259.944824</ele>
        <time>2014-06-27T11:52:17Z</time>
      </trkpt>
      <trkpt lat="42.26998" lon="8.8958">
        <ele>1258.022461</ele>
        <time>2014-06-27T11:52:29Z</time>
      </trkpt>
      <trkpt lat="42.27004" lon="8.89589">
        <ele>1258.983643</ele>
        <time>2014-06-27T11:52:57Z</time>
      </trkpt>
      <trkpt lat="42.27006" lon="8.89594">
        <ele>1256.580322</ele>
        <time>2014-06-27T11:53:11Z</time>
      </trkpt>
      <trkpt lat="42.27012" lon="8.89594">
        <ele>1256.580322</ele>
        <time>2014-06-27T11:53:24Z</time>
      </trkpt>
      <trkpt lat="42.27012" lon="8.89603">
        <ele>1256.580322</ele>
        <time>2014-06-27T11:53:33Z</time>
      </trkpt>
      <trkpt lat="42.27013" lon="8.89615">
        <ele>1254.657715</ele>
        <time>2014-06-27T11:53:47Z</time>
      </trkpt>
      <trkpt lat="42.27017" lon="8.8963">
        <ele>1253.696533</ele>
        <time>2014-06-27T11:54:00Z</time>
      </trkpt>
      <trkpt lat="42.27019" lon="8.89644">
        <ele>1251.773926</ele>
        <time>2014-06-27T11:54:13Z</time>
      </trkpt>
      <trkpt lat="42.27015" lon="8.89657">
        <ele>1249.851318</ele>
        <time>2014-06-27T11:54:24Z</time>
      </trkpt>
      <trkpt lat="42.27016" lon="8.89661">
        <ele>1250.8125</ele>
        <time>2014-06-27T11:54:28Z</time>
      </trkpt>
      <trkpt lat="42.2701" lon="8.89677">
        <ele>1249.370605</ele>
        <time>2014-06-27T11:54:43Z</time>
      </trkpt>
      <trkpt lat="42.27008" lon="8.89685">
        <ele>1248.40918</ele>
        <time>2014-06-27T11:54:51Z</time>
      </trkpt>
      <trkpt lat="42.27005" lon="8.89703">
        <ele>1246.006104</ele>
        <time>2014-06-27T11:55:08Z</time>
      </trkpt>
      <trkpt lat="42.27007" lon="8.89722">
        <ele>1243.602539</ele>
        <time>2014-06-27T11:55:26Z</time>
      </trkpt>
      <trkpt lat="42.27012" lon="8.89734">
        <ele>1242.160645</ele>
        <time>2014-06-27T11:55:38Z</time>
      </trkpt>
      <trkpt lat="42.27019" lon="8.89752">
        <ele>1240.238037</ele>
        <time>2014-06-27T11:55:55Z</time>
      </trkpt>
      <trkpt lat="42.27027" lon="8.89765">
        <ele>1238.796143</ele>
        <time>2014-06-27T11:56:09Z</time>
      </trkpt>
      <trkpt lat="42.27034" lon="8.8978">
        <ele>1236.392822</ele>
        <time>2014-06-27T11:56:27Z</time>
      </trkpt>
      <trkpt lat="42.27032" lon="8.89787">
        <ele>1236.873291</ele>
        <time>2014-06-27T11:56:43Z</time>
      </trkpt>
      <trkpt lat="42.27037" lon="8.89792">
        <ele>1236.873291</ele>
        <time>2014-06-27T11:56:59Z</time>
      </trkpt>
      <trkpt lat="42.2704" lon="8.898">
        <ele>1235.431396</ele>
        <time>2014-06-27T11:57:11Z</time>
      </trkpt>
      <trkpt lat="42.27045" lon="8.89809">
        <ele>1234.470215</ele>
        <time>2014-06-27T11:57:27Z</time>
      </trkpt>
      <trkpt lat="42.27049" lon="8.89821">
        <ele>1233.028076</ele>
        <time>2014-06-27T11:57:45Z</time>
      </trkpt>
      <trkpt lat="42.27055" lon="8.89833">
        <ele>1229.663574</ele>
        <time>2014-06-27T11:58:00Z</time>
      </trkpt>
      <trkpt lat="42.27063" lon="8.89846">
        <ele>1228.702393</ele>
        <time>2014-06-27T11:58:17Z</time>
      </trkpt>
      <trkpt lat="42.27069" lon="8.89855">
        <ele>1225.337402</ele>
        <time>2014-06-27T11:58:29Z</time>
      </trkpt>
      <trkpt lat="42.27072" lon="8.8986">
        <ele>1223.895508</ele>
        <time>2014-06-27T11:58:37Z</time>
      </trkpt>
      <trkpt lat="42.27078" lon="8.89872">
        <ele>1222.453613</ele>
        <time>2014-06-27T11:58:53Z</time>
      </trkpt>
      <trkpt lat="42.27084" lon="8.89884">
        <ele>1221.492188</ele>
        <time>2014-06-27T11:59:06Z</time>
      </trkpt>
      <trkpt lat="42.27087" lon="8.89886">
        <ele>1221.9729</ele>
        <time>2014-06-27T11:59:09Z</time>
      </trkpt>
      <trkpt lat="42.27089" lon="8.89888">
        <ele>1222.453613</ele>
        <time>2014-06-27T11:59:12Z</time>
      </trkpt>
      <trkpt lat="42.27097" lon="8.89908">
        <ele>1220.531006</ele>
        <time>2014-06-27T11:59:30Z</time>
      </trkpt>
      <trkpt lat="42.27103" lon="8.89928">
        <ele>1219.569824</ele>
        <time>2014-06-27T11:59:47Z</time>
      </trkpt>
      <trkpt lat="42.27111" lon="8.89943">
        <ele>1218.608398</ele>
        <time>2014-06-27T12:00:02Z</time>
      </trkpt>
      <trkpt lat="42.27119" lon="8.89956">
        <ele>1217.166504</ele>
        <time>2014-06-27T12:00:16Z</time>
      </trkpt>
      <trkpt lat="42.27127" lon="8.89969">
        <ele>1214.763184</ele>
        <time>2014-06-27T12:00:31Z</time>
      </trkpt>
      <trkpt lat="42.27138" lon="8.89983">
        <ele>1212.359863</ele>
        <time>2014-06-27T12:00:49Z</time>
      </trkpt>
      <trkpt lat="42.27146" lon="8.89996">
        <ele>1211.398438</ele>
        <time>2014-06-27T12:01:06Z</time>
      </trkpt>
      <trkpt lat="42.27157" lon="8.9001">
        <ele>1209.47583</ele>
        <time>2014-06-27T12:01:23Z</time>
      </trkpt>
      <trkpt lat="42.2717" lon="8.90023">
        <ele>1207.553223</ele>
        <time>2014-06-27T12:01:40Z</time>
      </trkpt>
      <trkpt lat="42.27179" lon="8.90034">
        <ele>1204.669189</ele>
        <time>2014-06-27T12:01:55Z</time>
      </trkpt>
      <trkpt lat="42.27189" lon="8.90045">
        <ele>1202.746582</ele>
        <time>2014-06-27T12:02:13Z</time>
      </trkpt>
      <trkpt lat="42.27204" lon="8.90054">
        <ele>1202.265869</ele>
        <time>2014-06-27T12:02:30Z</time>
      </trkpt>
      <trkpt lat="42.27215" lon="8.90062">
        <ele>1199.38208</ele>
        <time>2014-06-27T12:02:47Z</time>
      </trkpt>
      <trkpt lat="42.27227" lon="8.9007">
        <ele>1198.420654</ele>
        <time>2014-06-27T12:03:02Z</time>
      </trkpt>
      <trkpt lat="42.27239" lon="8.90075">
        <ele>1196.97876</ele>
        <time>2014-06-27T12:03:16Z</time>
      </trkpt>
      <trkpt lat="42.27252" lon="8.90077">
        <ele>1195.536621</ele>
        <time>2014-06-27T12:03:31Z</time>
      </trkpt>
      <trkpt lat="42.27258" lon="8.90088">
        <ele>1194.575195</ele>
        <time>2014-06-27T12:03:44Z</time>
      </trkpt>
      <trkpt lat="42.2726" lon="8.90092">
        <ele>1194.575195</ele>
        <time>2014-06-27T12:03:48Z</time>
      </trkpt>
      <trkpt lat="42.27272" lon="8.90105">
        <ele>1191.691406</ele>
        <time>2014-06-27T12:04:06Z</time>
      </trkpt>
      <trkpt lat="42.27281" lon="8.9011">
        <ele>1189.768799</ele>
        <time>2014-06-27T12:04:21Z</time>
      </trkpt>
      <trkpt lat="42.27292" lon="8.9012">
        <ele>1188.807617</ele>
        <time>2014-06-27T12:04:36Z</time>
      </trkpt>
      <trkpt lat="42.27295" lon="8.90125">
        <ele>1188.326904</ele>
        <time>2014-06-27T12:04:41Z</time>
      </trkpt>
      <trkpt lat="42.27297" lon="8.90128">
        <ele>1187.846191</ele>
        <time>2014-06-27T12:04:44Z</time>
      </trkpt>
      <trkpt lat="42.27305" lon="8.90138">
        <ele>1186.884766</ele>
        <time>2014-06-27T12:05:00Z</time>
      </trkpt>
      <trkpt lat="42.27311" lon="8.90142">
        <ele>1185.442871</ele>
        <time>2014-06-27T12:05:14Z</time>
      </trkpt>
      <trkpt lat="42.27323" lon="8.90152">
        <ele>1183.520264</ele>
        <time>2014-06-27T12:05:31Z</time>
      </trkpt>
      <trkpt lat="42.27337" lon="8.90163">
        <ele>1182.559082</ele>
        <time>2014-06-27T12:05:44Z</time>
      </trkpt>
      <trkpt lat="42.27347" lon="8.90176">
        <ele>1181.597656</ele>
        <time>2014-06-27T12:05:57Z</time>
      </trkpt>
      <trkpt lat="42.27356" lon="8.90187">
        <ele>1180.155762</ele>
        <time>2014-06-27T12:06:13Z</time>
      </trkpt>
      <trkpt lat="42.27365" lon="8.90196">
        <ele>1178.23291</ele>
        <time>2014-06-27T12:06:28Z</time>
      </trkpt>
      <trkpt lat="42.27375" lon="8.90208">
        <ele>1175.82959</ele>
        <time>2014-06-27T12:06:45Z</time>
      </trkpt>
      <trkpt lat="42.27386" lon="8.90221">
        <ele>1174.868408</ele>
        <time>2014-06-27T12:07:03Z</time>
      </trkpt>
      <trkpt lat="42.27396" lon="8.90233">
        <ele>1173.426514</ele>
        <time>2014-06-27T12:07:19Z</time>
      </trkpt>
      <trkpt lat="42.27405" lon="8.90247">
        <ele>1171.984375</ele>
        <time>2014-06-27T12:07:33Z</time>
      </trkpt>
      <trkpt lat="42.27414" lon="8.90262">
        <ele>1170.061768</ele>
        <time>2014-06-27T12:07:48Z</time>
      </trkpt>
      <trkpt lat="42.27421" lon="8.90276">
        <ele>1168.13916</ele>
        <time>2014-06-27T12:08:04Z</time>
      </trkpt>
      <trkpt lat="42.2743" lon="8.90296">
        <ele>1167.177979</ele>
        <time>2014-06-27T12:08:23Z</time>
      </trkpt>
      <trkpt lat="42.27436" lon="8.90308">
        <ele>1164.293945</ele>
        <time>2014-06-27T12:08:39Z</time>
      </trkpt>
      <trkpt lat="42.2744" lon="8.90316">
        <ele>1164.293945</ele>
        <time>2014-06-27T12:08:55Z</time>
      </trkpt>
      <trkpt lat="42.27441" lon="8.90317">
        <ele>1163.812988</ele>
        <time>2014-06-27T12:08:56Z</time>
      </trkpt>
      <trkpt lat="42.27442" lon="8.90323">
        <ele>1163.33252</ele>
        <time>2014-06-27T12:09:14Z</time>
      </trkpt>
      <trkpt lat="42.27444" lon="8.90323">
        <ele>1163.33252</ele>
        <time>2014-06-27T12:09:20Z</time>
      </trkpt>
      <trkpt lat="42.27453" lon="8.9033">
        <ele>1162.371094</ele>
        <time>2014-06-27T12:09:36Z</time>
      </trkpt>
      <trkpt lat="42.27463" lon="8.9033">
        <ele>1159.487305</ele>
        <time>2014-06-27T12:09:50Z</time>
      </trkpt>
      <trkpt lat="42.27476" lon="8.90331">
        <ele>1156.603271</ele>
        <time>2014-06-27T12:10:06Z</time>
      </trkpt>
      <trkpt lat="42.27485" lon="8.90334">
        <ele>1155.161377</ele>
        <time>2014-06-27T12:10:19Z</time>
      </trkpt>
      <trkpt lat="42.27484" lon="8.90341">
        <ele>1152.758057</ele>
        <time>2014-06-27T12:10:34Z</time>
      </trkpt>
      <trkpt lat="42.2748" lon="8.90348">
        <ele>1151.796875</ele>
        <time>2014-06-27T12:10:49Z</time>
      </trkpt>
      <trkpt lat="42.27482" lon="8.90347">
        <ele>1151.796875</ele>
        <time>2014-06-27T12:11:02Z</time>
      </trkpt>
      <trkpt lat="42.27482" lon="8.90348">
        <ele>1150.835449</ele>
        <time>2014-06-27T12:11:27Z</time>
      </trkpt>
      <trkpt lat="42.27483" lon="8.90346">
        <ele>1150.835449</ele>
        <time>2014-06-27T12:16:57Z</time>
      </trkpt>
      <trkpt lat="42.27477" lon="8.90351">
        <ele>1148.912842</ele>
        <time>2014-06-27T12:18:06Z</time>
      </trkpt>
      <trkpt lat="42.27478" lon="8.9035">
        <ele>1149.874268</ele>
        <time>2014-06-27T12:18:22Z</time>
      </trkpt>
      <trkpt lat="42.27483" lon="8.90341">
        <ele>1152.277344</ele>
        <time>2014-06-27T12:18:35Z</time>
      </trkpt>
      <trkpt lat="42.2749" lon="8.90334">
        <ele>1152.758057</ele>
        <time>2014-06-27T12:18:54Z</time>
      </trkpt>
      <trkpt lat="42.27497" lon="8.90332">
        <ele>1152.758057</ele>
        <time>2014-06-27T12:19:09Z</time>
      </trkpt>
      <trkpt lat="42.27498" lon="8.9033">
        <ele>1153.23877</ele>
        <time>2014-06-27T12:19:15Z</time>
      </trkpt>
      <trkpt lat="42.2752" lon="8.90317">
        <ele>1154.680664</ele>
        <time>2014-06-27T12:19:37Z</time>
      </trkpt>
      <trkpt lat="42.27533" lon="8.90324">
        <ele>1155.64209</ele>
        <time>2014-06-27T12:19:54Z</time>
      </trkpt>
      <trkpt lat="42.27534" lon="8.90323">
        <ele>1154.680664</ele>
        <time>2014-06-27T12:20:00Z</time>
      </trkpt>
      <trkpt lat="42.27547" lon="8.90321">
        <ele>1154.680664</ele>
        <time>2014-06-27T12:20:16Z</time>
      </trkpt>
      <trkpt lat="42.27549" lon="8.90322">
        <ele>1155.161377</ele>
        <time>2014-06-27T12:20:19Z</time>
      </trkpt>
      <trkpt lat="42.27531" lon="8.90321">
        <ele>1153.719482</ele>
        <time>2014-06-27T12:20:37Z</time>
      </trkpt>
      <trkpt lat="42.27508" lon="8.90332">
        <ele>1152.758057</ele>
        <time>2014-06-27T12:20:55Z</time>
      </trkpt>
      <trkpt lat="42.27498" lon="8.90342">
        <ele>1153.23877</ele>
        <time>2014-06-27T12:21:12Z</time>
      </trkpt>
      <trkpt lat="42.27496" lon="8.90352">
        <ele>1152.758057</ele>
        <time>2014-06-27T12:21:19Z</time>
      </trkpt>
      <trkpt lat="42.275" lon="8.90364">
        <ele>1151.796875</ele>
        <time>2014-06-27T12:21:28Z</time>
      </trkpt>
      <trkpt lat="42.27508" lon="8.90369">
        <ele>1151.316162</ele>
        <time>2014-06-27T12:21:36Z</time>
      </trkpt>
      <trkpt lat="42.27532" lon="8.90381">
        <ele>1149.874268</ele>
        <time>2014-06-27T12:21:59Z</time>
      </trkpt>
      <trkpt lat="42.27553" lon="8.90415">
        <ele>1147.951416</ele>
        <time>2014-06-27T12:22:23Z</time>
      </trkpt>
      <trkpt lat="42.27562" lon="8.90429">
        <ele>1148.432129</ele>
        <time>2014-06-27T12:22:33Z</time>
      </trkpt>
      <trkpt lat="42.27563" lon="8.90432">
        <ele>1147.951416</ele>
        <time>2014-06-27T12:22:36Z</time>
      </trkpt>
      <trkpt lat="42.27567" lon="8.90435">
        <ele>1147.951416</ele>
        <time>2014-06-27T12:22:40Z</time>
      </trkpt>
      <trkpt lat="42.27595" lon="8.90452">
        <ele>1146.98999</ele>
        <time>2014-06-27T12:23:04Z</time>
      </trkpt>
      <trkpt lat="42.27619" lon="8.90465">
        <ele>1146.028809</ele>
        <time>2014-06-27T12:23:23Z</time>
      </trkpt>
      <trkpt lat="42.2764" lon="8.90488">
        <ele>1144.106201</ele>
        <time>2014-06-27T12:23:43Z</time>
      </trkpt>
      <trkpt lat="42.27644" lon="8.90496">
        <ele>1144.106201</ele>
        <time>2014-06-27T12:23:48Z</time>
      </trkpt>
      <trkpt lat="42.27646" lon="8.90505">
        <ele>1144.58667</ele>
        <time>2014-06-27T12:23:53Z</time>
      </trkpt>
      <trkpt lat="42.2765" lon="8.90546">
        <ele>1143.144775</ele>
        <time>2014-06-27T12:24:15Z</time>
      </trkpt>
      <trkpt lat="42.27649" lon="8.90584">
        <ele>1142.183594</ele>
        <time>2014-06-27T12:24:36Z</time>
      </trkpt>
      <trkpt lat="42.27654" lon="8.90621">
        <ele>1141.222168</ele>
        <time>2014-06-27T12:24:56Z</time>
      </trkpt>
      <trkpt lat="42.27665" lon="8.90659">
        <ele>1139.780273</ele>
        <time>2014-06-27T12:25:19Z</time>
      </trkpt>
      <trkpt lat="42.27676" lon="8.90688">
        <ele>1138.338379</ele>
        <time>2014-06-27T12:25:38Z</time>
      </trkpt>
      <trkpt lat="42.27689" lon="8.9072">
        <ele>1138.338379</ele>
        <time>2014-06-27T12:25:59Z</time>
      </trkpt>
      <trkpt lat="42.27711" lon="8.90727">
        <ele>1137.376953</ele>
        <time>2014-06-27T12:26:17Z</time>
      </trkpt>
      <trkpt lat="42.27733" lon="8.90731">
        <ele>1135.935059</ele>
        <time>2014-06-27T12:26:36Z</time>
      </trkpt>
      <trkpt lat="42.27756" lon="8.90746">
        <ele>1135.935059</ele>
        <time>2014-06-27T12:26:56Z</time>
      </trkpt>
      <trkpt lat="42.27759" lon="8.90749">
        <ele>1135.454346</ele>
        <time>2014-06-27T12:26:59Z</time>
      </trkpt>
      <trkpt lat="42.27778" lon="8.90763">
        <ele>1135.454346</ele>
        <time>2014-06-27T12:27:16Z</time>
      </trkpt>
      <trkpt lat="42.278" lon="8.90781">
        <ele>1134.973877</ele>
        <time>2014-06-27T12:27:34Z</time>
      </trkpt>
      <trkpt lat="42.27811" lon="8.90795">
        <ele>1134.012451</ele>
        <time>2014-06-27T12:27:47Z</time>
      </trkpt>
      <trkpt lat="42.27817" lon="8.90819">
        <ele>1134.012451</ele>
        <time>2014-06-27T12:28:02Z</time>
      </trkpt>
      <trkpt lat="42.27814" lon="8.90853">
        <ele>1132.089844</ele>
        <time>2014-06-27T12:28:20Z</time>
      </trkpt>
      <trkpt lat="42.27818" lon="8.90872">
        <ele>1131.608887</ele>
        <time>2014-06-27T12:28:32Z</time>
      </trkpt>
      <trkpt lat="42.27832" lon="8.90895">
        <ele>1130.647705</ele>
        <time>2014-06-27T12:28:48Z</time>
      </trkpt>
      <trkpt lat="42.27842" lon="8.90911">
        <ele>1130.166992</ele>
        <time>2014-06-27T12:29:01Z</time>
      </trkpt>
      <trkpt lat="42.27846" lon="8.90928">
        <ele>1129.686279</ele>
        <time>2014-06-27T12:29:09Z</time>
      </trkpt>
      <trkpt lat="42.27849" lon="8.90939">
        <ele>1129.205566</ele>
        <time>2014-06-27T12:29:15Z</time>
      </trkpt>
      <trkpt lat="42.27856" lon="8.90969">
        <ele>1128.725098</ele>
        <time>2014-06-27T12:29:32Z</time>
      </trkpt>
      <trkpt lat="42.27862" lon="8.90998">
        <ele>1128.244385</ele>
        <time>2014-06-27T12:29:49Z</time>
      </trkpt>
      <trkpt lat="42.27852" lon="8.91031">
        <ele>1127.283203</ele>
        <time>2014-06-27T12:30:07Z</time>
      </trkpt>
      <trkpt lat="42.27838" lon="8.91055">
        <ele>1126.321777</ele>
        <time>2014-06-27T12:30:23Z</time>
      </trkpt>
      <trkpt lat="42.27833" lon="8.91086">
        <ele>1125.841064</ele>
        <time>2014-06-27T12:30:39Z</time>
      </trkpt>
      <trkpt lat="42.27833" lon="8.91117">
        <ele>1124.879883</ele>
        <time>2014-06-27T12:30:55Z</time>
      </trkpt>
      <trkpt lat="42.27837" lon="8.9114">
        <ele>1124.879883</ele>
        <time>2014-06-27T12:31:08Z</time>
      </trkpt>
      <trkpt lat="42.27838" lon="8.91173">
        <ele>1122.957275</ele>
        <time>2014-06-27T12:31:26Z</time>
      </trkpt>
      <trkpt lat="42.27837" lon="8.91177">
        <ele>1122.957275</ele>
        <time>2014-06-27T12:31:28Z</time>
      </trkpt>
      <trkpt lat="42.27839" lon="8.91184">
        <ele>1122.957275</ele>
        <time>2014-06-27T12:31:32Z</time>
      </trkpt>
      <trkpt lat="42.27845" lon="8.91199">
        <ele>1121.99585</ele>
        <time>2014-06-27T12:31:42Z</time>
      </trkpt>
      <trkpt lat="42.27864" lon="8.91221">
        <ele>1121.515137</ele>
        <time>2014-06-27T12:32:00Z</time>
      </trkpt>
      <trkpt lat="42.27879" lon="8.91251">
        <ele>1121.034668</ele>
        <time>2014-06-27T12:32:20Z</time>
      </trkpt>
      <trkpt lat="42.27882" lon="8.91267">
        <ele>1120.553955</ele>
        <time>2014-06-27T12:32:29Z</time>
      </trkpt>
      <trkpt lat="42.27884" lon="8.91277">
        <ele>1119.112061</ele>
        <time>2014-06-27T12:32:35Z</time>
      </trkpt>
      <trkpt lat="42.27886" lon="8.91293">
        <ele>1117.669922</ele>
        <time>2014-06-27T12:32:44Z</time>
      </trkpt>
      <trkpt lat="42.27892" lon="8.91307">
        <ele>1118.150635</ele>
        <time>2014-06-27T12:32:55Z</time>
      </trkpt>
      <trkpt lat="42.27896" lon="8.91312">
        <ele>1117.189453</ele>
        <time>2014-06-27T12:33:00Z</time>
      </trkpt>
      <trkpt lat="42.27923" lon="8.91306">
        <ele>1116.70874</ele>
        <time>2014-06-27T12:33:19Z</time>
      </trkpt>
      <trkpt lat="42.27952" lon="8.91314">
        <ele>1115.266602</ele>
        <time>2014-06-27T12:33:38Z</time>
      </trkpt>
      <trkpt lat="42.2797" lon="8.91337">
        <ele>1114.305176</ele>
        <time>2014-06-27T12:33:55Z</time>
      </trkpt>
      <trkpt lat="42.27982" lon="8.91377">
        <ele>1113.343994</ele>
        <time>2014-06-27T12:34:18Z</time>
      </trkpt>
      <trkpt lat="42.27994" lon="8.9142">
        <ele>1112.382568</ele>
        <time>2014-06-27T12:34:42Z</time>
      </trkpt>
      <trkpt lat="42.27998" lon="8.91431">
        <ele>1112.382568</ele>
        <time>2014-06-27T12:34:48Z</time>
      </trkpt>
      <trkpt lat="42.27998" lon="8.91434">
        <ele>1112.382568</ele>
        <time>2014-06-27T12:34:50Z</time>
      </trkpt>
      <trkpt lat="42.28" lon="8.91458">
        <ele>1111.421387</ele>
        <time>2014-06-27T12:35:03Z</time>
      </trkpt>
      <trkpt lat="42.28" lon="8.91466">
        <ele>1111.421387</ele>
        <time>2014-06-27T12:35:08Z</time>
      </trkpt>
      <trkpt lat="42.28009" lon="8.91496">
        <ele>1109.979248</ele>
        <time>2014-06-27T12:35:26Z</time>
      </trkpt>
      <trkpt lat="42.2801" lon="8.91497">
        <ele>1110.459961</ele>
        <time>2014-06-27T12:35:27Z</time>
      </trkpt>
      <trkpt lat="42.28026" lon="8.91521">
        <ele>1109.018066</ele>
        <time>2014-06-27T12:35:44Z</time>
      </trkpt>
      <trkpt lat="42.28039" lon="8.91543">
        <ele>1107.576172</ele>
        <time>2014-06-27T12:35:59Z</time>
      </trkpt>
      <trkpt lat="42.28045" lon="8.9155">
        <ele>1107.576172</ele>
        <time>2014-06-27T12:36:04Z</time>
      </trkpt>
      <trkpt lat="42.28064" lon="8.91577">
        <ele>1107.576172</ele>
        <time>2014-06-27T12:36:24Z</time>
      </trkpt>
      <trkpt lat="42.2808" lon="8.91605">
        <ele>1106.134033</ele>
        <time>2014-06-27T12:36:43Z</time>
      </trkpt>
      <trkpt lat="42.28092" lon="8.91634">
        <ele>1106.614746</ele>
        <time>2014-06-27T12:37:01Z</time>
      </trkpt>
      <trkpt lat="42.28096" lon="8.91656">
        <ele>1106.134033</ele>
        <time>2014-06-27T12:37:14Z</time>
      </trkpt>
      <trkpt lat="42.28096" lon="8.91677">
        <ele>1104.692139</ele>
        <time>2014-06-27T12:37:25Z</time>
      </trkpt>
      <trkpt lat="42.28102" lon="8.91701">
        <ele>1104.21167</ele>
        <time>2014-06-27T12:37:39Z</time>
      </trkpt>
      <trkpt lat="42.28116" lon="8.91726">
        <ele>1102.769531</ele>
        <time>2014-06-27T12:37:55Z</time>
      </trkpt>
      <trkpt lat="42.28141" lon="8.91756">
        <ele>1101.327637</ele>
        <time>2014-06-27T12:38:18Z</time>
      </trkpt>
      <trkpt lat="42.28165" lon="8.91778">
        <ele>1100.846924</ele>
        <time>2014-06-27T12:38:38Z</time>
      </trkpt>
      <trkpt lat="42.28197" lon="8.91805">
        <ele>1098.443359</ele>
        <time>2014-06-27T12:39:04Z</time>
      </trkpt>
      <trkpt lat="42.28224" lon="8.91828">
        <ele>1097.001465</ele>
        <time>2014-06-27T12:39:27Z</time>
      </trkpt>
      <trkpt lat="42.28251" lon="8.91855">
        <ele>1096.040283</ele>
        <time>2014-06-27T12:39:51Z</time>
      </trkpt>
      <trkpt lat="42.28269" lon="8.91891">
        <ele>1093.636963</ele>
        <time>2014-06-27T12:40:14Z</time>
      </trkpt>
      <trkpt lat="42.28286" lon="8.91921">
        <ele>1093.15625</ele>
        <time>2014-06-27T12:40:35Z</time>
      </trkpt>
      <trkpt lat="42.28303" lon="8.91942">
        <ele>1092.675781</ele>
        <time>2014-06-27T12:40:52Z</time>
      </trkpt>
      <trkpt lat="42.28314" lon="8.91971">
        <ele>1091.714355</ele>
        <time>2014-06-27T12:41:09Z</time>
      </trkpt>
      <trkpt lat="42.28315" lon="8.91976">
        <ele>1091.714355</ele>
        <time>2014-06-27T12:41:12Z</time>
      </trkpt>
      <trkpt lat="42.28329" lon="8.92005">
        <ele>1091.233643</ele>
        <time>2014-06-27T12:41:31Z</time>
      </trkpt>
      <trkpt lat="42.28349" lon="8.92021">
        <ele>1090.75293</ele>
        <time>2014-06-27T12:41:48Z</time>
      </trkpt>
      <trkpt lat="42.28366" lon="8.92031">
        <ele>1090.75293</ele>
        <time>2014-06-27T12:42:03Z</time>
      </trkpt>
      <trkpt lat="42.28367" lon="8.92032">
        <ele>1090.272461</ele>
        <time>2014-06-27T12:42:04Z</time>
      </trkpt>
      <trkpt lat="42.28379" lon="8.9205">
        <ele>1090.75293</ele>
        <time>2014-06-27T12:42:17Z</time>
      </trkpt>
      <trkpt lat="42.28389" lon="8.92069">
        <ele>1092.195068</ele>
        <time>2014-06-27T12:42:33Z</time>
      </trkpt>
      <trkpt lat="42.284" lon="8.92083">
        <ele>1092.675781</ele>
        <time>2014-06-27T12:42:47Z</time>
      </trkpt>
      <trkpt lat="42.28412" lon="8.92094">
        <ele>1092.195068</ele>
        <time>2014-06-27T12:43:05Z</time>
      </trkpt>
      <trkpt lat="42.28417" lon="8.92097">
        <ele>1091.233643</ele>
        <time>2014-06-27T12:43:25Z</time>
      </trkpt>
    </trkseg>
  </trk>
</gpx>